<?xml version="1.0" encoding="UTF-8" standalone="no" ?>
<gpx xmlns="http://www.topografix.com/GPX/1/1" xmlns:xsi="http://www.w3.org/2001/XMLSchema-instance" xsi:schemaLocation="http://www.topografix.com/GPX/1/1 http://www.topografix.com/GPX/1/1/gpx.xsd" version="1.1" creator="VisuGPX - https://www.visugpx.com">
  <metadata>
    <name>Pal de fer</name>
    <desc><![CDATA[
]]></desc>
  </metadata>
  <trk>
    <name><![CDATA[Pal de fer_1]]></name>
    <extensions>
      <line xmlns="http://www.topografix.com/GPX/gpx_style/0/2">
        <color>0000FF</color>
        <width>4</width>
      </line>
    </extensions>
    <trkseg>
      <trkpt lat="45.29894" lon="5.8989">
        <ele>254.44599914551</ele>
        <time>2017-10-04T18:12:57Z</time>
      </trkpt>
      <trkpt lat="45.29898" lon="5.89886">
        <ele>255.44599914551</ele>
        <time>2017-10-04T18:13:01Z</time>
      </trkpt>
      <trkpt lat="45.29902" lon="5.89882">
        <ele>254.44599914551</ele>
        <time>2017-10-04T18:13:04Z</time>
      </trkpt>
      <trkpt lat="45.29906" lon="5.89879">
        <ele>255.44599914551</ele>
        <time>2017-10-04T18:13:07Z</time>
      </trkpt>
      <trkpt lat="45.29911" lon="5.89875">
        <ele>254.44599914551</ele>
        <time>2017-10-04T18:13:11Z</time>
      </trkpt>
      <trkpt lat="45.29917" lon="5.89871">
        <ele>255.44599914551</ele>
        <time>2017-10-04T18:13:13Z</time>
      </trkpt>
      <trkpt lat="45.29921" lon="5.89867">
        <ele>255.44599914551</ele>
        <time>2017-10-04T18:13:15Z</time>
      </trkpt>
      <trkpt lat="45.29926" lon="5.89863">
        <ele>255.44599914551</ele>
        <time>2017-10-04T18:13:18Z</time>
      </trkpt>
      <trkpt lat="45.29931" lon="5.89859">
        <ele>257.4460144043</ele>
        <time>2017-10-04T18:13:20Z</time>
      </trkpt>
      <trkpt lat="45.29936" lon="5.89856">
        <ele>257.4460144043</ele>
        <time>2017-10-04T18:13:22Z</time>
      </trkpt>
      <trkpt lat="45.29945" lon="5.89847">
        <ele>255.44599914551</ele>
        <time>2017-10-04T18:13:27Z</time>
      </trkpt>
      <trkpt lat="45.29949" lon="5.89843">
        <ele>255.44599914551</ele>
        <time>2017-10-04T18:13:29Z</time>
      </trkpt>
      <trkpt lat="45.29954" lon="5.89837">
        <ele>254.44599914551</ele>
        <time>2017-10-04T18:13:32Z</time>
      </trkpt>
      <trkpt lat="45.29959" lon="5.89832">
        <ele>254.44599914551</ele>
        <time>2017-10-04T18:13:34Z</time>
      </trkpt>
      <trkpt lat="45.29963" lon="5.89826">
        <ele>254.44599914551</ele>
        <time>2017-10-04T18:13:37Z</time>
      </trkpt>
      <trkpt lat="45.29967" lon="5.89822">
        <ele>255.44599914551</ele>
        <time>2017-10-04T18:13:39Z</time>
      </trkpt>
      <trkpt lat="45.29974" lon="5.89817">
        <ele>256.4460144043</ele>
        <time>2017-10-04T18:13:41Z</time>
      </trkpt>
      <trkpt lat="45.29979" lon="5.89814">
        <ele>257.4460144043</ele>
        <time>2017-10-04T18:13:43Z</time>
      </trkpt>
      <trkpt lat="45.29986" lon="5.89813">
        <ele>259.4460144043</ele>
        <time>2017-10-04T18:13:46Z</time>
      </trkpt>
      <trkpt lat="45.29991" lon="5.89811">
        <ele>260.4460144043</ele>
        <time>2017-10-04T18:13:48Z</time>
      </trkpt>
      <trkpt lat="45.29996" lon="5.89809">
        <ele>259.4460144043</ele>
        <time>2017-10-04T18:13:50Z</time>
      </trkpt>
      <trkpt lat="45.3" lon="5.89803">
        <ele>264.4460144043</ele>
        <time>2017-10-04T18:13:54Z</time>
      </trkpt>
      <trkpt lat="45.30005" lon="5.89801">
        <ele>262.4460144043</ele>
        <time>2017-10-04T18:13:58Z</time>
      </trkpt>
      <trkpt lat="45.30011" lon="5.898">
        <ele>263.4460144043</ele>
        <time>2017-10-04T18:14:03Z</time>
      </trkpt>
      <trkpt lat="45.30016" lon="5.89797">
        <ele>266.4460144043</ele>
        <time>2017-10-04T18:14:08Z</time>
      </trkpt>
      <trkpt lat="45.30021" lon="5.89795">
        <ele>268.4460144043</ele>
        <time>2017-10-04T18:14:12Z</time>
      </trkpt>
      <trkpt lat="45.30027" lon="5.89793">
        <ele>270.4460144043</ele>
        <time>2017-10-04T18:14:16Z</time>
      </trkpt>
      <trkpt lat="45.30032" lon="5.89793">
        <ele>273.4460144043</ele>
        <time>2017-10-04T18:14:19Z</time>
      </trkpt>
      <trkpt lat="45.30037" lon="5.89791">
        <ele>273.4460144043</ele>
        <time>2017-10-04T18:14:23Z</time>
      </trkpt>
      <trkpt lat="45.30041" lon="5.89787">
        <ele>275.4460144043</ele>
        <time>2017-10-04T18:14:26Z</time>
      </trkpt>
      <trkpt lat="45.30043" lon="5.89781">
        <ele>277.4460144043</ele>
        <time>2017-10-04T18:14:29Z</time>
      </trkpt>
      <trkpt lat="45.30046" lon="5.89776">
        <ele>276.4460144043</ele>
        <time>2017-10-04T18:14:32Z</time>
      </trkpt>
      <trkpt lat="45.30049" lon="5.8977">
        <ele>276.4460144043</ele>
        <time>2017-10-04T18:14:35Z</time>
      </trkpt>
      <trkpt lat="45.30055" lon="5.89765">
        <ele>280.4460144043</ele>
        <time>2017-10-04T18:14:40Z</time>
      </trkpt>
      <trkpt lat="45.30057" lon="5.89758">
        <ele>283.4460144043</ele>
        <time>2017-10-04T18:14:44Z</time>
      </trkpt>
      <trkpt lat="45.30061" lon="5.89753">
        <ele>283.4460144043</ele>
        <time>2017-10-04T18:14:48Z</time>
      </trkpt>
      <trkpt lat="45.30063" lon="5.89746">
        <ele>282.4460144043</ele>
        <time>2017-10-04T18:14:51Z</time>
      </trkpt>
      <trkpt lat="45.30065" lon="5.89737">
        <ele>282.4460144043</ele>
        <time>2017-10-04T18:14:56Z</time>
      </trkpt>
      <trkpt lat="45.30068" lon="5.89731">
        <ele>282.4460144043</ele>
        <time>2017-10-04T18:15:00Z</time>
      </trkpt>
      <trkpt lat="45.30071" lon="5.89724">
        <ele>282.4460144043</ele>
        <time>2017-10-04T18:15:04Z</time>
      </trkpt>
      <trkpt lat="45.30074" lon="5.89719">
        <ele>284.4460144043</ele>
        <time>2017-10-04T18:15:08Z</time>
      </trkpt>
      <trkpt lat="45.30076" lon="5.89711">
        <ele>289.4460144043</ele>
        <time>2017-10-04T18:15:14Z</time>
      </trkpt>
      <trkpt lat="45.30078" lon="5.89705">
        <ele>290.4460144043</ele>
        <time>2017-10-04T18:15:17Z</time>
      </trkpt>
      <trkpt lat="45.30078" lon="5.89699">
        <ele>290.4460144043</ele>
        <time>2017-10-04T18:15:21Z</time>
      </trkpt>
      <trkpt lat="45.30077" lon="5.8969">
        <ele>293.4460144043</ele>
        <time>2017-10-04T18:15:26Z</time>
      </trkpt>
      <trkpt lat="45.30075" lon="5.89682">
        <ele>295.4460144043</ele>
        <time>2017-10-04T18:15:30Z</time>
      </trkpt>
      <trkpt lat="45.30074" lon="5.89675">
        <ele>300.4460144043</ele>
        <time>2017-10-04T18:15:34Z</time>
      </trkpt>
      <trkpt lat="45.30081" lon="5.89665">
        <ele>302.4460144043</ele>
        <time>2017-10-04T18:15:44Z</time>
      </trkpt>
      <trkpt lat="45.30081" lon="5.89657">
        <ele>300.4460144043</ele>
        <time>2017-10-04T18:15:48Z</time>
      </trkpt>
      <trkpt lat="45.30082" lon="5.8965">
        <ele>300.4460144043</ele>
        <time>2017-10-04T18:15:53Z</time>
      </trkpt>
      <trkpt lat="45.30084" lon="5.89644">
        <ele>303.4460144043</ele>
        <time>2017-10-04T18:15:58Z</time>
      </trkpt>
      <trkpt lat="45.30085" lon="5.89638">
        <ele>307.4460144043</ele>
        <time>2017-10-04T18:16:05Z</time>
      </trkpt>
      <trkpt lat="45.30089" lon="5.89631">
        <ele>310.4460144043</ele>
        <time>2017-10-04T18:16:08Z</time>
      </trkpt>
      <trkpt lat="45.30091" lon="5.89625">
        <ele>308.4460144043</ele>
        <time>2017-10-04T18:16:12Z</time>
      </trkpt>
      <trkpt lat="45.30088" lon="5.89618">
        <ele>312.4460144043</ele>
        <time>2017-10-04T18:16:21Z</time>
      </trkpt>
      <trkpt lat="45.30092" lon="5.89616">
        <ele>313.4460144043</ele>
        <time>2017-10-04T18:16:32Z</time>
      </trkpt>
      <trkpt lat="45.30098" lon="5.89609">
        <ele>314.4460144043</ele>
        <time>2017-10-04T18:16:39Z</time>
      </trkpt>
      <trkpt lat="45.30104" lon="5.89608">
        <ele>316.4460144043</ele>
        <time>2017-10-04T18:16:41Z</time>
      </trkpt>
      <trkpt lat="45.30104" lon="5.89614">
        <ele>318.4460144043</ele>
        <time>2017-10-04T18:16:43Z</time>
      </trkpt>
      <trkpt lat="45.30109" lon="5.89614">
        <ele>320.4460144043</ele>
        <time>2017-10-04T18:16:47Z</time>
      </trkpt>
      <trkpt lat="45.30113" lon="5.89611">
        <ele>320.4460144043</ele>
        <time>2017-10-04T18:16:50Z</time>
      </trkpt>
      <trkpt lat="45.30118" lon="5.89611">
        <ele>320.4460144043</ele>
        <time>2017-10-04T18:16:53Z</time>
      </trkpt>
      <trkpt lat="45.30121" lon="5.89616">
        <ele>322.4460144043</ele>
        <time>2017-10-04T18:16:57Z</time>
      </trkpt>
      <trkpt lat="45.30125" lon="5.89619">
        <ele>323.4460144043</ele>
        <time>2017-10-04T18:17:02Z</time>
      </trkpt>
      <trkpt lat="45.3013" lon="5.89618">
        <ele>325.4460144043</ele>
        <time>2017-10-04T18:17:06Z</time>
      </trkpt>
      <trkpt lat="45.30137" lon="5.89615">
        <ele>327.4460144043</ele>
        <time>2017-10-04T18:17:10Z</time>
      </trkpt>
      <trkpt lat="45.30142" lon="5.89616">
        <ele>326.4460144043</ele>
        <time>2017-10-04T18:17:13Z</time>
      </trkpt>
      <trkpt lat="45.30146" lon="5.89615">
        <ele>325.4460144043</ele>
        <time>2017-10-04T18:17:16Z</time>
      </trkpt>
      <trkpt lat="45.3015" lon="5.89619">
        <ele>325.4460144043</ele>
        <time>2017-10-04T18:17:20Z</time>
      </trkpt>
      <trkpt lat="45.30155" lon="5.89612">
        <ele>327.4460144043</ele>
        <time>2017-10-04T18:17:29Z</time>
      </trkpt>
      <trkpt lat="45.30156" lon="5.89605">
        <ele>328.4460144043</ele>
        <time>2017-10-04T18:17:32Z</time>
      </trkpt>
      <trkpt lat="45.30157" lon="5.89597">
        <ele>327.4460144043</ele>
        <time>2017-10-04T18:17:36Z</time>
      </trkpt>
      <trkpt lat="45.30158" lon="5.8959">
        <ele>329.4460144043</ele>
        <time>2017-10-04T18:17:39Z</time>
      </trkpt>
      <trkpt lat="45.30153" lon="5.89589">
        <ele>328.4460144043</ele>
        <time>2017-10-04T18:17:43Z</time>
      </trkpt>
      <trkpt lat="45.30153" lon="5.89582">
        <ele>328.4460144043</ele>
        <time>2017-10-04T18:17:47Z</time>
      </trkpt>
      <trkpt lat="45.30151" lon="5.89577">
        <ele>329.4460144043</ele>
        <time>2017-10-04T18:17:53Z</time>
      </trkpt>
      <trkpt lat="45.30153" lon="5.8957">
        <ele>330.4460144043</ele>
        <time>2017-10-04T18:17:56Z</time>
      </trkpt>
      <trkpt lat="45.30153" lon="5.89561">
        <ele>333.4460144043</ele>
        <time>2017-10-04T18:18:01Z</time>
      </trkpt>
      <trkpt lat="45.30155" lon="5.89553">
        <ele>334.4460144043</ele>
        <time>2017-10-04T18:18:04Z</time>
      </trkpt>
      <trkpt lat="45.30151" lon="5.89549">
        <ele>337.4460144043</ele>
        <time>2017-10-04T18:18:09Z</time>
      </trkpt>
      <trkpt lat="45.30149" lon="5.89543">
        <ele>338.4460144043</ele>
        <time>2017-10-04T18:18:13Z</time>
      </trkpt>
      <trkpt lat="45.30149" lon="5.89535">
        <ele>336.4460144043</ele>
        <time>2017-10-04T18:18:16Z</time>
      </trkpt>
      <trkpt lat="45.30152" lon="5.89525">
        <ele>338.4460144043</ele>
        <time>2017-10-04T18:18:17Z</time>
      </trkpt>
      <trkpt lat="45.30149" lon="5.89519">
        <ele>339.4460144043</ele>
        <time>2017-10-04T18:18:21Z</time>
      </trkpt>
      <trkpt lat="45.30144" lon="5.89514">
        <ele>341.4460144043</ele>
        <time>2017-10-04T18:18:25Z</time>
      </trkpt>
      <trkpt lat="45.30141" lon="5.8951">
        <ele>340.4460144043</ele>
        <time>2017-10-04T18:18:28Z</time>
      </trkpt>
      <trkpt lat="45.30138" lon="5.89505">
        <ele>339.4460144043</ele>
        <time>2017-10-04T18:18:30Z</time>
      </trkpt>
      <trkpt lat="45.30135" lon="5.89495">
        <ele>339.4460144043</ele>
        <time>2017-10-04T18:18:33Z</time>
      </trkpt>
      <trkpt lat="45.30132" lon="5.8949">
        <ele>341.4460144043</ele>
        <time>2017-10-04T18:18:35Z</time>
      </trkpt>
      <trkpt lat="45.30133" lon="5.89483">
        <ele>342.4460144043</ele>
        <time>2017-10-04T18:18:37Z</time>
      </trkpt>
      <trkpt lat="45.3013" lon="5.89476">
        <ele>343.4460144043</ele>
        <time>2017-10-04T18:18:40Z</time>
      </trkpt>
      <trkpt lat="45.30123" lon="5.89478">
        <ele>343.4460144043</ele>
        <time>2017-10-04T18:18:43Z</time>
      </trkpt>
      <trkpt lat="45.30117" lon="5.89476">
        <ele>342.4460144043</ele>
        <time>2017-10-04T18:18:46Z</time>
      </trkpt>
      <trkpt lat="45.30111" lon="5.89471">
        <ele>342.4460144043</ele>
        <time>2017-10-04T18:18:49Z</time>
      </trkpt>
      <trkpt lat="45.30109" lon="5.89463">
        <ele>345.4460144043</ele>
        <time>2017-10-04T18:18:52Z</time>
      </trkpt>
      <trkpt lat="45.30108" lon="5.89453">
        <ele>348.4460144043</ele>
        <time>2017-10-04T18:18:56Z</time>
      </trkpt>
      <trkpt lat="45.30102" lon="5.8945">
        <ele>349.4460144043</ele>
        <time>2017-10-04T18:18:59Z</time>
      </trkpt>
      <trkpt lat="45.30095" lon="5.89454">
        <ele>351.4460144043</ele>
        <time>2017-10-04T18:19:01Z</time>
      </trkpt>
      <trkpt lat="45.30093" lon="5.89448">
        <ele>352.4460144043</ele>
        <time>2017-10-04T18:19:03Z</time>
      </trkpt>
      <trkpt lat="45.30087" lon="5.89449">
        <ele>354.4460144043</ele>
        <time>2017-10-04T18:19:05Z</time>
      </trkpt>
      <trkpt lat="45.30083" lon="5.89444">
        <ele>355.4460144043</ele>
        <time>2017-10-04T18:19:07Z</time>
      </trkpt>
      <trkpt lat="45.30079" lon="5.89441">
        <ele>354.4460144043</ele>
        <time>2017-10-04T18:19:09Z</time>
      </trkpt>
      <trkpt lat="45.30074" lon="5.89441">
        <ele>357.4460144043</ele>
        <time>2017-10-04T18:19:12Z</time>
      </trkpt>
      <trkpt lat="45.30071" lon="5.89431">
        <ele>356.4460144043</ele>
        <time>2017-10-04T18:19:15Z</time>
      </trkpt>
      <trkpt lat="45.30066" lon="5.89427">
        <ele>356.4460144043</ele>
        <time>2017-10-04T18:19:17Z</time>
      </trkpt>
      <trkpt lat="45.3006" lon="5.89425">
        <ele>356.4460144043</ele>
        <time>2017-10-04T18:19:20Z</time>
      </trkpt>
      <trkpt lat="45.30061" lon="5.89417">
        <ele>355.4460144043</ele>
        <time>2017-10-04T18:19:22Z</time>
      </trkpt>
      <trkpt lat="45.30064" lon="5.89412">
        <ele>357.4460144043</ele>
        <time>2017-10-04T18:19:23Z</time>
      </trkpt>
      <trkpt lat="45.30052" lon="5.89417">
        <ele>360.4460144043</ele>
        <time>2017-10-04T18:19:26Z</time>
      </trkpt>
      <trkpt lat="45.30047" lon="5.89421">
        <ele>362.4460144043</ele>
        <time>2017-10-04T18:19:27Z</time>
      </trkpt>
      <trkpt lat="45.30042" lon="5.89424">
        <ele>362.4460144043</ele>
        <time>2017-10-04T18:19:28Z</time>
      </trkpt>
      <trkpt lat="45.30036" lon="5.89424">
        <ele>362.4460144043</ele>
        <time>2017-10-04T18:19:30Z</time>
      </trkpt>
      <trkpt lat="45.30029" lon="5.89426">
        <ele>361.4460144043</ele>
        <time>2017-10-04T18:19:33Z</time>
      </trkpt>
      <trkpt lat="45.30022" lon="5.89431">
        <ele>360.4460144043</ele>
        <time>2017-10-04T18:19:35Z</time>
      </trkpt>
      <trkpt lat="45.30016" lon="5.89431">
        <ele>360.4460144043</ele>
        <time>2017-10-04T18:19:38Z</time>
      </trkpt>
      <trkpt lat="45.30011" lon="5.89429">
        <ele>361.4460144043</ele>
        <time>2017-10-04T18:19:44Z</time>
      </trkpt>
      <trkpt lat="45.30013" lon="5.89423">
        <ele>362.4460144043</ele>
        <time>2017-10-04T18:19:48Z</time>
      </trkpt>
      <trkpt lat="45.30016" lon="5.89417">
        <ele>363.4460144043</ele>
        <time>2017-10-04T18:19:54Z</time>
      </trkpt>
      <trkpt lat="45.30018" lon="5.89411">
        <ele>363.4460144043</ele>
        <time>2017-10-04T18:19:58Z</time>
      </trkpt>
      <trkpt lat="45.30021" lon="5.89404">
        <ele>366.4460144043</ele>
        <time>2017-10-04T18:20:14Z</time>
      </trkpt>
      <trkpt lat="45.30026" lon="5.89393">
        <ele>369.4460144043</ele>
        <time>2017-10-04T18:20:18Z</time>
      </trkpt>
      <trkpt lat="45.30031" lon="5.89384">
        <ele>369.4460144043</ele>
        <time>2017-10-04T18:20:21Z</time>
      </trkpt>
      <trkpt lat="45.30034" lon="5.89378">
        <ele>368.4460144043</ele>
        <time>2017-10-04T18:20:23Z</time>
      </trkpt>
      <trkpt lat="45.30036" lon="5.89372">
        <ele>371.4460144043</ele>
        <time>2017-10-04T18:20:26Z</time>
      </trkpt>
      <trkpt lat="45.30041" lon="5.89364">
        <ele>370.4460144043</ele>
        <time>2017-10-04T18:20:28Z</time>
      </trkpt>
      <trkpt lat="45.30047" lon="5.89361">
        <ele>372.4460144043</ele>
        <time>2017-10-04T18:20:38Z</time>
      </trkpt>
      <trkpt lat="45.30051" lon="5.89363">
        <ele>383.4460144043</ele>
        <time>2017-10-04T18:20:48Z</time>
      </trkpt>
      <trkpt lat="45.30056" lon="5.89361">
        <ele>386.4460144043</ele>
        <time>2017-10-04T18:21:10Z</time>
      </trkpt>
      <trkpt lat="45.30065" lon="5.89358">
        <ele>382.4460144043</ele>
        <time>2017-10-04T18:21:14Z</time>
      </trkpt>
      <trkpt lat="45.3007" lon="5.89361">
        <ele>384.4460144043</ele>
        <time>2017-10-04T18:21:18Z</time>
      </trkpt>
      <trkpt lat="45.30078" lon="5.89359">
        <ele>382.4460144043</ele>
        <time>2017-10-04T18:21:21Z</time>
      </trkpt>
      <trkpt lat="45.30083" lon="5.89366">
        <ele>383.4460144043</ele>
        <time>2017-10-04T18:21:25Z</time>
      </trkpt>
      <trkpt lat="45.30088" lon="5.8937">
        <ele>383.4460144043</ele>
        <time>2017-10-04T18:21:27Z</time>
      </trkpt>
      <trkpt lat="45.30093" lon="5.89367">
        <ele>385.4460144043</ele>
        <time>2017-10-04T18:21:30Z</time>
      </trkpt>
      <trkpt lat="45.30098" lon="5.89366">
        <ele>388.4460144043</ele>
        <time>2017-10-04T18:21:33Z</time>
      </trkpt>
      <trkpt lat="45.30104" lon="5.89362">
        <ele>388.4460144043</ele>
        <time>2017-10-04T18:21:35Z</time>
      </trkpt>
      <trkpt lat="45.30111" lon="5.89358">
        <ele>390.4460144043</ele>
        <time>2017-10-04T18:21:38Z</time>
      </trkpt>
      <trkpt lat="45.30115" lon="5.89356">
        <ele>392.4460144043</ele>
        <time>2017-10-04T18:21:41Z</time>
      </trkpt>
      <trkpt lat="45.3012" lon="5.89355">
        <ele>394.4460144043</ele>
        <time>2017-10-04T18:21:44Z</time>
      </trkpt>
      <trkpt lat="45.3012" lon="5.89362">
        <ele>397.4460144043</ele>
        <time>2017-10-04T18:21:47Z</time>
      </trkpt>
      <trkpt lat="45.30126" lon="5.89357">
        <ele>397.4460144043</ele>
        <time>2017-10-04T18:21:51Z</time>
      </trkpt>
      <trkpt lat="45.30132" lon="5.89353">
        <ele>398.4460144043</ele>
        <time>2017-10-04T18:21:55Z</time>
      </trkpt>
      <trkpt lat="45.30136" lon="5.89358">
        <ele>402.4460144043</ele>
        <time>2017-10-04T18:22:01Z</time>
      </trkpt>
      <trkpt lat="45.30141" lon="5.89357">
        <ele>403.4460144043</ele>
        <time>2017-10-04T18:22:03Z</time>
      </trkpt>
      <trkpt lat="45.30142" lon="5.89363">
        <ele>404.4460144043</ele>
        <time>2017-10-04T18:22:06Z</time>
      </trkpt>
      <trkpt lat="45.30141" lon="5.8937">
        <ele>407.4460144043</ele>
        <time>2017-10-04T18:22:10Z</time>
      </trkpt>
      <trkpt lat="45.30145" lon="5.89369">
        <ele>408.4460144043</ele>
        <time>2017-10-04T18:22:13Z</time>
      </trkpt>
      <trkpt lat="45.30151" lon="5.89368">
        <ele>406.4460144043</ele>
        <time>2017-10-04T18:22:16Z</time>
      </trkpt>
      <trkpt lat="45.30156" lon="5.89373">
        <ele>409.4460144043</ele>
        <time>2017-10-04T18:22:22Z</time>
      </trkpt>
      <trkpt lat="45.30159" lon="5.89377">
        <ele>411.4460144043</ele>
        <time>2017-10-04T18:22:27Z</time>
      </trkpt>
      <trkpt lat="45.30164" lon="5.89379">
        <ele>415.4460144043</ele>
        <time>2017-10-04T18:22:32Z</time>
      </trkpt>
      <trkpt lat="45.30169" lon="5.89378">
        <ele>415.4460144043</ele>
        <time>2017-10-04T18:22:35Z</time>
      </trkpt>
      <trkpt lat="45.30174" lon="5.8938">
        <ele>414.4460144043</ele>
        <time>2017-10-04T18:22:41Z</time>
      </trkpt>
      <trkpt lat="45.3018" lon="5.89379">
        <ele>414.4460144043</ele>
        <time>2017-10-04T18:22:44Z</time>
      </trkpt>
      <trkpt lat="45.30186" lon="5.89377">
        <ele>417.4460144043</ele>
        <time>2017-10-04T18:22:49Z</time>
      </trkpt>
      <trkpt lat="45.30192" lon="5.89376">
        <ele>421.4460144043</ele>
        <time>2017-10-04T18:22:56Z</time>
      </trkpt>
      <trkpt lat="45.30197" lon="5.89372">
        <ele>421.4460144043</ele>
        <time>2017-10-04T18:22:58Z</time>
      </trkpt>
      <trkpt lat="45.30203" lon="5.89371">
        <ele>422.4460144043</ele>
        <time>2017-10-04T18:23:01Z</time>
      </trkpt>
      <trkpt lat="45.30207" lon="5.89369">
        <ele>424.4460144043</ele>
        <time>2017-10-04T18:23:05Z</time>
      </trkpt>
      <trkpt lat="45.3021" lon="5.89375">
        <ele>425.4460144043</ele>
        <time>2017-10-04T18:23:11Z</time>
      </trkpt>
      <trkpt lat="45.30213" lon="5.89381">
        <ele>426.4460144043</ele>
        <time>2017-10-04T18:23:21Z</time>
      </trkpt>
      <trkpt lat="45.30221" lon="5.89373">
        <ele>425.4460144043</ele>
        <time>2017-10-04T18:23:40Z</time>
      </trkpt>
      <trkpt lat="45.30232" lon="5.89365">
        <ele>426.4460144043</ele>
        <time>2017-10-04T18:23:43Z</time>
      </trkpt>
      <trkpt lat="45.30236" lon="5.89364">
        <ele>429.4460144043</ele>
        <time>2017-10-04T18:23:47Z</time>
      </trkpt>
      <trkpt lat="45.30241" lon="5.89366">
        <ele>435.4460144043</ele>
        <time>2017-10-04T18:23:51Z</time>
      </trkpt>
      <trkpt lat="45.30246" lon="5.89362">
        <ele>435.4460144043</ele>
        <time>2017-10-04T18:23:52Z</time>
      </trkpt>
      <trkpt lat="45.30251" lon="5.89363">
        <ele>437.4460144043</ele>
        <time>2017-10-04T18:23:56Z</time>
      </trkpt>
      <trkpt lat="45.30254" lon="5.89358">
        <ele>435.4460144043</ele>
        <time>2017-10-04T18:23:58Z</time>
      </trkpt>
      <trkpt lat="45.3026" lon="5.89354">
        <ele>439.4460144043</ele>
        <time>2017-10-04T18:24:03Z</time>
      </trkpt>
      <trkpt lat="45.30263" lon="5.8935">
        <ele>443.4460144043</ele>
        <time>2017-10-04T18:24:07Z</time>
      </trkpt>
      <trkpt lat="45.30268" lon="5.8935">
        <ele>446.4460144043</ele>
        <time>2017-10-04T18:24:13Z</time>
      </trkpt>
      <trkpt lat="45.30273" lon="5.89347">
        <ele>449.4460144043</ele>
        <time>2017-10-04T18:24:47Z</time>
      </trkpt>
      <trkpt lat="45.30278" lon="5.89339">
        <ele>449.4460144043</ele>
        <time>2017-10-04T18:24:50Z</time>
      </trkpt>
      <trkpt lat="45.30283" lon="5.89333">
        <ele>450.4460144043</ele>
        <time>2017-10-04T18:24:52Z</time>
      </trkpt>
      <trkpt lat="45.30289" lon="5.89325">
        <ele>452.4460144043</ele>
        <time>2017-10-04T18:24:55Z</time>
      </trkpt>
      <trkpt lat="45.30299" lon="5.89311">
        <ele>450.4460144043</ele>
        <time>2017-10-04T18:24:58Z</time>
      </trkpt>
      <trkpt lat="45.30307" lon="5.89296">
        <ele>449.4460144043</ele>
        <time>2017-10-04T18:25:01Z</time>
      </trkpt>
      <trkpt lat="45.30302" lon="5.89302">
        <ele>450.4460144043</ele>
        <time>2017-10-04T18:25:07Z</time>
      </trkpt>
      <trkpt lat="45.30305" lon="5.89297">
        <ele>450.4460144043</ele>
        <time>2017-10-04T18:25:14Z</time>
      </trkpt>
      <trkpt lat="45.30309" lon="5.89291">
        <ele>453.4460144043</ele>
        <time>2017-10-04T18:25:54Z</time>
      </trkpt>
      <trkpt lat="45.3031" lon="5.89281">
        <ele>452.4460144043</ele>
        <time>2017-10-04T18:25:58Z</time>
      </trkpt>
      <trkpt lat="45.30312" lon="5.89275">
        <ele>457.4460144043</ele>
        <time>2017-10-04T18:26:03Z</time>
      </trkpt>
      <trkpt lat="45.30316" lon="5.89267">
        <ele>457.4460144043</ele>
        <time>2017-10-04T18:26:04Z</time>
      </trkpt>
      <trkpt lat="45.30321" lon="5.89258">
        <ele>458.4460144043</ele>
        <time>2017-10-04T18:26:06Z</time>
      </trkpt>
      <trkpt lat="45.30328" lon="5.89249">
        <ele>460.4460144043</ele>
        <time>2017-10-04T18:26:08Z</time>
      </trkpt>
      <trkpt lat="45.30335" lon="5.89235">
        <ele>466.4460144043</ele>
        <time>2017-10-04T18:26:13Z</time>
      </trkpt>
      <trkpt lat="45.30339" lon="5.89226">
        <ele>475.4460144043</ele>
        <time>2017-10-04T18:26:21Z</time>
      </trkpt>
      <trkpt lat="45.30351" lon="5.89212">
        <ele>473.4460144043</ele>
        <time>2017-10-04T18:26:23Z</time>
      </trkpt>
      <trkpt lat="45.30355" lon="5.89204">
        <ele>475.4460144043</ele>
        <time>2017-10-04T18:26:28Z</time>
      </trkpt>
      <trkpt lat="45.30358" lon="5.89199">
        <ele>476.4460144043</ele>
        <time>2017-10-04T18:26:30Z</time>
      </trkpt>
      <trkpt lat="45.30362" lon="5.89193">
        <ele>482.4460144043</ele>
        <time>2017-10-04T18:26:35Z</time>
      </trkpt>
      <trkpt lat="45.30367" lon="5.89185">
        <ele>484.4460144043</ele>
        <time>2017-10-04T18:26:41Z</time>
      </trkpt>
      <trkpt lat="45.30372" lon="5.89178">
        <ele>487.4460144043</ele>
        <time>2017-10-04T18:26:46Z</time>
      </trkpt>
      <trkpt lat="45.30382" lon="5.89162">
        <ele>488.4460144043</ele>
        <time>2017-10-04T18:26:54Z</time>
      </trkpt>
      <trkpt lat="45.30385" lon="5.89156">
        <ele>498.4460144043</ele>
        <time>2017-10-04T18:27:06Z</time>
      </trkpt>
      <trkpt lat="45.30388" lon="5.89146">
        <ele>499.4460144043</ele>
        <time>2017-10-04T18:27:09Z</time>
      </trkpt>
      <trkpt lat="45.30393" lon="5.89142">
        <ele>496.4460144043</ele>
        <time>2017-10-04T18:27:14Z</time>
      </trkpt>
      <trkpt lat="45.30392" lon="5.8915">
        <ele>495.4460144043</ele>
        <time>2017-10-04T18:27:40Z</time>
      </trkpt>
      <trkpt lat="45.30397" lon="5.89151">
        <ele>494.4460144043</ele>
        <time>2017-10-04T18:27:42Z</time>
      </trkpt>
      <trkpt lat="45.30401" lon="5.8915">
        <ele>497.4460144043</ele>
        <time>2017-10-04T18:27:49Z</time>
      </trkpt>
      <trkpt lat="45.30402" lon="5.89156">
        <ele>500.4460144043</ele>
        <time>2017-10-04T18:27:52Z</time>
      </trkpt>
      <trkpt lat="45.30405" lon="5.89165">
        <ele>499.4460144043</ele>
        <time>2017-10-04T18:27:57Z</time>
      </trkpt>
      <trkpt lat="45.30402" lon="5.89172">
        <ele>502.4460144043</ele>
        <time>2017-10-04T18:27:59Z</time>
      </trkpt>
      <trkpt lat="45.304" lon="5.8918">
        <ele>506.4460144043</ele>
        <time>2017-10-04T18:28:04Z</time>
      </trkpt>
      <trkpt lat="45.30404" lon="5.89187">
        <ele>510.4460144043</ele>
        <time>2017-10-04T18:28:12Z</time>
      </trkpt>
      <trkpt lat="45.304" lon="5.89198">
        <ele>509.4460144043</ele>
        <time>2017-10-04T18:28:14Z</time>
      </trkpt>
      <trkpt lat="45.30406" lon="5.89194">
        <ele>508.4460144043</ele>
        <time>2017-10-04T18:28:16Z</time>
      </trkpt>
      <trkpt lat="45.30413" lon="5.89192">
        <ele>508.4460144043</ele>
        <time>2017-10-04T18:28:18Z</time>
      </trkpt>
      <trkpt lat="45.30417" lon="5.8919">
        <ele>510.4460144043</ele>
        <time>2017-10-04T18:28:20Z</time>
      </trkpt>
      <trkpt lat="45.30424" lon="5.89187">
        <ele>510.4460144043</ele>
        <time>2017-10-04T18:28:22Z</time>
      </trkpt>
      <trkpt lat="45.30423" lon="5.89194">
        <ele>514.44598388672</ele>
        <time>2017-10-04T18:28:24Z</time>
      </trkpt>
      <trkpt lat="45.30428" lon="5.89193">
        <ele>514.44598388672</ele>
        <time>2017-10-04T18:28:26Z</time>
      </trkpt>
      <trkpt lat="45.30429" lon="5.89199">
        <ele>518.44598388672</ele>
        <time>2017-10-04T18:28:30Z</time>
      </trkpt>
      <trkpt lat="45.3043" lon="5.89213">
        <ele>519.44598388672</ele>
        <time>2017-10-04T18:28:34Z</time>
      </trkpt>
      <trkpt lat="45.30429" lon="5.89221">
        <ele>520.44598388672</ele>
        <time>2017-10-04T18:28:36Z</time>
      </trkpt>
      <trkpt lat="45.30427" lon="5.89232">
        <ele>526.44598388672</ele>
        <time>2017-10-04T18:28:39Z</time>
      </trkpt>
      <trkpt lat="45.30432" lon="5.89234">
        <ele>527.44598388672</ele>
        <time>2017-10-04T18:28:43Z</time>
      </trkpt>
      <trkpt lat="45.30434" lon="5.89239">
        <ele>526.44598388672</ele>
        <time>2017-10-04T18:28:45Z</time>
      </trkpt>
      <trkpt lat="45.3044" lon="5.89238">
        <ele>526.44598388672</ele>
        <time>2017-10-04T18:28:47Z</time>
      </trkpt>
      <trkpt lat="45.30447" lon="5.89236">
        <ele>526.44598388672</ele>
        <time>2017-10-04T18:28:49Z</time>
      </trkpt>
      <trkpt lat="45.30452" lon="5.8924">
        <ele>525.44598388672</ele>
        <time>2017-10-04T18:28:52Z</time>
      </trkpt>
      <trkpt lat="45.3045" lon="5.89246">
        <ele>527.44598388672</ele>
        <time>2017-10-04T18:28:55Z</time>
      </trkpt>
      <trkpt lat="45.30457" lon="5.89243">
        <ele>527.44598388672</ele>
        <time>2017-10-04T18:28:58Z</time>
      </trkpt>
      <trkpt lat="45.30461" lon="5.89241">
        <ele>527.44598388672</ele>
        <time>2017-10-04T18:29:01Z</time>
      </trkpt>
      <trkpt lat="45.30466" lon="5.8924">
        <ele>530.44598388672</ele>
        <time>2017-10-04T18:29:04Z</time>
      </trkpt>
      <trkpt lat="45.30471" lon="5.8924">
        <ele>530.44598388672</ele>
        <time>2017-10-04T18:29:07Z</time>
      </trkpt>
      <trkpt lat="45.30468" lon="5.89246">
        <ele>528.44598388672</ele>
        <time>2017-10-04T18:29:09Z</time>
      </trkpt>
      <trkpt lat="45.30468" lon="5.89253">
        <ele>528.44598388672</ele>
        <time>2017-10-04T18:29:12Z</time>
      </trkpt>
      <trkpt lat="45.30475" lon="5.8925">
        <ele>531.44598388672</ele>
        <time>2017-10-04T18:29:15Z</time>
      </trkpt>
      <trkpt lat="45.3048" lon="5.89253">
        <ele>533.44598388672</ele>
        <time>2017-10-04T18:29:24Z</time>
      </trkpt>
      <trkpt lat="45.30484" lon="5.89255">
        <ele>536.44598388672</ele>
        <time>2017-10-04T18:29:41Z</time>
      </trkpt>
      <trkpt lat="45.3049" lon="5.89255">
        <ele>539.44702148438</ele>
        <time>2017-10-04T18:29:46Z</time>
      </trkpt>
      <trkpt lat="45.30495" lon="5.89257">
        <ele>541.44702148438</ele>
        <time>2017-10-04T18:29:49Z</time>
      </trkpt>
      <trkpt lat="45.30498" lon="5.89253">
        <ele>540.44702148438</ele>
        <time>2017-10-04T18:29:51Z</time>
      </trkpt>
      <trkpt lat="45.30503" lon="5.8925">
        <ele>538.44702148438</ele>
        <time>2017-10-04T18:29:54Z</time>
      </trkpt>
      <trkpt lat="45.30507" lon="5.89253">
        <ele>538.44702148438</ele>
        <time>2017-10-04T18:29:58Z</time>
      </trkpt>
      <trkpt lat="45.30513" lon="5.89258">
        <ele>541.44702148438</ele>
        <time>2017-10-04T18:30:01Z</time>
      </trkpt>
      <trkpt lat="45.30513" lon="5.89268">
        <ele>542.44702148438</ele>
        <time>2017-10-04T18:30:03Z</time>
      </trkpt>
      <trkpt lat="45.30515" lon="5.89274">
        <ele>544.44702148438</ele>
        <time>2017-10-04T18:30:05Z</time>
      </trkpt>
      <trkpt lat="45.30519" lon="5.8928">
        <ele>544.44702148438</ele>
        <time>2017-10-04T18:30:09Z</time>
      </trkpt>
      <trkpt lat="45.3052" lon="5.89288">
        <ele>547.44702148438</ele>
        <time>2017-10-04T18:30:14Z</time>
      </trkpt>
      <trkpt lat="45.30526" lon="5.8929">
        <ele>547.44702148438</ele>
        <time>2017-10-04T18:30:21Z</time>
      </trkpt>
      <trkpt lat="45.30532" lon="5.89294">
        <ele>548.44702148438</ele>
        <time>2017-10-04T18:30:28Z</time>
      </trkpt>
      <trkpt lat="45.30534" lon="5.89301">
        <ele>550.44702148438</ele>
        <time>2017-10-04T18:30:32Z</time>
      </trkpt>
      <trkpt lat="45.30532" lon="5.8931">
        <ele>551.44702148438</ele>
        <time>2017-10-04T18:30:34Z</time>
      </trkpt>
      <trkpt lat="45.30537" lon="5.89309">
        <ele>551.44702148438</ele>
        <time>2017-10-04T18:30:39Z</time>
      </trkpt>
      <trkpt lat="45.30541" lon="5.89312">
        <ele>551.44702148438</ele>
        <time>2017-10-04T18:30:42Z</time>
      </trkpt>
      <trkpt lat="45.30543" lon="5.89316">
        <ele>551.44702148438</ele>
        <time>2017-10-04T18:30:45Z</time>
      </trkpt>
      <trkpt lat="45.30549" lon="5.89313">
        <ele>553.44702148438</ele>
        <time>2017-10-04T18:30:48Z</time>
      </trkpt>
      <trkpt lat="45.30543" lon="5.89327">
        <ele>557.44702148438</ele>
        <time>2017-10-04T18:30:52Z</time>
      </trkpt>
      <trkpt lat="45.30538" lon="5.89335">
        <ele>559.44702148438</ele>
        <time>2017-10-04T18:30:54Z</time>
      </trkpt>
      <trkpt lat="45.30537" lon="5.89342">
        <ele>560.44702148438</ele>
        <time>2017-10-04T18:30:57Z</time>
      </trkpt>
      <trkpt lat="45.30542" lon="5.89342">
        <ele>561.44702148438</ele>
        <time>2017-10-04T18:31:05Z</time>
      </trkpt>
      <trkpt lat="45.30543" lon="5.89349">
        <ele>563.44702148438</ele>
        <time>2017-10-04T18:31:14Z</time>
      </trkpt>
      <trkpt lat="45.30548" lon="5.89352">
        <ele>565.44702148438</ele>
        <time>2017-10-04T18:31:20Z</time>
      </trkpt>
      <trkpt lat="45.30546" lon="5.89361">
        <ele>568.44702148438</ele>
        <time>2017-10-04T18:31:23Z</time>
      </trkpt>
      <trkpt lat="45.30552" lon="5.89359">
        <ele>569.44702148438</ele>
        <time>2017-10-04T18:31:26Z</time>
      </trkpt>
      <trkpt lat="45.30557" lon="5.8936">
        <ele>572.44702148438</ele>
        <time>2017-10-04T18:31:31Z</time>
      </trkpt>
      <trkpt lat="45.30558" lon="5.89367">
        <ele>573.44702148438</ele>
        <time>2017-10-04T18:31:37Z</time>
      </trkpt>
      <trkpt lat="45.3056" lon="5.89374">
        <ele>574.44702148438</ele>
        <time>2017-10-04T18:31:42Z</time>
      </trkpt>
      <trkpt lat="45.30562" lon="5.8938">
        <ele>574.44702148438</ele>
        <time>2017-10-04T18:31:53Z</time>
      </trkpt>
      <trkpt lat="45.30566" lon="5.89383">
        <ele>575.44702148438</ele>
        <time>2017-10-04T18:31:57Z</time>
      </trkpt>
      <trkpt lat="45.30569" lon="5.89389">
        <ele>577.44702148438</ele>
        <time>2017-10-04T18:32:02Z</time>
      </trkpt>
      <trkpt lat="45.30573" lon="5.89391">
        <ele>579.44702148438</ele>
        <time>2017-10-04T18:32:06Z</time>
      </trkpt>
      <trkpt lat="45.30571" lon="5.89405">
        <ele>580.44702148438</ele>
        <time>2017-10-04T18:32:12Z</time>
      </trkpt>
      <trkpt lat="45.30569" lon="5.89413">
        <ele>579.44702148438</ele>
        <time>2017-10-04T18:32:14Z</time>
      </trkpt>
      <trkpt lat="45.3057" lon="5.89421">
        <ele>580.44702148438</ele>
        <time>2017-10-04T18:32:18Z</time>
      </trkpt>
      <trkpt lat="45.3057" lon="5.89427">
        <ele>578.44702148438</ele>
        <time>2017-10-04T18:32:20Z</time>
      </trkpt>
      <trkpt lat="45.30574" lon="5.89429">
        <ele>580.44702148438</ele>
        <time>2017-10-04T18:32:23Z</time>
      </trkpt>
      <trkpt lat="45.30574" lon="5.89436">
        <ele>582.44702148438</ele>
        <time>2017-10-04T18:32:34Z</time>
      </trkpt>
      <trkpt lat="45.30571" lon="5.89441">
        <ele>583.44702148438</ele>
        <time>2017-10-04T18:32:37Z</time>
      </trkpt>
      <trkpt lat="45.30577" lon="5.89435">
        <ele>584.44702148438</ele>
        <time>2017-10-04T18:32:39Z</time>
      </trkpt>
      <trkpt lat="45.30582" lon="5.89438">
        <ele>588.44702148438</ele>
        <time>2017-10-04T18:32:46Z</time>
      </trkpt>
      <trkpt lat="45.30585" lon="5.89432">
        <ele>591.44702148438</ele>
        <time>2017-10-04T18:33:01Z</time>
      </trkpt>
      <trkpt lat="45.30589" lon="5.89428">
        <ele>595.44702148438</ele>
        <time>2017-10-04T18:33:06Z</time>
      </trkpt>
      <trkpt lat="45.30595" lon="5.89423">
        <ele>596.44702148438</ele>
        <time>2017-10-04T18:33:30Z</time>
      </trkpt>
      <trkpt lat="45.306" lon="5.89421">
        <ele>599.44702148438</ele>
        <time>2017-10-04T18:33:35Z</time>
      </trkpt>
      <trkpt lat="45.30605" lon="5.89415">
        <ele>600.44702148438</ele>
        <time>2017-10-04T18:33:37Z</time>
      </trkpt>
      <trkpt lat="45.3061" lon="5.8941">
        <ele>605.44702148438</ele>
        <time>2017-10-04T18:33:42Z</time>
      </trkpt>
      <trkpt lat="45.3061" lon="5.89403">
        <ele>608.44702148438</ele>
        <time>2017-10-04T18:33:45Z</time>
      </trkpt>
      <trkpt lat="45.30606" lon="5.89399">
        <ele>381.4469909668</ele>
        <time>2017-10-04T18:33:48Z</time>
      </trkpt>
      <trkpt lat="45.30601" lon="5.89395">
        <ele>495.4469909668</ele>
        <time>2017-10-04T18:33:51Z</time>
      </trkpt>
      <trkpt lat="45.30603" lon="5.89389">
        <ele>533.44702148438</ele>
        <time>2017-10-04T18:33:54Z</time>
      </trkpt>
      <trkpt lat="45.30606" lon="5.89383">
        <ele>582.44702148438</ele>
        <time>2017-10-04T18:33:59Z</time>
      </trkpt>
      <trkpt lat="45.3061" lon="5.89374">
        <ele>594.44702148438</ele>
        <time>2017-10-04T18:34:02Z</time>
      </trkpt>
      <trkpt lat="45.30613" lon="5.89368">
        <ele>603.44702148438</ele>
        <time>2017-10-04T18:34:06Z</time>
      </trkpt>
      <trkpt lat="45.30615" lon="5.89359">
        <ele>611.44702148438</ele>
        <time>2017-10-04T18:34:14Z</time>
      </trkpt>
      <trkpt lat="45.30608" lon="5.89364">
        <ele>611.44702148438</ele>
        <time>2017-10-04T18:34:17Z</time>
      </trkpt>
      <trkpt lat="45.30605" lon="5.89374">
        <ele>622.44702148438</ele>
        <time>2017-10-04T18:34:29Z</time>
      </trkpt>
      <trkpt lat="45.30611" lon="5.89376">
        <ele>622.44702148438</ele>
        <time>2017-10-04T18:34:36Z</time>
      </trkpt>
      <trkpt lat="45.30616" lon="5.89372">
        <ele>624.44702148438</ele>
        <time>2017-10-04T18:34:41Z</time>
      </trkpt>
      <trkpt lat="45.3062" lon="5.89366">
        <ele>624.44702148438</ele>
        <time>2017-10-04T18:34:42Z</time>
      </trkpt>
      <trkpt lat="45.30623" lon="5.8936">
        <ele>625.44702148438</ele>
        <time>2017-10-04T18:34:47Z</time>
      </trkpt>
      <trkpt lat="45.30625" lon="5.89352">
        <ele>627.44702148438</ele>
        <time>2017-10-04T18:34:51Z</time>
      </trkpt>
      <trkpt lat="45.3063" lon="5.89348">
        <ele>631.44702148438</ele>
        <time>2017-10-04T18:34:55Z</time>
      </trkpt>
      <trkpt lat="45.30629" lon="5.89335">
        <ele>631.44702148438</ele>
        <time>2017-10-04T18:34:59Z</time>
      </trkpt>
      <trkpt lat="45.30627" lon="5.89329">
        <ele>638.44702148438</ele>
        <time>2017-10-04T18:35:14Z</time>
      </trkpt>
      <trkpt lat="45.30632" lon="5.8933">
        <ele>641.44702148438</ele>
        <time>2017-10-04T18:35:25Z</time>
      </trkpt>
      <trkpt lat="45.30635" lon="5.89334">
        <ele>645.44702148438</ele>
        <time>2017-10-04T18:35:31Z</time>
      </trkpt>
      <trkpt lat="45.30633" lon="5.8934">
        <ele>648.44702148438</ele>
        <time>2017-10-04T18:35:35Z</time>
      </trkpt>
      <trkpt lat="45.30638" lon="5.89341">
        <ele>648.44702148438</ele>
        <time>2017-10-04T18:35:39Z</time>
      </trkpt>
      <trkpt lat="45.30645" lon="5.89343">
        <ele>650.44702148438</ele>
        <time>2017-10-04T18:35:44Z</time>
      </trkpt>
      <trkpt lat="45.30651" lon="5.89341">
        <ele>648.44702148438</ele>
        <time>2017-10-04T18:35:47Z</time>
      </trkpt>
      <trkpt lat="45.3065" lon="5.89348">
        <ele>649.44702148438</ele>
        <time>2017-10-04T18:35:50Z</time>
      </trkpt>
      <trkpt lat="45.30649" lon="5.89355">
        <ele>650.44702148438</ele>
        <time>2017-10-04T18:35:52Z</time>
      </trkpt>
      <trkpt lat="45.30653" lon="5.89353">
        <ele>650.44702148438</ele>
        <time>2017-10-04T18:35:54Z</time>
      </trkpt>
      <trkpt lat="45.30658" lon="5.89349">
        <ele>653.44702148438</ele>
        <time>2017-10-04T18:35:59Z</time>
      </trkpt>
      <trkpt lat="45.30661" lon="5.89341">
        <ele>653.44702148438</ele>
        <time>2017-10-04T18:36:09Z</time>
      </trkpt>
      <trkpt lat="45.30667" lon="5.89342">
        <ele>654.44702148438</ele>
        <time>2017-10-04T18:36:15Z</time>
      </trkpt>
      <trkpt lat="45.30666" lon="5.89349">
        <ele>655.44702148438</ele>
        <time>2017-10-04T18:36:19Z</time>
      </trkpt>
      <trkpt lat="45.30668" lon="5.89356">
        <ele>657.44702148438</ele>
        <time>2017-10-04T18:36:23Z</time>
      </trkpt>
      <trkpt lat="45.3067" lon="5.89362">
        <ele>658.44702148438</ele>
        <time>2017-10-04T18:36:28Z</time>
      </trkpt>
      <trkpt lat="45.30677" lon="5.89358">
        <ele>659.44702148438</ele>
        <time>2017-10-04T18:36:31Z</time>
      </trkpt>
      <trkpt lat="45.30674" lon="5.89352">
        <ele>660.44702148438</ele>
        <time>2017-10-04T18:36:40Z</time>
      </trkpt>
      <trkpt lat="45.30674" lon="5.89346">
        <ele>659.44702148438</ele>
        <time>2017-10-04T18:36:43Z</time>
      </trkpt>
      <trkpt lat="45.30675" lon="5.89339">
        <ele>662.44702148438</ele>
        <time>2017-10-04T18:36:48Z</time>
      </trkpt>
      <trkpt lat="45.30678" lon="5.89333">
        <ele>661.44702148438</ele>
        <time>2017-10-04T18:36:50Z</time>
      </trkpt>
      <trkpt lat="45.30684" lon="5.89324">
        <ele>662.44702148438</ele>
        <time>2017-10-04T18:36:54Z</time>
      </trkpt>
      <trkpt lat="45.30685" lon="5.89331">
        <ele>664.44702148438</ele>
        <time>2017-10-04T18:36:57Z</time>
      </trkpt>
      <trkpt lat="45.30693" lon="5.89328">
        <ele>662.44702148438</ele>
        <time>2017-10-04T18:37:02Z</time>
      </trkpt>
      <trkpt lat="45.30691" lon="5.89335">
        <ele>663.44702148438</ele>
        <time>2017-10-04T18:37:05Z</time>
      </trkpt>
      <trkpt lat="45.30687" lon="5.89341">
        <ele>662.44702148438</ele>
        <time>2017-10-04T18:37:07Z</time>
      </trkpt>
      <trkpt lat="45.30693" lon="5.89341">
        <ele>668.44702148438</ele>
        <time>2017-10-04T18:37:11Z</time>
      </trkpt>
      <trkpt lat="45.30694" lon="5.89348">
        <ele>668.44702148438</ele>
        <time>2017-10-04T18:37:15Z</time>
      </trkpt>
      <trkpt lat="45.30698" lon="5.89354">
        <ele>673.44702148438</ele>
        <time>2017-10-04T18:37:20Z</time>
      </trkpt>
      <trkpt lat="45.30704" lon="5.89348">
        <ele>671.44702148438</ele>
        <time>2017-10-04T18:37:22Z</time>
      </trkpt>
      <trkpt lat="45.30709" lon="5.89347">
        <ele>671.44702148438</ele>
        <time>2017-10-04T18:37:25Z</time>
      </trkpt>
      <trkpt lat="45.30708" lon="5.89353">
        <ele>674.44702148438</ele>
        <time>2017-10-04T18:37:31Z</time>
      </trkpt>
      <trkpt lat="45.3071" lon="5.89346">
        <ele>680.44702148438</ele>
        <time>2017-10-04T18:37:50Z</time>
      </trkpt>
      <trkpt lat="45.30711" lon="5.89338">
        <ele>682.44702148438</ele>
        <time>2017-10-04T18:37:56Z</time>
      </trkpt>
      <trkpt lat="45.3071" lon="5.89332">
        <ele>685.44702148438</ele>
        <time>2017-10-04T18:38:02Z</time>
      </trkpt>
      <trkpt lat="45.3071" lon="5.89326">
        <ele>686.44702148438</ele>
        <time>2017-10-04T18:38:06Z</time>
      </trkpt>
      <trkpt lat="45.3071" lon="5.89319">
        <ele>689.44702148438</ele>
        <time>2017-10-04T18:38:12Z</time>
      </trkpt>
      <trkpt lat="45.30709" lon="5.89312">
        <ele>689.44702148438</ele>
        <time>2017-10-04T18:38:15Z</time>
      </trkpt>
      <trkpt lat="45.30712" lon="5.89305">
        <ele>691.44702148438</ele>
        <time>2017-10-04T18:38:17Z</time>
      </trkpt>
      <trkpt lat="45.30706" lon="5.89303">
        <ele>691.44702148438</ele>
        <time>2017-10-04T18:38:24Z</time>
      </trkpt>
      <trkpt lat="45.3071" lon="5.89296">
        <ele>559.44702148438</ele>
        <time>2017-10-04T18:38:28Z</time>
      </trkpt>
      <trkpt lat="45.3071" lon="5.8929">
        <ele>653.44702148438</ele>
        <time>2017-10-04T18:38:36Z</time>
      </trkpt>
      <trkpt lat="45.30714" lon="5.89278">
        <ele>685.44702148438</ele>
        <time>2017-10-04T18:38:52Z</time>
      </trkpt>
      <trkpt lat="45.30716" lon="5.8927">
        <ele>685.44702148438</ele>
        <time>2017-10-04T18:38:55Z</time>
      </trkpt>
      <trkpt lat="45.30715" lon="5.89261">
        <ele>685.44702148438</ele>
        <time>2017-10-04T18:38:58Z</time>
      </trkpt>
      <trkpt lat="45.30717" lon="5.89253">
        <ele>685.44702148438</ele>
        <time>2017-10-04T18:39:01Z</time>
      </trkpt>
      <trkpt lat="45.30716" lon="5.89242">
        <ele>686.44702148438</ele>
        <time>2017-10-04T18:39:07Z</time>
      </trkpt>
      <trkpt lat="45.30713" lon="5.89236">
        <ele>687.44702148438</ele>
        <time>2017-10-04T18:39:10Z</time>
      </trkpt>
      <trkpt lat="45.30712" lon="5.8923">
        <ele>684.44702148438</ele>
        <time>2017-10-04T18:39:13Z</time>
      </trkpt>
      <trkpt lat="45.30709" lon="5.89224">
        <ele>693.44702148438</ele>
        <time>2017-10-04T18:39:20Z</time>
      </trkpt>
      <trkpt lat="45.30715" lon="5.89216">
        <ele>692.44702148438</ele>
        <time>2017-10-04T18:39:22Z</time>
      </trkpt>
      <trkpt lat="45.30719" lon="5.89209">
        <ele>698.44702148438</ele>
        <time>2017-10-04T18:39:26Z</time>
      </trkpt>
      <trkpt lat="45.30715" lon="5.89205">
        <ele>701.44702148438</ele>
        <time>2017-10-04T18:39:29Z</time>
      </trkpt>
      <trkpt lat="45.30713" lon="5.89199">
        <ele>704.44702148438</ele>
        <time>2017-10-04T18:39:33Z</time>
      </trkpt>
      <trkpt lat="45.30716" lon="5.89193">
        <ele>705.44702148438</ele>
        <time>2017-10-04T18:39:35Z</time>
      </trkpt>
      <trkpt lat="45.30714" lon="5.89188">
        <ele>707.44702148438</ele>
        <time>2017-10-04T18:39:39Z</time>
      </trkpt>
      <trkpt lat="45.30718" lon="5.89183">
        <ele>710.44702148438</ele>
        <time>2017-10-04T18:39:41Z</time>
      </trkpt>
      <trkpt lat="45.30718" lon="5.89175">
        <ele>711.44702148438</ele>
        <time>2017-10-04T18:39:48Z</time>
      </trkpt>
      <trkpt lat="45.30711" lon="5.89177">
        <ele>713.44702148438</ele>
        <time>2017-10-04T18:39:51Z</time>
      </trkpt>
      <trkpt lat="45.30707" lon="5.89181">
        <ele>712.44702148438</ele>
        <time>2017-10-04T18:39:53Z</time>
      </trkpt>
      <trkpt lat="45.30711" lon="5.8917">
        <ele>712.44702148438</ele>
        <time>2017-10-04T18:39:56Z</time>
      </trkpt>
      <trkpt lat="45.30705" lon="5.8917">
        <ele>715.44702148438</ele>
        <time>2017-10-04T18:40:00Z</time>
      </trkpt>
      <trkpt lat="45.30705" lon="5.89163">
        <ele>719.44702148438</ele>
        <time>2017-10-04T18:40:03Z</time>
      </trkpt>
      <trkpt lat="45.30699" lon="5.89163">
        <ele>722.44702148438</ele>
        <time>2017-10-04T18:40:06Z</time>
      </trkpt>
      <trkpt lat="45.30693" lon="5.89165">
        <ele>724.44702148438</ele>
        <time>2017-10-04T18:40:11Z</time>
      </trkpt>
      <trkpt lat="45.30698" lon="5.89156">
        <ele>727.44702148438</ele>
        <time>2017-10-04T18:40:17Z</time>
      </trkpt>
      <trkpt lat="45.30693" lon="5.89156">
        <ele>727.44702148438</ele>
        <time>2017-10-04T18:40:23Z</time>
      </trkpt>
      <trkpt lat="45.30687" lon="5.89157">
        <ele>729.44702148438</ele>
        <time>2017-10-04T18:40:26Z</time>
      </trkpt>
      <trkpt lat="45.30685" lon="5.8915">
        <ele>734.44702148438</ele>
        <time>2017-10-04T18:40:31Z</time>
      </trkpt>
      <trkpt lat="45.30687" lon="5.89141">
        <ele>734.44702148438</ele>
        <time>2017-10-04T18:40:34Z</time>
      </trkpt>
      <trkpt lat="45.30687" lon="5.89132">
        <ele>736.44702148438</ele>
        <time>2017-10-04T18:40:39Z</time>
      </trkpt>
      <trkpt lat="45.30689" lon="5.89125">
        <ele>736.44702148438</ele>
        <time>2017-10-04T18:40:41Z</time>
      </trkpt>
      <trkpt lat="45.30691" lon="5.89116">
        <ele>737.44702148438</ele>
        <time>2017-10-04T18:40:44Z</time>
      </trkpt>
      <trkpt lat="45.30694" lon="5.89109">
        <ele>738.44702148438</ele>
        <time>2017-10-04T18:40:49Z</time>
      </trkpt>
      <trkpt lat="45.3069" lon="5.89101">
        <ele>740.44702148438</ele>
        <time>2017-10-04T18:40:52Z</time>
      </trkpt>
      <trkpt lat="45.30691" lon="5.89093">
        <ele>742.44702148438</ele>
        <time>2017-10-04T18:40:54Z</time>
      </trkpt>
      <trkpt lat="45.3068" lon="5.8911">
        <ele>743.44702148438</ele>
        <time>2017-10-04T18:40:55Z</time>
      </trkpt>
      <trkpt lat="45.30683" lon="5.89102">
        <ele>743.44702148438</ele>
        <time>2017-10-04T18:40:57Z</time>
      </trkpt>
      <trkpt lat="45.30687" lon="5.89093">
        <ele>742.44702148438</ele>
        <time>2017-10-04T18:40:59Z</time>
      </trkpt>
      <trkpt lat="45.30698" lon="5.89075">
        <ele>742.44702148438</ele>
        <time>2017-10-04T18:41:01Z</time>
      </trkpt>
      <trkpt lat="45.30698" lon="5.89068">
        <ele>738.44702148438</ele>
        <time>2017-10-04T18:41:04Z</time>
      </trkpt>
      <trkpt lat="45.30695" lon="5.89073">
        <ele>744.44702148438</ele>
        <time>2017-10-04T18:41:12Z</time>
      </trkpt>
      <trkpt lat="45.307" lon="5.89071">
        <ele>744.44702148438</ele>
        <time>2017-10-04T18:41:14Z</time>
      </trkpt>
      <trkpt lat="45.30706" lon="5.89067">
        <ele>745.44702148438</ele>
        <time>2017-10-04T18:41:16Z</time>
      </trkpt>
      <trkpt lat="45.30699" lon="5.8908">
        <ele>746.44702148438</ele>
        <time>2017-10-04T18:41:18Z</time>
      </trkpt>
      <trkpt lat="45.30693" lon="5.89091">
        <ele>748.44702148438</ele>
        <time>2017-10-04T18:41:21Z</time>
      </trkpt>
      <trkpt lat="45.30698" lon="5.89087">
        <ele>748.44702148438</ele>
        <time>2017-10-04T18:41:24Z</time>
      </trkpt>
      <trkpt lat="45.30703" lon="5.89084">
        <ele>748.44702148438</ele>
        <time>2017-10-04T18:41:26Z</time>
      </trkpt>
      <trkpt lat="45.3071" lon="5.8908">
        <ele>749.44702148438</ele>
        <time>2017-10-04T18:41:30Z</time>
      </trkpt>
      <trkpt lat="45.30708" lon="5.89091">
        <ele>753.44702148438</ele>
        <time>2017-10-04T18:41:36Z</time>
      </trkpt>
      <trkpt lat="45.30715" lon="5.89088">
        <ele>754.44702148438</ele>
        <time>2017-10-04T18:41:41Z</time>
      </trkpt>
      <trkpt lat="45.30708" lon="5.89103">
        <ele>759.44702148438</ele>
        <time>2017-10-04T18:41:44Z</time>
      </trkpt>
      <trkpt lat="45.30713" lon="5.89102">
        <ele>763.44702148438</ele>
        <time>2017-10-04T18:41:48Z</time>
      </trkpt>
      <trkpt lat="45.30718" lon="5.891">
        <ele>762.44702148438</ele>
        <time>2017-10-04T18:41:50Z</time>
      </trkpt>
      <trkpt lat="45.30723" lon="5.89098">
        <ele>763.44702148438</ele>
        <time>2017-10-04T18:41:52Z</time>
      </trkpt>
      <trkpt lat="45.30721" lon="5.89104">
        <ele>762.44702148438</ele>
        <time>2017-10-04T18:41:55Z</time>
      </trkpt>
      <trkpt lat="45.30726" lon="5.89102">
        <ele>692.44702148438</ele>
        <time>2017-10-04T18:41:57Z</time>
      </trkpt>
      <trkpt lat="45.30733" lon="5.891">
        <ele>733.44702148438</ele>
        <time>2017-10-04T18:42:01Z</time>
      </trkpt>
      <trkpt lat="45.30737" lon="5.89097">
        <ele>740.44702148438</ele>
        <time>2017-10-04T18:42:03Z</time>
      </trkpt>
      <trkpt lat="45.30741" lon="5.89102">
        <ele>755.44702148438</ele>
        <time>2017-10-04T18:42:08Z</time>
      </trkpt>
      <trkpt lat="45.30741" lon="5.8911">
        <ele>758.44702148438</ele>
        <time>2017-10-04T18:42:12Z</time>
      </trkpt>
      <trkpt lat="45.30747" lon="5.89105">
        <ele>757.44702148438</ele>
        <time>2017-10-04T18:42:13Z</time>
      </trkpt>
      <trkpt lat="45.30749" lon="5.89111">
        <ele>723.44702148438</ele>
        <time>2017-10-04T18:42:18Z</time>
      </trkpt>
      <trkpt lat="45.30748" lon="5.89119">
        <ele>749.44702148438</ele>
        <time>2017-10-04T18:42:22Z</time>
      </trkpt>
      <trkpt lat="45.30748" lon="5.89126">
        <ele>753.44702148438</ele>
        <time>2017-10-04T18:42:26Z</time>
      </trkpt>
      <trkpt lat="45.30752" lon="5.8913">
        <ele>762.44702148438</ele>
        <time>2017-10-04T18:42:30Z</time>
      </trkpt>
      <trkpt lat="45.30757" lon="5.89131">
        <ele>770.44702148438</ele>
        <time>2017-10-04T18:42:35Z</time>
      </trkpt>
      <trkpt lat="45.30756" lon="5.89138">
        <ele>772.44702148438</ele>
        <time>2017-10-04T18:42:37Z</time>
      </trkpt>
      <trkpt lat="45.30761" lon="5.89138">
        <ele>775.44702148438</ele>
        <time>2017-10-04T18:42:41Z</time>
      </trkpt>
      <trkpt lat="45.30764" lon="5.89143">
        <ele>779.44702148438</ele>
        <time>2017-10-04T18:42:47Z</time>
      </trkpt>
      <trkpt lat="45.30769" lon="5.89143">
        <ele>779.44702148438</ele>
        <time>2017-10-04T18:42:50Z</time>
      </trkpt>
      <trkpt lat="45.30765" lon="5.89153">
        <ele>779.44702148438</ele>
        <time>2017-10-04T18:42:53Z</time>
      </trkpt>
      <trkpt lat="45.30766" lon="5.8916">
        <ele>778.44702148438</ele>
        <time>2017-10-04T18:42:59Z</time>
      </trkpt>
      <trkpt lat="45.30769" lon="5.89165">
        <ele>780.44702148438</ele>
        <time>2017-10-04T18:43:03Z</time>
      </trkpt>
      <trkpt lat="45.30774" lon="5.89162">
        <ele>780.44702148438</ele>
        <time>2017-10-04T18:43:05Z</time>
      </trkpt>
      <trkpt lat="45.30779" lon="5.89164">
        <ele>782.44702148438</ele>
        <time>2017-10-04T18:43:08Z</time>
      </trkpt>
      <trkpt lat="45.3078" lon="5.89173">
        <ele>783.44702148438</ele>
        <time>2017-10-04T18:43:13Z</time>
      </trkpt>
      <trkpt lat="45.30786" lon="5.89175">
        <ele>785.44702148438</ele>
        <time>2017-10-04T18:43:17Z</time>
      </trkpt>
      <trkpt lat="45.30786" lon="5.89182">
        <ele>604.44702148438</ele>
        <time>2017-10-04T18:43:21Z</time>
      </trkpt>
      <trkpt lat="45.30783" lon="5.8919">
        <ele>655.44702148438</ele>
        <time>2017-10-04T18:43:23Z</time>
      </trkpt>
      <trkpt lat="45.3079" lon="5.89186">
        <ele>739.44702148438</ele>
        <time>2017-10-04T18:43:29Z</time>
      </trkpt>
      <trkpt lat="45.30791" lon="5.89179">
        <ele>757.44702148438</ele>
        <time>2017-10-04T18:43:33Z</time>
      </trkpt>
      <trkpt lat="45.30795" lon="5.89175">
        <ele>763.44702148438</ele>
        <time>2017-10-04T18:43:35Z</time>
      </trkpt>
      <trkpt lat="45.30796" lon="5.89169">
        <ele>776.44702148438</ele>
        <time>2017-10-04T18:43:41Z</time>
      </trkpt>
      <trkpt lat="45.30796" lon="5.89161">
        <ele>783.44702148438</ele>
        <time>2017-10-04T18:43:48Z</time>
      </trkpt>
      <trkpt lat="45.30793" lon="5.89155">
        <ele>785.44702148438</ele>
        <time>2017-10-04T18:43:54Z</time>
      </trkpt>
      <trkpt lat="45.30794" lon="5.89148">
        <ele>787.44702148438</ele>
        <time>2017-10-04T18:43:58Z</time>
      </trkpt>
      <trkpt lat="45.30791" lon="5.89144">
        <ele>788.44702148438</ele>
        <time>2017-10-04T18:44:02Z</time>
      </trkpt>
      <trkpt lat="45.3079" lon="5.89136">
        <ele>790.44702148438</ele>
        <time>2017-10-04T18:44:06Z</time>
      </trkpt>
      <trkpt lat="45.30788" lon="5.89129">
        <ele>769.44702148438</ele>
        <time>2017-10-04T18:44:12Z</time>
      </trkpt>
      <trkpt lat="45.30785" lon="5.89123">
        <ele>781.44702148438</ele>
        <time>2017-10-04T18:44:15Z</time>
      </trkpt>
      <trkpt lat="45.30786" lon="5.89114">
        <ele>784.44702148438</ele>
        <time>2017-10-04T18:44:19Z</time>
      </trkpt>
      <trkpt lat="45.30786" lon="5.89106">
        <ele>790.44702148438</ele>
        <time>2017-10-04T18:44:23Z</time>
      </trkpt>
      <trkpt lat="45.30791" lon="5.89092">
        <ele>790.44702148438</ele>
        <time>2017-10-04T18:44:26Z</time>
      </trkpt>
      <trkpt lat="45.3079" lon="5.89085">
        <ele>791.44702148438</ele>
        <time>2017-10-04T18:44:28Z</time>
      </trkpt>
      <trkpt lat="45.30795" lon="5.89073">
        <ele>791.44702148438</ele>
        <time>2017-10-04T18:44:30Z</time>
      </trkpt>
      <trkpt lat="45.30787" lon="5.89071">
        <ele>795.44702148438</ele>
        <time>2017-10-04T18:44:36Z</time>
      </trkpt>
      <trkpt lat="45.30787" lon="5.89065">
        <ele>796.44702148438</ele>
        <time>2017-10-04T18:44:39Z</time>
      </trkpt>
      <trkpt lat="45.30782" lon="5.89068">
        <ele>797.44702148438</ele>
        <time>2017-10-04T18:44:40Z</time>
      </trkpt>
      <trkpt lat="45.30772" lon="5.89068">
        <ele>799.44702148438</ele>
        <time>2017-10-04T18:44:45Z</time>
      </trkpt>
      <trkpt lat="45.30771" lon="5.8906">
        <ele>799.44702148438</ele>
        <time>2017-10-04T18:44:48Z</time>
      </trkpt>
      <trkpt lat="45.30765" lon="5.89063">
        <ele>800.44702148438</ele>
        <time>2017-10-04T18:44:51Z</time>
      </trkpt>
      <trkpt lat="45.30767" lon="5.89054">
        <ele>801.44702148438</ele>
        <time>2017-10-04T18:44:54Z</time>
      </trkpt>
      <trkpt lat="45.30773" lon="5.89045">
        <ele>803.44702148438</ele>
        <time>2017-10-04T18:44:57Z</time>
      </trkpt>
      <trkpt lat="45.30767" lon="5.89042">
        <ele>804.44702148438</ele>
        <time>2017-10-04T18:45:01Z</time>
      </trkpt>
      <trkpt lat="45.30768" lon="5.89034">
        <ele>803.44702148438</ele>
        <time>2017-10-04T18:45:05Z</time>
      </trkpt>
      <trkpt lat="45.3077" lon="5.89028">
        <ele>801.44702148438</ele>
        <time>2017-10-04T18:45:09Z</time>
      </trkpt>
      <trkpt lat="45.30772" lon="5.89018">
        <ele>781.44702148438</ele>
        <time>2017-10-04T18:45:35Z</time>
      </trkpt>
      <trkpt lat="45.30776" lon="5.89003">
        <ele>777.44702148438</ele>
        <time>2017-10-04T18:45:37Z</time>
      </trkpt>
      <trkpt lat="45.30778" lon="5.88996">
        <ele>774.44702148438</ele>
        <time>2017-10-04T18:45:39Z</time>
      </trkpt>
      <trkpt lat="45.3078" lon="5.88982">
        <ele>781.44702148438</ele>
        <time>2017-10-04T18:45:42Z</time>
      </trkpt>
      <trkpt lat="45.3078" lon="5.88975">
        <ele>782.44702148438</ele>
        <time>2017-10-04T18:45:44Z</time>
      </trkpt>
      <trkpt lat="45.30782" lon="5.88967">
        <ele>782.44702148438</ele>
        <time>2017-10-04T18:45:46Z</time>
      </trkpt>
      <trkpt lat="45.30783" lon="5.8896">
        <ele>786.44702148438</ele>
        <time>2017-10-04T18:45:47Z</time>
      </trkpt>
      <trkpt lat="45.30778" lon="5.88957">
        <ele>789.44702148438</ele>
        <time>2017-10-04T18:45:49Z</time>
      </trkpt>
      <trkpt lat="45.30776" lon="5.88951">
        <ele>794.44702148438</ele>
        <time>2017-10-04T18:45:52Z</time>
      </trkpt>
      <trkpt lat="45.30769" lon="5.88953">
        <ele>794.44702148438</ele>
        <time>2017-10-04T18:45:54Z</time>
      </trkpt>
      <trkpt lat="45.30762" lon="5.88955">
        <ele>798.44702148438</ele>
        <time>2017-10-04T18:45:56Z</time>
      </trkpt>
      <trkpt lat="45.30758" lon="5.88957">
        <ele>801.44702148438</ele>
        <time>2017-10-04T18:45:58Z</time>
      </trkpt>
      <trkpt lat="45.30753" lon="5.88952">
        <ele>803.44702148438</ele>
        <time>2017-10-04T18:46:03Z</time>
      </trkpt>
      <trkpt lat="45.30745" lon="5.88957">
        <ele>805.44702148438</ele>
        <time>2017-10-04T18:46:05Z</time>
      </trkpt>
      <trkpt lat="45.30745" lon="5.88949">
        <ele>808.44702148438</ele>
        <time>2017-10-04T18:46:09Z</time>
      </trkpt>
      <trkpt lat="45.30743" lon="5.88943">
        <ele>810.44702148438</ele>
        <time>2017-10-04T18:46:13Z</time>
      </trkpt>
      <trkpt lat="45.30739" lon="5.8894">
        <ele>809.44702148438</ele>
        <time>2017-10-04T18:46:16Z</time>
      </trkpt>
      <trkpt lat="45.30742" lon="5.88934">
        <ele>812.44702148438</ele>
        <time>2017-10-04T18:46:19Z</time>
      </trkpt>
      <trkpt lat="45.30731" lon="5.88945">
        <ele>814.44702148438</ele>
        <time>2017-10-04T18:46:22Z</time>
      </trkpt>
      <trkpt lat="45.30733" lon="5.88939">
        <ele>442.4469909668</ele>
        <time>2017-10-04T18:46:25Z</time>
      </trkpt>
      <trkpt lat="45.30742" lon="5.88925">
        <ele>531.44702148438</ele>
        <time>2017-10-04T18:46:27Z</time>
      </trkpt>
      <trkpt lat="45.30738" lon="5.88927">
        <ele>696.44702148438</ele>
        <time>2017-10-04T18:46:32Z</time>
      </trkpt>
      <trkpt lat="45.30732" lon="5.88933">
        <ele>729.44702148438</ele>
        <time>2017-10-04T18:46:33Z</time>
      </trkpt>
      <trkpt lat="45.30728" lon="5.88938">
        <ele>765.44702148438</ele>
        <time>2017-10-04T18:46:35Z</time>
      </trkpt>
      <trkpt lat="45.30728" lon="5.88931">
        <ele>788.44702148438</ele>
        <time>2017-10-04T18:46:38Z</time>
      </trkpt>
      <trkpt lat="45.30719" lon="5.8891">
        <ele>812.44702148438</ele>
        <time>2017-10-04T18:46:45Z</time>
      </trkpt>
      <trkpt lat="45.30726" lon="5.88916">
        <ele>820.44702148438</ele>
        <time>2017-10-04T18:46:49Z</time>
      </trkpt>
      <trkpt lat="45.3073" lon="5.8892">
        <ele>822.44702148438</ele>
        <time>2017-10-04T18:46:52Z</time>
      </trkpt>
      <trkpt lat="45.30735" lon="5.88915">
        <ele>831.44702148438</ele>
        <time>2017-10-04T18:47:08Z</time>
      </trkpt>
      <trkpt lat="45.3074" lon="5.88924">
        <ele>831.44702148438</ele>
        <time>2017-10-04T18:47:10Z</time>
      </trkpt>
      <trkpt lat="45.3074" lon="5.8892">
        <ele>833.44702148438</ele>
        <time>2017-10-04T18:47:13Z</time>
      </trkpt>
      <trkpt lat="45.30743" lon="5.88914">
        <ele>836.44702148438</ele>
        <time>2017-10-04T18:47:22Z</time>
      </trkpt>
      <trkpt lat="45.30745" lon="5.88925">
        <ele>845.44702148438</ele>
        <time>2017-10-04T18:47:39Z</time>
      </trkpt>
      <trkpt lat="45.30746" lon="5.88933">
        <ele>845.44702148438</ele>
        <time>2017-10-04T18:47:41Z</time>
      </trkpt>
      <trkpt lat="45.30746" lon="5.88941">
        <ele>847.44702148438</ele>
        <time>2017-10-04T18:47:43Z</time>
      </trkpt>
      <trkpt lat="45.30751" lon="5.88945">
        <ele>850.44702148438</ele>
        <time>2017-10-04T18:47:47Z</time>
      </trkpt>
      <trkpt lat="45.30756" lon="5.8895">
        <ele>849.44702148438</ele>
        <time>2017-10-04T18:47:51Z</time>
      </trkpt>
      <trkpt lat="45.30757" lon="5.88957">
        <ele>851.44702148438</ele>
        <time>2017-10-04T18:47:54Z</time>
      </trkpt>
      <trkpt lat="45.3076" lon="5.88963">
        <ele>852.44702148438</ele>
        <time>2017-10-04T18:47:59Z</time>
      </trkpt>
      <trkpt lat="45.30764" lon="5.88969">
        <ele>855.44702148438</ele>
        <time>2017-10-04T18:48:02Z</time>
      </trkpt>
      <trkpt lat="45.30768" lon="5.88974">
        <ele>855.44702148438</ele>
        <time>2017-10-04T18:48:06Z</time>
      </trkpt>
      <trkpt lat="45.30769" lon="5.88981">
        <ele>857.44702148438</ele>
        <time>2017-10-04T18:48:09Z</time>
      </trkpt>
      <trkpt lat="45.3077" lon="5.88988">
        <ele>858.44702148438</ele>
        <time>2017-10-04T18:48:12Z</time>
      </trkpt>
      <trkpt lat="45.30772" lon="5.88995">
        <ele>862.44702148438</ele>
        <time>2017-10-04T18:48:15Z</time>
      </trkpt>
      <trkpt lat="45.30775" lon="5.89001">
        <ele>864.44702148438</ele>
        <time>2017-10-04T18:48:18Z</time>
      </trkpt>
      <trkpt lat="45.3078" lon="5.89005">
        <ele>862.44702148438</ele>
        <time>2017-10-04T18:48:22Z</time>
      </trkpt>
      <trkpt lat="45.30784" lon="5.89009">
        <ele>862.44702148438</ele>
        <time>2017-10-04T18:48:25Z</time>
      </trkpt>
      <trkpt lat="45.30786" lon="5.89015">
        <ele>862.44702148438</ele>
        <time>2017-10-04T18:48:27Z</time>
      </trkpt>
      <trkpt lat="45.3079" lon="5.89024">
        <ele>862.44702148438</ele>
        <time>2017-10-04T18:48:30Z</time>
      </trkpt>
      <trkpt lat="45.30793" lon="5.89031">
        <ele>863.44702148438</ele>
        <time>2017-10-04T18:48:34Z</time>
      </trkpt>
      <trkpt lat="45.30795" lon="5.89037">
        <ele>863.44702148438</ele>
        <time>2017-10-04T18:48:37Z</time>
      </trkpt>
      <trkpt lat="45.30796" lon="5.89044">
        <ele>864.44702148438</ele>
        <time>2017-10-04T18:48:40Z</time>
      </trkpt>
      <trkpt lat="45.30797" lon="5.8905">
        <ele>864.44702148438</ele>
        <time>2017-10-04T18:48:45Z</time>
      </trkpt>
      <trkpt lat="45.30798" lon="5.89057">
        <ele>866.44702148438</ele>
        <time>2017-10-04T18:48:49Z</time>
      </trkpt>
      <trkpt lat="45.30797" lon="5.89064">
        <ele>872.44702148438</ele>
        <time>2017-10-04T18:48:56Z</time>
      </trkpt>
      <trkpt lat="45.308" lon="5.89069">
        <ele>873.44702148438</ele>
        <time>2017-10-04T18:49:03Z</time>
      </trkpt>
      <trkpt lat="45.30801" lon="5.89075">
        <ele>874.44702148438</ele>
        <time>2017-10-04T18:49:12Z</time>
      </trkpt>
      <trkpt lat="45.30803" lon="5.89082">
        <ele>875.44702148438</ele>
        <time>2017-10-04T18:49:15Z</time>
      </trkpt>
      <trkpt lat="45.30806" lon="5.89086">
        <ele>876.44702148438</ele>
        <time>2017-10-04T18:49:21Z</time>
      </trkpt>
      <trkpt lat="45.3081" lon="5.89091">
        <ele>875.44702148438</ele>
        <time>2017-10-04T18:49:26Z</time>
      </trkpt>
      <trkpt lat="45.30811" lon="5.89098">
        <ele>874.44702148438</ele>
        <time>2017-10-04T18:49:31Z</time>
      </trkpt>
      <trkpt lat="45.30816" lon="5.891">
        <ele>876.44702148438</ele>
        <time>2017-10-04T18:49:34Z</time>
      </trkpt>
      <trkpt lat="45.3082" lon="5.89108">
        <ele>877.44702148438</ele>
        <time>2017-10-04T18:49:37Z</time>
      </trkpt>
      <trkpt lat="45.30824" lon="5.89115">
        <ele>881.44702148438</ele>
        <time>2017-10-04T18:49:41Z</time>
      </trkpt>
      <trkpt lat="45.30826" lon="5.89121">
        <ele>883.44702148438</ele>
        <time>2017-10-04T18:49:44Z</time>
      </trkpt>
      <trkpt lat="45.3083" lon="5.89125">
        <ele>886.44702148438</ele>
        <time>2017-10-04T18:49:47Z</time>
      </trkpt>
      <trkpt lat="45.30835" lon="5.89129">
        <ele>888.44702148438</ele>
        <time>2017-10-04T18:49:50Z</time>
      </trkpt>
      <trkpt lat="45.30838" lon="5.89138">
        <ele>892.44702148438</ele>
        <time>2017-10-04T18:49:54Z</time>
      </trkpt>
      <trkpt lat="45.30843" lon="5.8914">
        <ele>892.44702148438</ele>
        <time>2017-10-04T18:49:58Z</time>
      </trkpt>
      <trkpt lat="45.30848" lon="5.89136">
        <ele>895.44702148438</ele>
        <time>2017-10-04T18:50:03Z</time>
      </trkpt>
      <trkpt lat="45.30849" lon="5.89129">
        <ele>896.44702148438</ele>
        <time>2017-10-04T18:50:09Z</time>
      </trkpt>
      <trkpt lat="45.30851" lon="5.89121">
        <ele>895.44702148438</ele>
        <time>2017-10-04T18:50:13Z</time>
      </trkpt>
      <trkpt lat="45.30853" lon="5.89114">
        <ele>893.44702148438</ele>
        <time>2017-10-04T18:50:17Z</time>
      </trkpt>
      <trkpt lat="45.30856" lon="5.89108">
        <ele>894.44702148438</ele>
        <time>2017-10-04T18:50:21Z</time>
      </trkpt>
      <trkpt lat="45.30858" lon="5.89102">
        <ele>895.44702148438</ele>
        <time>2017-10-04T18:50:23Z</time>
      </trkpt>
      <trkpt lat="45.30859" lon="5.89096">
        <ele>897.44702148438</ele>
        <time>2017-10-04T18:50:26Z</time>
      </trkpt>
      <trkpt lat="45.30861" lon="5.8909">
        <ele>899.44702148438</ele>
        <time>2017-10-04T18:50:29Z</time>
      </trkpt>
      <trkpt lat="45.30861" lon="5.89083">
        <ele>900.44702148438</ele>
        <time>2017-10-04T18:50:32Z</time>
      </trkpt>
      <trkpt lat="45.30862" lon="5.89075">
        <ele>900.44702148438</ele>
        <time>2017-10-04T18:50:36Z</time>
      </trkpt>
      <trkpt lat="45.30863" lon="5.89066">
        <ele>899.44702148438</ele>
        <time>2017-10-04T18:50:39Z</time>
      </trkpt>
      <trkpt lat="45.30863" lon="5.8906">
        <ele>900.44702148438</ele>
        <time>2017-10-04T18:50:43Z</time>
      </trkpt>
      <trkpt lat="45.30864" lon="5.89053">
        <ele>901.44702148438</ele>
        <time>2017-10-04T18:50:47Z</time>
      </trkpt>
      <trkpt lat="45.30864" lon="5.89047">
        <ele>902.44702148438</ele>
        <time>2017-10-04T18:50:51Z</time>
      </trkpt>
      <trkpt lat="45.30864" lon="5.8904">
        <ele>902.44702148438</ele>
        <time>2017-10-04T18:50:55Z</time>
      </trkpt>
      <trkpt lat="45.30865" lon="5.89032">
        <ele>903.44702148438</ele>
        <time>2017-10-04T18:50:59Z</time>
      </trkpt>
      <trkpt lat="45.30864" lon="5.89026">
        <ele>904.44702148438</ele>
        <time>2017-10-04T18:51:02Z</time>
      </trkpt>
      <trkpt lat="45.30865" lon="5.89019">
        <ele>905.44702148438</ele>
        <time>2017-10-04T18:51:05Z</time>
      </trkpt>
      <trkpt lat="45.30865" lon="5.89011">
        <ele>907.44702148438</ele>
        <time>2017-10-04T18:51:08Z</time>
      </trkpt>
      <trkpt lat="45.30865" lon="5.89004">
        <ele>908.44702148438</ele>
        <time>2017-10-04T18:51:12Z</time>
      </trkpt>
      <trkpt lat="45.30866" lon="5.88995">
        <ele>907.44702148438</ele>
        <time>2017-10-04T18:51:17Z</time>
      </trkpt>
      <trkpt lat="45.30865" lon="5.88987">
        <ele>909.44702148438</ele>
        <time>2017-10-04T18:51:20Z</time>
      </trkpt>
      <trkpt lat="45.30864" lon="5.88979">
        <ele>912.44702148438</ele>
        <time>2017-10-04T18:51:24Z</time>
      </trkpt>
      <trkpt lat="45.30862" lon="5.88973">
        <ele>912.44702148438</ele>
        <time>2017-10-04T18:51:26Z</time>
      </trkpt>
      <trkpt lat="45.3086" lon="5.88965">
        <ele>912.44702148438</ele>
        <time>2017-10-04T18:51:30Z</time>
      </trkpt>
      <trkpt lat="45.30862" lon="5.88958">
        <ele>913.44702148438</ele>
        <time>2017-10-04T18:51:41Z</time>
      </trkpt>
      <trkpt lat="45.3086" lon="5.88952">
        <ele>915.44702148438</ele>
        <time>2017-10-04T18:51:51Z</time>
      </trkpt>
      <trkpt lat="45.30858" lon="5.88945">
        <ele>913.44702148438</ele>
        <time>2017-10-04T18:51:54Z</time>
      </trkpt>
      <trkpt lat="45.30857" lon="5.88938">
        <ele>913.44702148438</ele>
        <time>2017-10-04T18:51:56Z</time>
      </trkpt>
      <trkpt lat="45.30856" lon="5.8893">
        <ele>913.44702148438</ele>
        <time>2017-10-04T18:51:59Z</time>
      </trkpt>
      <trkpt lat="45.30855" lon="5.88924">
        <ele>912.44702148438</ele>
        <time>2017-10-04T18:52:01Z</time>
      </trkpt>
      <trkpt lat="45.30856" lon="5.88917">
        <ele>912.44702148438</ele>
        <time>2017-10-04T18:52:03Z</time>
      </trkpt>
      <trkpt lat="45.30856" lon="5.88909">
        <ele>915.44702148438</ele>
        <time>2017-10-04T18:52:07Z</time>
      </trkpt>
      <trkpt lat="45.30859" lon="5.88902">
        <ele>916.44702148438</ele>
        <time>2017-10-04T18:52:11Z</time>
      </trkpt>
      <trkpt lat="45.30863" lon="5.889">
        <ele>919.44702148438</ele>
        <time>2017-10-04T18:52:14Z</time>
      </trkpt>
      <trkpt lat="45.30867" lon="5.88896">
        <ele>923.44702148438</ele>
        <time>2017-10-04T18:52:20Z</time>
      </trkpt>
      <trkpt lat="45.30871" lon="5.88893">
        <ele>927.44702148438</ele>
        <time>2017-10-04T18:52:24Z</time>
      </trkpt>
      <trkpt lat="45.30868" lon="5.88885">
        <ele>927.44702148438</ele>
        <time>2017-10-04T18:52:26Z</time>
      </trkpt>
      <trkpt lat="45.30865" lon="5.88881">
        <ele>928.44702148438</ele>
        <time>2017-10-04T18:52:29Z</time>
      </trkpt>
      <trkpt lat="45.30863" lon="5.88873">
        <ele>929.44702148438</ele>
        <time>2017-10-04T18:52:32Z</time>
      </trkpt>
      <trkpt lat="45.30863" lon="5.88865">
        <ele>930.44702148438</ele>
        <time>2017-10-04T18:52:35Z</time>
      </trkpt>
      <trkpt lat="45.30865" lon="5.88858">
        <ele>933.44702148438</ele>
        <time>2017-10-04T18:52:39Z</time>
      </trkpt>
      <trkpt lat="45.30866" lon="5.88851">
        <ele>931.44702148438</ele>
        <time>2017-10-04T18:52:45Z</time>
      </trkpt>
      <trkpt lat="45.30865" lon="5.88844">
        <ele>932.44702148438</ele>
        <time>2017-10-04T18:52:48Z</time>
      </trkpt>
      <trkpt lat="45.30865" lon="5.88837">
        <ele>935.44702148438</ele>
        <time>2017-10-04T18:52:52Z</time>
      </trkpt>
      <trkpt lat="45.30864" lon="5.8883">
        <ele>938.44702148438</ele>
        <time>2017-10-04T18:52:55Z</time>
      </trkpt>
      <trkpt lat="45.30862" lon="5.88824">
        <ele>937.44702148438</ele>
        <time>2017-10-04T18:52:58Z</time>
      </trkpt>
      <trkpt lat="45.30861" lon="5.88817">
        <ele>940.44702148438</ele>
        <time>2017-10-04T18:53:02Z</time>
      </trkpt>
      <trkpt lat="45.30859" lon="5.8881">
        <ele>944.44702148438</ele>
        <time>2017-10-04T18:53:05Z</time>
      </trkpt>
      <trkpt lat="45.30857" lon="5.88803">
        <ele>944.44702148438</ele>
        <time>2017-10-04T18:53:08Z</time>
      </trkpt>
      <trkpt lat="45.30855" lon="5.88796">
        <ele>944.44702148438</ele>
        <time>2017-10-04T18:53:11Z</time>
      </trkpt>
      <trkpt lat="45.30853" lon="5.88789">
        <ele>946.44702148438</ele>
        <time>2017-10-04T18:53:15Z</time>
      </trkpt>
      <trkpt lat="45.30855" lon="5.88782">
        <ele>948.44702148438</ele>
        <time>2017-10-04T18:53:19Z</time>
      </trkpt>
      <trkpt lat="45.30855" lon="5.88776">
        <ele>949.44702148438</ele>
        <time>2017-10-04T18:53:22Z</time>
      </trkpt>
      <trkpt lat="45.30858" lon="5.88771">
        <ele>946.44702148438</ele>
        <time>2017-10-04T18:53:25Z</time>
      </trkpt>
      <trkpt lat="45.30856" lon="5.88765">
        <ele>946.44702148438</ele>
        <time>2017-10-04T18:53:27Z</time>
      </trkpt>
      <trkpt lat="45.30858" lon="5.88759">
        <ele>946.44702148438</ele>
        <time>2017-10-04T18:53:29Z</time>
      </trkpt>
      <trkpt lat="45.30855" lon="5.88754">
        <ele>947.44702148438</ele>
        <time>2017-10-04T18:54:08Z</time>
      </trkpt>
      <trkpt lat="45.30851" lon="5.8875">
        <ele>944.44702148438</ele>
        <time>2017-10-04T18:54:14Z</time>
      </trkpt>
      <trkpt lat="45.30848" lon="5.88745">
        <ele>945.44702148438</ele>
        <time>2017-10-04T18:54:16Z</time>
      </trkpt>
      <trkpt lat="45.30847" lon="5.88737">
        <ele>945.44702148438</ele>
        <time>2017-10-04T18:54:18Z</time>
      </trkpt>
      <trkpt lat="45.3084" lon="5.88722">
        <ele>947.44702148438</ele>
        <time>2017-10-04T18:54:23Z</time>
      </trkpt>
      <trkpt lat="45.30844" lon="5.88728">
        <ele>958.44702148438</ele>
        <time>2017-10-04T18:54:58Z</time>
      </trkpt>
      <trkpt lat="45.30845" lon="5.88735">
        <ele>958.44702148438</ele>
        <time>2017-10-04T18:55:01Z</time>
      </trkpt>
      <trkpt lat="45.30845" lon="5.88743">
        <ele>959.44702148438</ele>
        <time>2017-10-04T18:55:04Z</time>
      </trkpt>
      <trkpt lat="45.30849" lon="5.88748">
        <ele>959.44702148438</ele>
        <time>2017-10-04T18:55:09Z</time>
      </trkpt>
      <trkpt lat="45.30853" lon="5.88752">
        <ele>956.44702148438</ele>
        <time>2017-10-04T18:55:15Z</time>
      </trkpt>
      <trkpt lat="45.30858" lon="5.88756">
        <ele>958.44702148438</ele>
        <time>2017-10-04T18:55:18Z</time>
      </trkpt>
      <trkpt lat="45.3086" lon="5.88762">
        <ele>958.44702148438</ele>
        <time>2017-10-04T18:55:21Z</time>
      </trkpt>
      <trkpt lat="45.30859" lon="5.88769">
        <ele>958.44702148438</ele>
        <time>2017-10-04T18:55:25Z</time>
      </trkpt>
      <trkpt lat="45.30855" lon="5.88775">
        <ele>955.44702148438</ele>
        <time>2017-10-04T18:55:30Z</time>
      </trkpt>
      <trkpt lat="45.30854" lon="5.88783">
        <ele>953.44702148438</ele>
        <time>2017-10-04T18:55:34Z</time>
      </trkpt>
      <trkpt lat="45.30854" lon="5.88791">
        <ele>954.44702148438</ele>
        <time>2017-10-04T18:55:38Z</time>
      </trkpt>
      <trkpt lat="45.30856" lon="5.88799">
        <ele>950.44702148438</ele>
        <time>2017-10-04T18:55:42Z</time>
      </trkpt>
      <trkpt lat="45.3086" lon="5.88803">
        <ele>945.44702148438</ele>
        <time>2017-10-04T18:55:47Z</time>
      </trkpt>
      <trkpt lat="45.30861" lon="5.88812">
        <ele>943.44702148438</ele>
        <time>2017-10-04T18:55:51Z</time>
      </trkpt>
      <trkpt lat="45.30863" lon="5.88818">
        <ele>942.44702148438</ele>
        <time>2017-10-04T18:55:54Z</time>
      </trkpt>
      <trkpt lat="45.30863" lon="5.88826">
        <ele>942.44702148438</ele>
        <time>2017-10-04T18:55:59Z</time>
      </trkpt>
      <trkpt lat="45.30863" lon="5.88833">
        <ele>943.44702148438</ele>
        <time>2017-10-04T18:56:03Z</time>
      </trkpt>
      <trkpt lat="45.30862" lon="5.8884">
        <ele>944.44702148438</ele>
        <time>2017-10-04T18:56:06Z</time>
      </trkpt>
      <trkpt lat="45.3086" lon="5.88848">
        <ele>943.44702148438</ele>
        <time>2017-10-04T18:56:10Z</time>
      </trkpt>
      <trkpt lat="45.30861" lon="5.88855">
        <ele>941.44702148438</ele>
        <time>2017-10-04T18:56:14Z</time>
      </trkpt>
      <trkpt lat="45.30864" lon="5.88865">
        <ele>940.44702148438</ele>
        <time>2017-10-04T18:56:21Z</time>
      </trkpt>
      <trkpt lat="45.30866" lon="5.88872">
        <ele>939.44702148438</ele>
        <time>2017-10-04T18:56:25Z</time>
      </trkpt>
      <trkpt lat="45.30865" lon="5.88879">
        <ele>938.44702148438</ele>
        <time>2017-10-04T18:56:28Z</time>
      </trkpt>
      <trkpt lat="45.30862" lon="5.88884">
        <ele>935.44702148438</ele>
        <time>2017-10-04T18:56:34Z</time>
      </trkpt>
      <trkpt lat="45.30858" lon="5.88887">
        <ele>932.44702148438</ele>
        <time>2017-10-04T18:56:37Z</time>
      </trkpt>
      <trkpt lat="45.30853" lon="5.88889">
        <ele>931.44702148438</ele>
        <time>2017-10-04T18:56:40Z</time>
      </trkpt>
      <trkpt lat="45.30854" lon="5.88897">
        <ele>929.44702148438</ele>
        <time>2017-10-04T18:56:44Z</time>
      </trkpt>
      <trkpt lat="45.30855" lon="5.88904">
        <ele>928.44702148438</ele>
        <time>2017-10-04T18:56:48Z</time>
      </trkpt>
      <trkpt lat="45.30852" lon="5.88911">
        <ele>930.44702148438</ele>
        <time>2017-10-04T18:56:51Z</time>
      </trkpt>
      <trkpt lat="45.30853" lon="5.88918">
        <ele>927.44702148438</ele>
        <time>2017-10-04T18:56:54Z</time>
      </trkpt>
      <trkpt lat="45.30854" lon="5.88926">
        <ele>926.44702148438</ele>
        <time>2017-10-04T18:56:59Z</time>
      </trkpt>
      <trkpt lat="45.30853" lon="5.88933">
        <ele>927.44702148438</ele>
        <time>2017-10-04T18:57:03Z</time>
      </trkpt>
      <trkpt lat="45.30853" lon="5.8894">
        <ele>927.44702148438</ele>
        <time>2017-10-04T18:57:08Z</time>
      </trkpt>
      <trkpt lat="45.30852" lon="5.88948">
        <ele>925.44702148438</ele>
        <time>2017-10-04T18:57:12Z</time>
      </trkpt>
      <trkpt lat="45.30853" lon="5.88954">
        <ele>924.44702148438</ele>
        <time>2017-10-04T18:57:15Z</time>
      </trkpt>
      <trkpt lat="45.30854" lon="5.88962">
        <ele>923.44702148438</ele>
        <time>2017-10-04T18:57:18Z</time>
      </trkpt>
      <trkpt lat="45.30856" lon="5.88969">
        <ele>922.44702148438</ele>
        <time>2017-10-04T18:57:21Z</time>
      </trkpt>
      <trkpt lat="45.30856" lon="5.88977">
        <ele>922.44702148438</ele>
        <time>2017-10-04T18:57:24Z</time>
      </trkpt>
      <trkpt lat="45.30859" lon="5.88983">
        <ele>921.44702148438</ele>
        <time>2017-10-04T18:57:28Z</time>
      </trkpt>
      <trkpt lat="45.30861" lon="5.8899">
        <ele>919.44702148438</ele>
        <time>2017-10-04T18:57:32Z</time>
      </trkpt>
      <trkpt lat="45.30862" lon="5.88999">
        <ele>918.44702148438</ele>
        <time>2017-10-04T18:57:36Z</time>
      </trkpt>
      <trkpt lat="45.30861" lon="5.89006">
        <ele>919.44702148438</ele>
        <time>2017-10-04T18:57:39Z</time>
      </trkpt>
      <trkpt lat="45.30862" lon="5.89015">
        <ele>916.44702148438</ele>
        <time>2017-10-04T18:57:42Z</time>
      </trkpt>
      <trkpt lat="45.30862" lon="5.89022">
        <ele>916.44702148438</ele>
        <time>2017-10-04T18:57:45Z</time>
      </trkpt>
      <trkpt lat="45.3086" lon="5.89031">
        <ele>917.44702148438</ele>
        <time>2017-10-04T18:57:48Z</time>
      </trkpt>
      <trkpt lat="45.30861" lon="5.89039">
        <ele>915.44702148438</ele>
        <time>2017-10-04T18:57:52Z</time>
      </trkpt>
      <trkpt lat="45.30862" lon="5.89045">
        <ele>914.44702148438</ele>
        <time>2017-10-04T18:57:55Z</time>
      </trkpt>
      <trkpt lat="45.3086" lon="5.89053">
        <ele>916.44702148438</ele>
        <time>2017-10-04T18:57:59Z</time>
      </trkpt>
      <trkpt lat="45.3086" lon="5.89062">
        <ele>915.44702148438</ele>
        <time>2017-10-04T18:58:03Z</time>
      </trkpt>
      <trkpt lat="45.30861" lon="5.89068">
        <ele>913.44702148438</ele>
        <time>2017-10-04T18:58:06Z</time>
      </trkpt>
      <trkpt lat="45.3086" lon="5.89075">
        <ele>817.44702148438</ele>
        <time>2017-10-04T18:58:10Z</time>
      </trkpt>
      <trkpt lat="45.30859" lon="5.89081">
        <ele>870.44702148438</ele>
        <time>2017-10-04T18:58:13Z</time>
      </trkpt>
      <trkpt lat="45.30858" lon="5.8909">
        <ele>890.44702148438</ele>
        <time>2017-10-04T18:58:17Z</time>
      </trkpt>
      <trkpt lat="45.30856" lon="5.89096">
        <ele>892.44702148438</ele>
        <time>2017-10-04T18:58:19Z</time>
      </trkpt>
      <trkpt lat="45.30854" lon="5.89104">
        <ele>900.44702148438</ele>
        <time>2017-10-04T18:58:23Z</time>
      </trkpt>
      <trkpt lat="45.30852" lon="5.8911">
        <ele>899.44702148438</ele>
        <time>2017-10-04T18:58:27Z</time>
      </trkpt>
      <trkpt lat="45.30851" lon="5.89118">
        <ele>899.44702148438</ele>
        <time>2017-10-04T18:58:32Z</time>
      </trkpt>
      <trkpt lat="45.30851" lon="5.89125">
        <ele>898.44702148438</ele>
        <time>2017-10-04T18:58:37Z</time>
      </trkpt>
      <trkpt lat="45.3085" lon="5.89131">
        <ele>896.44702148438</ele>
        <time>2017-10-04T18:58:40Z</time>
      </trkpt>
      <trkpt lat="45.30846" lon="5.89137">
        <ele>892.44702148438</ele>
        <time>2017-10-04T18:58:46Z</time>
      </trkpt>
      <trkpt lat="45.30842" lon="5.89138">
        <ele>894.44702148438</ele>
        <time>2017-10-04T18:58:50Z</time>
      </trkpt>
      <trkpt lat="45.30837" lon="5.89133">
        <ele>890.44702148438</ele>
        <time>2017-10-04T18:58:55Z</time>
      </trkpt>
      <trkpt lat="45.30834" lon="5.89129">
        <ele>888.44702148438</ele>
        <time>2017-10-04T18:58:58Z</time>
      </trkpt>
      <trkpt lat="45.30828" lon="5.89125">
        <ele>883.44702148438</ele>
        <time>2017-10-04T18:59:04Z</time>
      </trkpt>
      <trkpt lat="45.30825" lon="5.89117">
        <ele>884.44702148438</ele>
        <time>2017-10-04T18:59:09Z</time>
      </trkpt>
      <trkpt lat="45.30822" lon="5.89111">
        <ele>886.44702148438</ele>
        <time>2017-10-04T18:59:13Z</time>
      </trkpt>
      <trkpt lat="45.30816" lon="5.89105">
        <ele>885.44702148438</ele>
        <time>2017-10-04T18:59:16Z</time>
      </trkpt>
      <trkpt lat="45.30812" lon="5.89097">
        <ele>882.44702148438</ele>
        <time>2017-10-04T18:59:20Z</time>
      </trkpt>
      <trkpt lat="45.30808" lon="5.89091">
        <ele>882.44702148438</ele>
        <time>2017-10-04T18:59:25Z</time>
      </trkpt>
      <trkpt lat="45.30806" lon="5.89085">
        <ele>879.44702148438</ele>
        <time>2017-10-04T18:59:30Z</time>
      </trkpt>
      <trkpt lat="45.30805" lon="5.89078">
        <ele>879.44702148438</ele>
        <time>2017-10-04T18:59:34Z</time>
      </trkpt>
      <trkpt lat="45.30801" lon="5.89072">
        <ele>876.44702148438</ele>
        <time>2017-10-04T18:59:46Z</time>
      </trkpt>
      <trkpt lat="45.30798" lon="5.89066">
        <ele>876.44702148438</ele>
        <time>2017-10-04T18:59:50Z</time>
      </trkpt>
      <trkpt lat="45.30795" lon="5.89061">
        <ele>877.44702148438</ele>
        <time>2017-10-04T18:59:53Z</time>
      </trkpt>
      <trkpt lat="45.30791" lon="5.89056">
        <ele>874.44702148438</ele>
        <time>2017-10-04T18:59:58Z</time>
      </trkpt>
      <trkpt lat="45.30786" lon="5.89052">
        <ele>873.44702148438</ele>
        <time>2017-10-04T19:00:03Z</time>
      </trkpt>
      <trkpt lat="45.30784" lon="5.89047">
        <ele>871.44702148438</ele>
        <time>2017-10-04T19:00:08Z</time>
      </trkpt>
      <trkpt lat="45.30782" lon="5.89041">
        <ele>869.44702148438</ele>
        <time>2017-10-04T19:00:12Z</time>
      </trkpt>
      <trkpt lat="45.30782" lon="5.89034">
        <ele>868.44702148438</ele>
        <time>2017-10-04T19:00:15Z</time>
      </trkpt>
      <trkpt lat="45.30778" lon="5.89029">
        <ele>869.44702148438</ele>
        <time>2017-10-04T19:00:17Z</time>
      </trkpt>
      <trkpt lat="45.30772" lon="5.89031">
        <ele>868.44702148438</ele>
        <time>2017-10-04T19:00:20Z</time>
      </trkpt>
      <trkpt lat="45.3077" lon="5.89025">
        <ele>870.44702148438</ele>
        <time>2017-10-04T19:00:22Z</time>
      </trkpt>
      <trkpt lat="45.30769" lon="5.89018">
        <ele>869.44702148438</ele>
        <time>2017-10-04T19:00:25Z</time>
      </trkpt>
      <trkpt lat="45.30764" lon="5.89004">
        <ele>868.44702148438</ele>
        <time>2017-10-04T19:00:29Z</time>
      </trkpt>
      <trkpt lat="45.30759" lon="5.89001">
        <ele>864.44702148438</ele>
        <time>2017-10-04T19:00:33Z</time>
      </trkpt>
      <trkpt lat="45.30757" lon="5.88994">
        <ele>862.44702148438</ele>
        <time>2017-10-04T19:00:38Z</time>
      </trkpt>
      <trkpt lat="45.30755" lon="5.88986">
        <ele>861.44702148438</ele>
        <time>2017-10-04T19:00:42Z</time>
      </trkpt>
      <trkpt lat="45.30752" lon="5.88981">
        <ele>861.44702148438</ele>
        <time>2017-10-04T19:00:45Z</time>
      </trkpt>
      <trkpt lat="45.30751" lon="5.88973">
        <ele>860.44702148438</ele>
        <time>2017-10-04T19:00:49Z</time>
      </trkpt>
      <trkpt lat="45.30746" lon="5.88969">
        <ele>860.44702148438</ele>
        <time>2017-10-04T19:00:52Z</time>
      </trkpt>
      <trkpt lat="45.30742" lon="5.88965">
        <ele>860.44702148438</ele>
        <time>2017-10-04T19:00:54Z</time>
      </trkpt>
      <trkpt lat="45.30737" lon="5.8896">
        <ele>859.44702148438</ele>
        <time>2017-10-04T19:00:57Z</time>
      </trkpt>
      <trkpt lat="45.30736" lon="5.88952">
        <ele>860.44702148438</ele>
        <time>2017-10-04T19:01:00Z</time>
      </trkpt>
      <trkpt lat="45.30736" lon="5.88945">
        <ele>860.44702148438</ele>
        <time>2017-10-04T19:01:02Z</time>
      </trkpt>
      <trkpt lat="45.30737" lon="5.88929">
        <ele>859.44702148438</ele>
        <time>2017-10-04T19:01:06Z</time>
      </trkpt>
      <trkpt lat="45.3074" lon="5.88912">
        <ele>855.44702148438</ele>
        <time>2017-10-04T19:01:28Z</time>
      </trkpt>
      <trkpt lat="45.30736" lon="5.8892">
        <ele>856.44702148438</ele>
        <time>2017-10-04T19:01:29Z</time>
      </trkpt>
      <trkpt lat="45.30739" lon="5.88914">
        <ele>856.44702148438</ele>
        <time>2017-10-04T19:01:37Z</time>
      </trkpt>
      <trkpt lat="45.30734" lon="5.88918">
        <ele>848.44702148438</ele>
        <time>2017-10-04T19:01:55Z</time>
      </trkpt>
      <trkpt lat="45.30736" lon="5.88928">
        <ele>802.44702148438</ele>
        <time>2017-10-04T19:02:06Z</time>
      </trkpt>
      <trkpt lat="45.30733" lon="5.88924">
        <ele>812.44702148438</ele>
        <time>2017-10-04T19:02:08Z</time>
      </trkpt>
      <trkpt lat="45.30724" lon="5.88914">
        <ele>821.44702148438</ele>
        <time>2017-10-04T19:02:13Z</time>
      </trkpt>
      <trkpt lat="45.30726" lon="5.8892">
        <ele>809.44702148438</ele>
        <time>2017-10-04T19:02:16Z</time>
      </trkpt>
      <trkpt lat="45.30726" lon="5.88928">
        <ele>824.44702148438</ele>
        <time>2017-10-04T19:02:21Z</time>
      </trkpt>
      <trkpt lat="45.30725" lon="5.88938">
        <ele>828.44702148438</ele>
        <time>2017-10-04T19:02:25Z</time>
      </trkpt>
      <trkpt lat="45.30723" lon="5.88944">
        <ele>833.44702148438</ele>
        <time>2017-10-04T19:02:30Z</time>
      </trkpt>
      <trkpt lat="45.30723" lon="5.8895">
        <ele>831.44702148438</ele>
        <time>2017-10-04T19:02:37Z</time>
      </trkpt>
      <trkpt lat="45.30723" lon="5.88957">
        <ele>831.44702148438</ele>
        <time>2017-10-04T19:02:43Z</time>
      </trkpt>
      <trkpt lat="45.30726" lon="5.88963">
        <ele>827.44702148438</ele>
        <time>2017-10-04T19:02:50Z</time>
      </trkpt>
      <trkpt lat="45.30728" lon="5.88968">
        <ele>826.44702148438</ele>
        <time>2017-10-04T19:02:55Z</time>
      </trkpt>
      <trkpt lat="45.30729" lon="5.88976">
        <ele>825.44702148438</ele>
        <time>2017-10-04T19:02:59Z</time>
      </trkpt>
      <trkpt lat="45.30733" lon="5.88979">
        <ele>825.44702148438</ele>
        <time>2017-10-04T19:03:03Z</time>
      </trkpt>
      <trkpt lat="45.30735" lon="5.88987">
        <ele>826.44702148438</ele>
        <time>2017-10-04T19:03:06Z</time>
      </trkpt>
      <trkpt lat="45.30737" lon="5.88993">
        <ele>826.44702148438</ele>
        <time>2017-10-04T19:03:10Z</time>
      </trkpt>
      <trkpt lat="45.30738" lon="5.89">
        <ele>827.44702148438</ele>
        <time>2017-10-04T19:03:13Z</time>
      </trkpt>
      <trkpt lat="45.3074" lon="5.89006">
        <ele>826.44702148438</ele>
        <time>2017-10-04T19:03:17Z</time>
      </trkpt>
      <trkpt lat="45.30738" lon="5.89013">
        <ele>826.44702148438</ele>
        <time>2017-10-04T19:03:20Z</time>
      </trkpt>
      <trkpt lat="45.30742" lon="5.89018">
        <ele>824.44702148438</ele>
        <time>2017-10-04T19:03:24Z</time>
      </trkpt>
      <trkpt lat="45.30743" lon="5.89025">
        <ele>824.44702148438</ele>
        <time>2017-10-04T19:03:28Z</time>
      </trkpt>
      <trkpt lat="45.30747" lon="5.8903">
        <ele>822.44702148438</ele>
        <time>2017-10-04T19:03:32Z</time>
      </trkpt>
      <trkpt lat="45.30748" lon="5.89037">
        <ele>821.44702148438</ele>
        <time>2017-10-04T19:03:38Z</time>
      </trkpt>
      <trkpt lat="45.30752" lon="5.89041">
        <ele>818.44702148438</ele>
        <time>2017-10-04T19:03:43Z</time>
      </trkpt>
      <trkpt lat="45.30755" lon="5.89049">
        <ele>816.44702148438</ele>
        <time>2017-10-04T19:03:48Z</time>
      </trkpt>
      <trkpt lat="45.30757" lon="5.89055">
        <ele>815.44702148438</ele>
        <time>2017-10-04T19:03:53Z</time>
      </trkpt>
      <trkpt lat="45.30758" lon="5.89062">
        <ele>815.44702148438</ele>
        <time>2017-10-04T19:03:57Z</time>
      </trkpt>
      <trkpt lat="45.30761" lon="5.89068">
        <ele>813.44702148438</ele>
        <time>2017-10-04T19:04:02Z</time>
      </trkpt>
      <trkpt lat="45.30763" lon="5.89077">
        <ele>812.44702148438</ele>
        <time>2017-10-04T19:04:06Z</time>
      </trkpt>
      <trkpt lat="45.30766" lon="5.89083">
        <ele>810.44702148438</ele>
        <time>2017-10-04T19:04:10Z</time>
      </trkpt>
      <trkpt lat="45.30769" lon="5.8909">
        <ele>810.44702148438</ele>
        <time>2017-10-04T19:04:14Z</time>
      </trkpt>
      <trkpt lat="45.30774" lon="5.89089">
        <ele>808.44702148438</ele>
        <time>2017-10-04T19:04:17Z</time>
      </trkpt>
      <trkpt lat="45.30772" lon="5.89097">
        <ele>811.44702148438</ele>
        <time>2017-10-04T19:04:20Z</time>
      </trkpt>
      <trkpt lat="45.30775" lon="5.89102">
        <ele>807.44702148438</ele>
        <time>2017-10-04T19:04:25Z</time>
      </trkpt>
      <trkpt lat="45.30776" lon="5.89108">
        <ele>805.44702148438</ele>
        <time>2017-10-04T19:04:29Z</time>
      </trkpt>
      <trkpt lat="45.30776" lon="5.89116">
        <ele>805.44702148438</ele>
        <time>2017-10-04T19:04:32Z</time>
      </trkpt>
      <trkpt lat="45.30778" lon="5.89122">
        <ele>802.44702148438</ele>
        <time>2017-10-04T19:04:39Z</time>
      </trkpt>
      <trkpt lat="45.30782" lon="5.89128">
        <ele>798.44702148438</ele>
        <time>2017-10-04T19:04:44Z</time>
      </trkpt>
      <trkpt lat="45.30783" lon="5.89135">
        <ele>796.44702148438</ele>
        <time>2017-10-04T19:04:49Z</time>
      </trkpt>
      <trkpt lat="45.30785" lon="5.89142">
        <ele>793.44702148438</ele>
        <time>2017-10-04T19:04:54Z</time>
      </trkpt>
      <trkpt lat="45.30786" lon="5.89149">
        <ele>793.44702148438</ele>
        <time>2017-10-04T19:04:59Z</time>
      </trkpt>
      <trkpt lat="45.30788" lon="5.89157">
        <ele>791.44702148438</ele>
        <time>2017-10-04T19:05:03Z</time>
      </trkpt>
      <trkpt lat="45.30787" lon="5.89164">
        <ele>791.44702148438</ele>
        <time>2017-10-04T19:05:06Z</time>
      </trkpt>
      <trkpt lat="45.30791" lon="5.89168">
        <ele>789.44702148438</ele>
        <time>2017-10-04T19:05:16Z</time>
      </trkpt>
      <trkpt lat="45.3079" lon="5.89175">
        <ele>788.44702148438</ele>
        <time>2017-10-04T19:05:22Z</time>
      </trkpt>
      <trkpt lat="45.30789" lon="5.89181">
        <ele>789.44702148438</ele>
        <time>2017-10-04T19:05:24Z</time>
      </trkpt>
      <trkpt lat="45.30784" lon="5.89187">
        <ele>790.44702148438</ele>
        <time>2017-10-04T19:05:27Z</time>
      </trkpt>
      <trkpt lat="45.30783" lon="5.8918">
        <ele>787.44702148438</ele>
        <time>2017-10-04T19:05:33Z</time>
      </trkpt>
      <trkpt lat="45.30785" lon="5.89173">
        <ele>784.44702148438</ele>
        <time>2017-10-04T19:05:36Z</time>
      </trkpt>
      <trkpt lat="45.30781" lon="5.89168">
        <ele>786.44702148438</ele>
        <time>2017-10-04T19:05:39Z</time>
      </trkpt>
      <trkpt lat="45.30778" lon="5.89161">
        <ele>786.44702148438</ele>
        <time>2017-10-04T19:05:43Z</time>
      </trkpt>
      <trkpt lat="45.30773" lon="5.89157">
        <ele>786.44702148438</ele>
        <time>2017-10-04T19:05:46Z</time>
      </trkpt>
      <trkpt lat="45.30768" lon="5.89153">
        <ele>784.44702148438</ele>
        <time>2017-10-04T19:05:50Z</time>
      </trkpt>
      <trkpt lat="45.30764" lon="5.89151">
        <ele>785.44702148438</ele>
        <time>2017-10-04T19:05:52Z</time>
      </trkpt>
      <trkpt lat="45.30761" lon="5.89145">
        <ele>785.44702148438</ele>
        <time>2017-10-04T19:05:55Z</time>
      </trkpt>
      <trkpt lat="45.3076" lon="5.89137">
        <ele>781.44702148438</ele>
        <time>2017-10-04T19:06:01Z</time>
      </trkpt>
      <trkpt lat="45.30753" lon="5.89124">
        <ele>778.44702148438</ele>
        <time>2017-10-04T19:06:16Z</time>
      </trkpt>
      <trkpt lat="45.30746" lon="5.89118">
        <ele>774.44702148438</ele>
        <time>2017-10-04T19:06:18Z</time>
      </trkpt>
      <trkpt lat="45.30735" lon="5.89115">
        <ele>772.44702148438</ele>
        <time>2017-10-04T19:06:22Z</time>
      </trkpt>
      <trkpt lat="45.30725" lon="5.89102">
        <ele>776.44702148438</ele>
        <time>2017-10-04T19:06:25Z</time>
      </trkpt>
      <trkpt lat="45.30725" lon="5.89112">
        <ele>775.44702148438</ele>
        <time>2017-10-04T19:06:27Z</time>
      </trkpt>
      <trkpt lat="45.30715" lon="5.89103">
        <ele>771.44702148438</ele>
        <time>2017-10-04T19:06:32Z</time>
      </trkpt>
      <trkpt lat="45.30719" lon="5.89099">
        <ele>769.44702148438</ele>
        <time>2017-10-04T19:06:33Z</time>
      </trkpt>
      <trkpt lat="45.30712" lon="5.89096">
        <ele>765.44702148438</ele>
        <time>2017-10-04T19:06:42Z</time>
      </trkpt>
      <trkpt lat="45.30712" lon="5.89087">
        <ele>761.44702148438</ele>
        <time>2017-10-04T19:06:45Z</time>
      </trkpt>
      <trkpt lat="45.30708" lon="5.8909">
        <ele>761.44702148438</ele>
        <time>2017-10-04T19:06:47Z</time>
      </trkpt>
      <trkpt lat="45.30703" lon="5.89097">
        <ele>763.44702148438</ele>
        <time>2017-10-04T19:06:50Z</time>
      </trkpt>
      <trkpt lat="45.30698" lon="5.89098">
        <ele>762.44702148438</ele>
        <time>2017-10-04T19:06:52Z</time>
      </trkpt>
      <trkpt lat="45.30693" lon="5.89097">
        <ele>758.44702148438</ele>
        <time>2017-10-04T19:06:56Z</time>
      </trkpt>
      <trkpt lat="45.30688" lon="5.89097">
        <ele>754.44702148438</ele>
        <time>2017-10-04T19:07:02Z</time>
      </trkpt>
      <trkpt lat="45.3069" lon="5.89104">
        <ele>747.44702148438</ele>
        <time>2017-10-04T19:07:20Z</time>
      </trkpt>
      <trkpt lat="45.30686" lon="5.89112">
        <ele>749.44702148438</ele>
        <time>2017-10-04T19:07:23Z</time>
      </trkpt>
      <trkpt lat="45.30683" lon="5.89121">
        <ele>747.44702148438</ele>
        <time>2017-10-04T19:07:28Z</time>
      </trkpt>
      <trkpt lat="45.30687" lon="5.89126">
        <ele>744.44702148438</ele>
        <time>2017-10-04T19:07:34Z</time>
      </trkpt>
      <trkpt lat="45.3069" lon="5.89131">
        <ele>745.44702148438</ele>
        <time>2017-10-04T19:07:38Z</time>
      </trkpt>
      <trkpt lat="45.30692" lon="5.89137">
        <ele>743.44702148438</ele>
        <time>2017-10-04T19:07:41Z</time>
      </trkpt>
      <trkpt lat="45.30692" lon="5.89146">
        <ele>742.44702148438</ele>
        <time>2017-10-04T19:07:44Z</time>
      </trkpt>
      <trkpt lat="45.30691" lon="5.89155">
        <ele>741.44702148438</ele>
        <time>2017-10-04T19:07:49Z</time>
      </trkpt>
      <trkpt lat="45.30692" lon="5.89161">
        <ele>740.44702148438</ele>
        <time>2017-10-04T19:07:52Z</time>
      </trkpt>
      <trkpt lat="45.30694" lon="5.89169">
        <ele>740.44702148438</ele>
        <time>2017-10-04T19:07:57Z</time>
      </trkpt>
      <trkpt lat="45.30695" lon="5.89175">
        <ele>738.44702148438</ele>
        <time>2017-10-04T19:08:01Z</time>
      </trkpt>
      <trkpt lat="45.30695" lon="5.89183">
        <ele>735.44702148438</ele>
        <time>2017-10-04T19:08:04Z</time>
      </trkpt>
      <trkpt lat="45.30694" lon="5.89191">
        <ele>735.44702148438</ele>
        <time>2017-10-04T19:08:06Z</time>
      </trkpt>
      <trkpt lat="45.30696" lon="5.89198">
        <ele>734.44702148438</ele>
        <time>2017-10-04T19:08:08Z</time>
      </trkpt>
      <trkpt lat="45.30695" lon="5.89205">
        <ele>731.44702148438</ele>
        <time>2017-10-04T19:08:12Z</time>
      </trkpt>
      <trkpt lat="45.30694" lon="5.89215">
        <ele>732.44702148438</ele>
        <time>2017-10-04T19:08:15Z</time>
      </trkpt>
      <trkpt lat="45.30698" lon="5.89222">
        <ele>727.44702148438</ele>
        <time>2017-10-04T19:08:19Z</time>
      </trkpt>
      <trkpt lat="45.30699" lon="5.89229">
        <ele>726.44702148438</ele>
        <time>2017-10-04T19:08:22Z</time>
      </trkpt>
      <trkpt lat="45.30697" lon="5.89236">
        <ele>718.44702148438</ele>
        <time>2017-10-04T19:08:29Z</time>
      </trkpt>
      <trkpt lat="45.30697" lon="5.89242">
        <ele>717.44702148438</ele>
        <time>2017-10-04T19:08:34Z</time>
      </trkpt>
      <trkpt lat="45.30697" lon="5.89249">
        <ele>716.44702148438</ele>
        <time>2017-10-04T19:08:38Z</time>
      </trkpt>
      <trkpt lat="45.307" lon="5.89255">
        <ele>714.44702148438</ele>
        <time>2017-10-04T19:08:41Z</time>
      </trkpt>
      <trkpt lat="45.30699" lon="5.89261">
        <ele>712.44702148438</ele>
        <time>2017-10-04T19:08:45Z</time>
      </trkpt>
      <trkpt lat="45.30701" lon="5.89269">
        <ele>711.44702148438</ele>
        <time>2017-10-04T19:08:49Z</time>
      </trkpt>
      <trkpt lat="45.307" lon="5.89276">
        <ele>711.44702148438</ele>
        <time>2017-10-04T19:08:51Z</time>
      </trkpt>
      <trkpt lat="45.30702" lon="5.89283">
        <ele>708.44702148438</ele>
        <time>2017-10-04T19:08:56Z</time>
      </trkpt>
      <trkpt lat="45.307" lon="5.8929">
        <ele>708.44702148438</ele>
        <time>2017-10-04T19:08:58Z</time>
      </trkpt>
      <trkpt lat="45.307" lon="5.89298">
        <ele>707.44702148438</ele>
        <time>2017-10-04T19:09:02Z</time>
      </trkpt>
      <trkpt lat="45.30697" lon="5.89311">
        <ele>707.44702148438</ele>
        <time>2017-10-04T19:09:06Z</time>
      </trkpt>
      <trkpt lat="45.30699" lon="5.89318">
        <ele>703.44702148438</ele>
        <time>2017-10-04T19:09:11Z</time>
      </trkpt>
      <trkpt lat="45.30699" lon="5.89325">
        <ele>703.44702148438</ele>
        <time>2017-10-04T19:09:14Z</time>
      </trkpt>
      <trkpt lat="45.30701" lon="5.89332">
        <ele>699.44702148438</ele>
        <time>2017-10-04T19:09:21Z</time>
      </trkpt>
      <trkpt lat="45.30704" lon="5.89339">
        <ele>693.44702148438</ele>
        <time>2017-10-04T19:09:28Z</time>
      </trkpt>
      <trkpt lat="45.30703" lon="5.89345">
        <ele>690.44702148438</ele>
        <time>2017-10-04T19:09:34Z</time>
      </trkpt>
      <trkpt lat="45.30703" lon="5.89351">
        <ele>690.44702148438</ele>
        <time>2017-10-04T19:09:40Z</time>
      </trkpt>
      <trkpt lat="45.30699" lon="5.89349">
        <ele>687.44702148438</ele>
        <time>2017-10-04T19:10:02Z</time>
      </trkpt>
      <trkpt lat="45.30686" lon="5.89333">
        <ele>683.44702148438</ele>
        <time>2017-10-04T19:10:06Z</time>
      </trkpt>
      <trkpt lat="45.30681" lon="5.89329">
        <ele>681.44702148438</ele>
        <time>2017-10-04T19:10:09Z</time>
      </trkpt>
      <trkpt lat="45.30676" lon="5.89331">
        <ele>674.44702148438</ele>
        <time>2017-10-04T19:10:13Z</time>
      </trkpt>
      <trkpt lat="45.30677" lon="5.89338">
        <ele>669.44702148438</ele>
        <time>2017-10-04T19:10:16Z</time>
      </trkpt>
      <trkpt lat="45.30674" lon="5.89346">
        <ele>666.44702148438</ele>
        <time>2017-10-04T19:10:19Z</time>
      </trkpt>
      <trkpt lat="45.30673" lon="5.89355">
        <ele>665.44702148438</ele>
        <time>2017-10-04T19:10:24Z</time>
      </trkpt>
      <trkpt lat="45.30669" lon="5.89352">
        <ele>663.44702148438</ele>
        <time>2017-10-04T19:10:29Z</time>
      </trkpt>
      <trkpt lat="45.30665" lon="5.89348">
        <ele>658.44702148438</ele>
        <time>2017-10-04T19:10:35Z</time>
      </trkpt>
      <trkpt lat="45.30661" lon="5.89345">
        <ele>655.44702148438</ele>
        <time>2017-10-04T19:10:40Z</time>
      </trkpt>
      <trkpt lat="45.30659" lon="5.89353">
        <ele>657.44702148438</ele>
        <time>2017-10-04T19:10:43Z</time>
      </trkpt>
      <trkpt lat="45.30657" lon="5.89359">
        <ele>654.44702148438</ele>
        <time>2017-10-04T19:10:47Z</time>
      </trkpt>
      <trkpt lat="45.3065" lon="5.89356">
        <ele>651.44702148438</ele>
        <time>2017-10-04T19:11:08Z</time>
      </trkpt>
      <trkpt lat="45.30646" lon="5.89351">
        <ele>650.44702148438</ele>
        <time>2017-10-04T19:11:10Z</time>
      </trkpt>
      <trkpt lat="45.30642" lon="5.89346">
        <ele>650.44702148438</ele>
        <time>2017-10-04T19:11:12Z</time>
      </trkpt>
      <trkpt lat="45.30638" lon="5.89341">
        <ele>650.44702148438</ele>
        <time>2017-10-04T19:11:14Z</time>
      </trkpt>
      <trkpt lat="45.30633" lon="5.89324">
        <ele>649.44702148438</ele>
        <time>2017-10-04T19:11:17Z</time>
      </trkpt>
      <trkpt lat="45.30628" lon="5.89325">
        <ele>645.44702148438</ele>
        <time>2017-10-04T19:11:20Z</time>
      </trkpt>
      <trkpt lat="45.30625" lon="5.8933">
        <ele>645.44702148438</ele>
        <time>2017-10-04T19:11:25Z</time>
      </trkpt>
      <trkpt lat="45.30624" lon="5.8934">
        <ele>641.44702148438</ele>
        <time>2017-10-04T19:11:31Z</time>
      </trkpt>
      <trkpt lat="45.30621" lon="5.89347">
        <ele>641.44702148438</ele>
        <time>2017-10-04T19:11:34Z</time>
      </trkpt>
      <trkpt lat="45.30619" lon="5.89356">
        <ele>639.44702148438</ele>
        <time>2017-10-04T19:11:39Z</time>
      </trkpt>
      <trkpt lat="45.30619" lon="5.89362">
        <ele>638.44702148438</ele>
        <time>2017-10-04T19:11:42Z</time>
      </trkpt>
      <trkpt lat="45.30616" lon="5.89356">
        <ele>633.44702148438</ele>
        <time>2017-10-04T19:11:50Z</time>
      </trkpt>
      <trkpt lat="45.30614" lon="5.89349">
        <ele>630.44702148438</ele>
        <time>2017-10-04T19:11:54Z</time>
      </trkpt>
      <trkpt lat="45.30609" lon="5.89345">
        <ele>631.44702148438</ele>
        <time>2017-10-04T19:11:57Z</time>
      </trkpt>
      <trkpt lat="45.30608" lon="5.89352">
        <ele>630.44702148438</ele>
        <time>2017-10-04T19:12:03Z</time>
      </trkpt>
      <trkpt lat="45.30606" lon="5.89359">
        <ele>629.44702148438</ele>
        <time>2017-10-04T19:12:07Z</time>
      </trkpt>
      <trkpt lat="45.30606" lon="5.89366">
        <ele>624.44702148438</ele>
        <time>2017-10-04T19:12:12Z</time>
      </trkpt>
      <trkpt lat="45.30602" lon="5.89371">
        <ele>624.44702148438</ele>
        <time>2017-10-04T19:12:16Z</time>
      </trkpt>
      <trkpt lat="45.30599" lon="5.8938">
        <ele>626.44702148438</ele>
        <time>2017-10-04T19:12:20Z</time>
      </trkpt>
      <trkpt lat="45.306" lon="5.89389">
        <ele>623.44702148438</ele>
        <time>2017-10-04T19:12:25Z</time>
      </trkpt>
      <trkpt lat="45.30603" lon="5.89395">
        <ele>624.44702148438</ele>
        <time>2017-10-04T19:12:29Z</time>
      </trkpt>
      <trkpt lat="45.30608" lon="5.89397">
        <ele>622.44702148438</ele>
        <time>2017-10-04T19:12:32Z</time>
      </trkpt>
      <trkpt lat="45.30605" lon="5.89405">
        <ele>621.44702148438</ele>
        <time>2017-10-04T19:12:36Z</time>
      </trkpt>
      <trkpt lat="45.30606" lon="5.89412">
        <ele>621.44702148438</ele>
        <time>2017-10-04T19:12:39Z</time>
      </trkpt>
      <trkpt lat="45.30604" lon="5.89418">
        <ele>621.44702148438</ele>
        <time>2017-10-04T19:12:42Z</time>
      </trkpt>
      <trkpt lat="45.306" lon="5.89426">
        <ele>615.44702148438</ele>
        <time>2017-10-04T19:12:53Z</time>
      </trkpt>
      <trkpt lat="45.30595" lon="5.89426">
        <ele>612.44702148438</ele>
        <time>2017-10-04T19:13:00Z</time>
      </trkpt>
      <trkpt lat="45.30591" lon="5.8943">
        <ele>609.44702148438</ele>
        <time>2017-10-04T19:13:06Z</time>
      </trkpt>
      <trkpt lat="45.30588" lon="5.89436">
        <ele>607.44702148438</ele>
        <time>2017-10-04T19:13:11Z</time>
      </trkpt>
      <trkpt lat="45.30582" lon="5.89434">
        <ele>602.44702148438</ele>
        <time>2017-10-04T19:13:30Z</time>
      </trkpt>
      <trkpt lat="45.30577" lon="5.89432">
        <ele>600.44702148438</ele>
        <time>2017-10-04T19:13:35Z</time>
      </trkpt>
      <trkpt lat="45.30578" lon="5.89425">
        <ele>599.44702148438</ele>
        <time>2017-10-04T19:13:40Z</time>
      </trkpt>
      <trkpt lat="45.3058" lon="5.89418">
        <ele>599.44702148438</ele>
        <time>2017-10-04T19:13:47Z</time>
      </trkpt>
      <trkpt lat="45.30576" lon="5.89414">
        <ele>598.44702148438</ele>
        <time>2017-10-04T19:13:51Z</time>
      </trkpt>
      <trkpt lat="45.30574" lon="5.89405">
        <ele>593.44702148438</ele>
        <time>2017-10-04T19:13:58Z</time>
      </trkpt>
      <trkpt lat="45.30571" lon="5.89399">
        <ele>587.44702148438</ele>
        <time>2017-10-04T19:14:08Z</time>
      </trkpt>
      <trkpt lat="45.30567" lon="5.89398">
        <ele>588.44702148438</ele>
        <time>2017-10-04T19:14:12Z</time>
      </trkpt>
      <trkpt lat="45.30563" lon="5.89391">
        <ele>582.44702148438</ele>
        <time>2017-10-04T19:14:17Z</time>
      </trkpt>
      <trkpt lat="45.30559" lon="5.89385">
        <ele>581.44702148438</ele>
        <time>2017-10-04T19:14:26Z</time>
      </trkpt>
      <trkpt lat="45.30558" lon="5.89378">
        <ele>579.44702148438</ele>
        <time>2017-10-04T19:14:30Z</time>
      </trkpt>
      <trkpt lat="45.30556" lon="5.89372">
        <ele>575.44702148438</ele>
        <time>2017-10-04T19:14:36Z</time>
      </trkpt>
      <trkpt lat="45.30552" lon="5.89366">
        <ele>574.44702148438</ele>
        <time>2017-10-04T19:14:42Z</time>
      </trkpt>
      <trkpt lat="45.3055" lon="5.8936">
        <ele>573.44702148438</ele>
        <time>2017-10-04T19:14:46Z</time>
      </trkpt>
      <trkpt lat="45.30546" lon="5.89355">
        <ele>574.44702148438</ele>
        <time>2017-10-04T19:14:51Z</time>
      </trkpt>
      <trkpt lat="45.30542" lon="5.89351">
        <ele>573.44702148438</ele>
        <time>2017-10-04T19:15:00Z</time>
      </trkpt>
      <trkpt lat="45.30539" lon="5.89345">
        <ele>571.44702148438</ele>
        <time>2017-10-04T19:15:06Z</time>
      </trkpt>
      <trkpt lat="45.30536" lon="5.8934">
        <ele>568.44702148438</ele>
        <time>2017-10-04T19:15:13Z</time>
      </trkpt>
      <trkpt lat="45.30532" lon="5.89334">
        <ele>566.44702148438</ele>
        <time>2017-10-04T19:15:19Z</time>
      </trkpt>
      <trkpt lat="45.3053" lon="5.89328">
        <ele>566.44702148438</ele>
        <time>2017-10-04T19:15:23Z</time>
      </trkpt>
      <trkpt lat="45.30528" lon="5.89322">
        <ele>564.44702148438</ele>
        <time>2017-10-04T19:15:26Z</time>
      </trkpt>
      <trkpt lat="45.30527" lon="5.89315">
        <ele>561.44702148438</ele>
        <time>2017-10-04T19:15:33Z</time>
      </trkpt>
      <trkpt lat="45.30522" lon="5.8931">
        <ele>604.44702148438</ele>
        <time>2017-10-04T19:15:40Z</time>
      </trkpt>
      <trkpt lat="45.30522" lon="5.89302">
        <ele>585.44702148438</ele>
        <time>2017-10-04T19:15:46Z</time>
      </trkpt>
      <trkpt lat="45.30518" lon="5.89298">
        <ele>569.44702148438</ele>
        <time>2017-10-04T19:15:51Z</time>
      </trkpt>
      <trkpt lat="45.30515" lon="5.89292">
        <ele>562.44702148438</ele>
        <time>2017-10-04T19:15:55Z</time>
      </trkpt>
      <trkpt lat="45.30511" lon="5.89286">
        <ele>560.44702148438</ele>
        <time>2017-10-04T19:15:59Z</time>
      </trkpt>
      <trkpt lat="45.3051" lon="5.89278">
        <ele>559.44702148438</ele>
        <time>2017-10-04T19:16:01Z</time>
      </trkpt>
      <trkpt lat="45.30511" lon="5.8927">
        <ele>557.44702148438</ele>
        <time>2017-10-04T19:16:03Z</time>
      </trkpt>
      <trkpt lat="45.30507" lon="5.89264">
        <ele>551.44702148438</ele>
        <time>2017-10-04T19:16:10Z</time>
      </trkpt>
      <trkpt lat="45.30502" lon="5.89266">
        <ele>548.44702148438</ele>
        <time>2017-10-04T19:16:16Z</time>
      </trkpt>
      <trkpt lat="45.30498" lon="5.89263">
        <ele>547.44702148438</ele>
        <time>2017-10-04T19:16:21Z</time>
      </trkpt>
      <trkpt lat="45.30493" lon="5.89263">
        <ele>544.44702148438</ele>
        <time>2017-10-04T19:16:24Z</time>
      </trkpt>
      <trkpt lat="45.30486" lon="5.89263">
        <ele>539.44702148438</ele>
        <time>2017-10-04T19:16:31Z</time>
      </trkpt>
      <trkpt lat="45.30481" lon="5.89266">
        <ele>538.44598388672</ele>
        <time>2017-10-04T19:16:33Z</time>
      </trkpt>
      <trkpt lat="45.30476" lon="5.89265">
        <ele>539.44598388672</ele>
        <time>2017-10-04T19:16:38Z</time>
      </trkpt>
      <trkpt lat="45.30472" lon="5.89266">
        <ele>536.44598388672</ele>
        <time>2017-10-04T19:16:49Z</time>
      </trkpt>
      <trkpt lat="45.30468" lon="5.8926">
        <ele>535.44598388672</ele>
        <time>2017-10-04T19:16:51Z</time>
      </trkpt>
      <trkpt lat="45.30467" lon="5.89254">
        <ele>533.44598388672</ele>
        <time>2017-10-04T19:16:53Z</time>
      </trkpt>
      <trkpt lat="45.30463" lon="5.89247">
        <ele>531.44598388672</ele>
        <time>2017-10-04T19:16:56Z</time>
      </trkpt>
      <trkpt lat="45.30458" lon="5.89246">
        <ele>530.44598388672</ele>
        <time>2017-10-04T19:16:58Z</time>
      </trkpt>
      <trkpt lat="45.30454" lon="5.89241">
        <ele>529.44598388672</ele>
        <time>2017-10-04T19:17:00Z</time>
      </trkpt>
      <trkpt lat="45.30453" lon="5.89235">
        <ele>527.44598388672</ele>
        <time>2017-10-04T19:17:03Z</time>
      </trkpt>
      <trkpt lat="45.30449" lon="5.8923">
        <ele>526.44598388672</ele>
        <time>2017-10-04T19:17:06Z</time>
      </trkpt>
      <trkpt lat="45.30446" lon="5.89226">
        <ele>527.44598388672</ele>
        <time>2017-10-04T19:17:08Z</time>
      </trkpt>
      <trkpt lat="45.30443" lon="5.89219">
        <ele>525.44598388672</ele>
        <time>2017-10-04T19:17:11Z</time>
      </trkpt>
      <trkpt lat="45.30435" lon="5.89218">
        <ele>523.44598388672</ele>
        <time>2017-10-04T19:17:19Z</time>
      </trkpt>
      <trkpt lat="45.30434" lon="5.89211">
        <ele>520.44598388672</ele>
        <time>2017-10-04T19:17:21Z</time>
      </trkpt>
      <trkpt lat="45.3043" lon="5.89209">
        <ele>520.44598388672</ele>
        <time>2017-10-04T19:17:23Z</time>
      </trkpt>
      <trkpt lat="45.30425" lon="5.89205">
        <ele>521.44598388672</ele>
        <time>2017-10-04T19:17:26Z</time>
      </trkpt>
      <trkpt lat="45.30422" lon="5.89201">
        <ele>520.44598388672</ele>
        <time>2017-10-04T19:17:29Z</time>
      </trkpt>
      <trkpt lat="45.30417" lon="5.89196">
        <ele>518.44598388672</ele>
        <time>2017-10-04T19:17:31Z</time>
      </trkpt>
      <trkpt lat="45.30412" lon="5.89196">
        <ele>519.44598388672</ele>
        <time>2017-10-04T19:17:35Z</time>
      </trkpt>
      <trkpt lat="45.30409" lon="5.8919">
        <ele>519.44598388672</ele>
        <time>2017-10-04T19:17:42Z</time>
      </trkpt>
      <trkpt lat="45.30406" lon="5.89183">
        <ele>519.44598388672</ele>
        <time>2017-10-04T19:17:50Z</time>
      </trkpt>
      <trkpt lat="45.30401" lon="5.89182">
        <ele>524.44598388672</ele>
        <time>2017-10-04T19:18:25Z</time>
      </trkpt>
      <trkpt lat="45.30396" lon="5.8918">
        <ele>524.44598388672</ele>
        <time>2017-10-04T19:18:27Z</time>
      </trkpt>
      <trkpt lat="45.30391" lon="5.8918">
        <ele>523.44598388672</ele>
        <time>2017-10-04T19:18:30Z</time>
      </trkpt>
      <trkpt lat="45.30385" lon="5.89181">
        <ele>521.44598388672</ele>
        <time>2017-10-04T19:18:32Z</time>
      </trkpt>
      <trkpt lat="45.30381" lon="5.89184">
        <ele>522.44598388672</ele>
        <time>2017-10-04T19:18:39Z</time>
      </trkpt>
      <trkpt lat="45.30376" lon="5.89188">
        <ele>519.44598388672</ele>
        <time>2017-10-04T19:18:46Z</time>
      </trkpt>
      <trkpt lat="45.30371" lon="5.89194">
        <ele>516.44598388672</ele>
        <time>2017-10-04T19:18:49Z</time>
      </trkpt>
      <trkpt lat="45.30365" lon="5.89197">
        <ele>516.44598388672</ele>
        <time>2017-10-04T19:18:51Z</time>
      </trkpt>
      <trkpt lat="45.3036" lon="5.89204">
        <ele>516.44598388672</ele>
        <time>2017-10-04T19:18:53Z</time>
      </trkpt>
      <trkpt lat="45.30357" lon="5.89209">
        <ele>512.44598388672</ele>
        <time>2017-10-04T19:18:59Z</time>
      </trkpt>
      <trkpt lat="45.30353" lon="5.89213">
        <ele>511.4460144043</ele>
        <time>2017-10-04T19:19:04Z</time>
      </trkpt>
      <trkpt lat="45.30348" lon="5.89218">
        <ele>509.4460144043</ele>
        <time>2017-10-04T19:19:09Z</time>
      </trkpt>
      <trkpt lat="45.30344" lon="5.89226">
        <ele>507.4460144043</ele>
        <time>2017-10-04T19:19:20Z</time>
      </trkpt>
      <trkpt lat="45.30341" lon="5.89236">
        <ele>508.4460144043</ele>
        <time>2017-10-04T19:19:22Z</time>
      </trkpt>
      <trkpt lat="45.30339" lon="5.89244">
        <ele>509.4460144043</ele>
        <time>2017-10-04T19:19:25Z</time>
      </trkpt>
      <trkpt lat="45.30333" lon="5.89249">
        <ele>511.4460144043</ele>
        <time>2017-10-04T19:19:28Z</time>
      </trkpt>
      <trkpt lat="45.30328" lon="5.89253">
        <ele>509.4460144043</ele>
        <time>2017-10-04T19:19:32Z</time>
      </trkpt>
      <trkpt lat="45.30324" lon="5.89259">
        <ele>505.4460144043</ele>
        <time>2017-10-04T19:19:38Z</time>
      </trkpt>
      <trkpt lat="45.30319" lon="5.89265">
        <ele>502.4460144043</ele>
        <time>2017-10-04T19:19:42Z</time>
      </trkpt>
      <trkpt lat="45.30315" lon="5.8927">
        <ele>502.4460144043</ele>
        <time>2017-10-04T19:19:44Z</time>
      </trkpt>
      <trkpt lat="45.30318" lon="5.89275">
        <ele>501.4460144043</ele>
        <time>2017-10-04T19:19:49Z</time>
      </trkpt>
      <trkpt lat="45.30315" lon="5.8928">
        <ele>498.4460144043</ele>
        <time>2017-10-04T19:19:52Z</time>
      </trkpt>
      <trkpt lat="45.30311" lon="5.89284">
        <ele>497.4460144043</ele>
        <time>2017-10-04T19:19:55Z</time>
      </trkpt>
      <trkpt lat="45.30309" lon="5.8929">
        <ele>493.4460144043</ele>
        <time>2017-10-04T19:19:59Z</time>
      </trkpt>
      <trkpt lat="45.30304" lon="5.89295">
        <ele>491.4460144043</ele>
        <time>2017-10-04T19:20:02Z</time>
      </trkpt>
      <trkpt lat="45.30302" lon="5.89301">
        <ele>490.4460144043</ele>
        <time>2017-10-04T19:20:05Z</time>
      </trkpt>
      <trkpt lat="45.30299" lon="5.89309">
        <ele>486.4460144043</ele>
        <time>2017-10-04T19:20:10Z</time>
      </trkpt>
      <trkpt lat="45.30297" lon="5.89316">
        <ele>480.4460144043</ele>
        <time>2017-10-04T19:20:15Z</time>
      </trkpt>
      <trkpt lat="45.30299" lon="5.89323">
        <ele>476.4460144043</ele>
        <time>2017-10-04T19:20:19Z</time>
      </trkpt>
      <trkpt lat="45.30296" lon="5.89329">
        <ele>475.4460144043</ele>
        <time>2017-10-04T19:20:24Z</time>
      </trkpt>
      <trkpt lat="45.30292" lon="5.89334">
        <ele>475.4460144043</ele>
        <time>2017-10-04T19:20:27Z</time>
      </trkpt>
      <trkpt lat="45.30289" lon="5.89338">
        <ele>474.4460144043</ele>
        <time>2017-10-04T19:20:31Z</time>
      </trkpt>
      <trkpt lat="45.30285" lon="5.89343">
        <ele>471.4460144043</ele>
        <time>2017-10-04T19:20:39Z</time>
      </trkpt>
      <trkpt lat="45.30281" lon="5.89346">
        <ele>463.4460144043</ele>
        <time>2017-10-04T19:20:46Z</time>
      </trkpt>
      <trkpt lat="45.30277" lon="5.89348">
        <ele>457.4460144043</ele>
        <time>2017-10-04T19:20:56Z</time>
      </trkpt>
      <trkpt lat="45.30271" lon="5.89348">
        <ele>455.4460144043</ele>
        <time>2017-10-04T19:21:18Z</time>
      </trkpt>
      <trkpt lat="45.30265" lon="5.89355">
        <ele>450.4460144043</ele>
        <time>2017-10-04T19:21:22Z</time>
      </trkpt>
      <trkpt lat="45.30259" lon="5.89359">
        <ele>450.4460144043</ele>
        <time>2017-10-04T19:21:25Z</time>
      </trkpt>
      <trkpt lat="45.30255" lon="5.89362">
        <ele>447.4460144043</ele>
        <time>2017-10-04T19:21:28Z</time>
      </trkpt>
      <trkpt lat="45.30251" lon="5.89367">
        <ele>446.4460144043</ele>
        <time>2017-10-04T19:21:31Z</time>
      </trkpt>
      <trkpt lat="45.30247" lon="5.89371">
        <ele>444.4460144043</ele>
        <time>2017-10-04T19:21:36Z</time>
      </trkpt>
      <trkpt lat="45.30242" lon="5.89373">
        <ele>442.4460144043</ele>
        <time>2017-10-04T19:21:40Z</time>
      </trkpt>
      <trkpt lat="45.30235" lon="5.89375">
        <ele>438.4460144043</ele>
        <time>2017-10-04T19:21:49Z</time>
      </trkpt>
      <trkpt lat="45.30231" lon="5.89379">
        <ele>440.4460144043</ele>
        <time>2017-10-04T19:21:53Z</time>
      </trkpt>
      <trkpt lat="45.30227" lon="5.89384">
        <ele>436.4460144043</ele>
        <time>2017-10-04T19:21:57Z</time>
      </trkpt>
      <trkpt lat="45.30222" lon="5.89383">
        <ele>435.4460144043</ele>
        <time>2017-10-04T19:21:59Z</time>
      </trkpt>
      <trkpt lat="45.30211" lon="5.8938">
        <ele>436.4460144043</ele>
        <time>2017-10-04T19:22:02Z</time>
      </trkpt>
      <trkpt lat="45.30206" lon="5.8938">
        <ele>434.4460144043</ele>
        <time>2017-10-04T19:22:05Z</time>
      </trkpt>
      <trkpt lat="45.30201" lon="5.89383">
        <ele>432.4460144043</ele>
        <time>2017-10-04T19:22:11Z</time>
      </trkpt>
      <trkpt lat="45.30194" lon="5.89379">
        <ele>429.4460144043</ele>
        <time>2017-10-04T19:22:14Z</time>
      </trkpt>
      <trkpt lat="45.30189" lon="5.89377">
        <ele>428.4460144043</ele>
        <time>2017-10-04T19:22:18Z</time>
      </trkpt>
      <trkpt lat="45.30184" lon="5.89381">
        <ele>427.4460144043</ele>
        <time>2017-10-04T19:22:24Z</time>
      </trkpt>
      <trkpt lat="45.30177" lon="5.89382">
        <ele>427.4460144043</ele>
        <time>2017-10-04T19:22:27Z</time>
      </trkpt>
      <trkpt lat="45.30164" lon="5.89379">
        <ele>425.4460144043</ele>
        <time>2017-10-04T19:22:38Z</time>
      </trkpt>
      <trkpt lat="45.30158" lon="5.89377">
        <ele>423.4460144043</ele>
        <time>2017-10-04T19:22:42Z</time>
      </trkpt>
      <trkpt lat="45.3015" lon="5.89378">
        <ele>422.4460144043</ele>
        <time>2017-10-04T19:22:44Z</time>
      </trkpt>
      <trkpt lat="45.30145" lon="5.89374">
        <ele>419.4460144043</ele>
        <time>2017-10-04T19:22:46Z</time>
      </trkpt>
      <trkpt lat="45.3014" lon="5.89369">
        <ele>416.4460144043</ele>
        <time>2017-10-04T19:22:49Z</time>
      </trkpt>
      <trkpt lat="45.30135" lon="5.89371">
        <ele>417.4460144043</ele>
        <time>2017-10-04T19:22:51Z</time>
      </trkpt>
      <trkpt lat="45.30127" lon="5.89369">
        <ele>413.4460144043</ele>
        <time>2017-10-04T19:22:54Z</time>
      </trkpt>
      <trkpt lat="45.30121" lon="5.8937">
        <ele>411.4460144043</ele>
        <time>2017-10-04T19:22:58Z</time>
      </trkpt>
      <trkpt lat="45.30117" lon="5.89371">
        <ele>407.4460144043</ele>
        <time>2017-10-04T19:23:02Z</time>
      </trkpt>
      <trkpt lat="45.3011" lon="5.89372">
        <ele>408.4460144043</ele>
        <time>2017-10-04T19:23:04Z</time>
      </trkpt>
      <trkpt lat="45.30105" lon="5.89375">
        <ele>407.4460144043</ele>
        <time>2017-10-04T19:23:08Z</time>
      </trkpt>
      <trkpt lat="45.30098" lon="5.89373">
        <ele>405.4460144043</ele>
        <time>2017-10-04T19:23:15Z</time>
      </trkpt>
      <trkpt lat="45.30093" lon="5.89375">
        <ele>405.4460144043</ele>
        <time>2017-10-04T19:23:18Z</time>
      </trkpt>
      <trkpt lat="45.30086" lon="5.89373">
        <ele>405.4460144043</ele>
        <time>2017-10-04T19:23:21Z</time>
      </trkpt>
      <trkpt lat="45.3008" lon="5.89376">
        <ele>399.4460144043</ele>
        <time>2017-10-04T19:23:27Z</time>
      </trkpt>
      <trkpt lat="45.30076" lon="5.89373">
        <ele>397.4460144043</ele>
        <time>2017-10-04T19:23:29Z</time>
      </trkpt>
      <trkpt lat="45.3007" lon="5.89371">
        <ele>396.4460144043</ele>
        <time>2017-10-04T19:23:32Z</time>
      </trkpt>
      <trkpt lat="45.3006" lon="5.89364">
        <ele>391.4460144043</ele>
        <time>2017-10-04T19:23:38Z</time>
      </trkpt>
      <trkpt lat="45.30055" lon="5.89365">
        <ele>389.4460144043</ele>
        <time>2017-10-04T19:23:47Z</time>
      </trkpt>
      <trkpt lat="45.30049" lon="5.89363">
        <ele>388.4460144043</ele>
        <time>2017-10-04T19:23:49Z</time>
      </trkpt>
      <trkpt lat="45.3004" lon="5.89367">
        <ele>384.4460144043</ele>
        <time>2017-10-04T19:23:54Z</time>
      </trkpt>
      <trkpt lat="45.30036" lon="5.8937">
        <ele>381.4460144043</ele>
        <time>2017-10-04T19:23:58Z</time>
      </trkpt>
      <trkpt lat="45.3003" lon="5.89373">
        <ele>378.4460144043</ele>
        <time>2017-10-04T19:24:03Z</time>
      </trkpt>
      <trkpt lat="45.30026" lon="5.8938">
        <ele>377.4460144043</ele>
        <time>2017-10-04T19:24:05Z</time>
      </trkpt>
      <trkpt lat="45.30025" lon="5.89387">
        <ele>377.4460144043</ele>
        <time>2017-10-04T19:24:08Z</time>
      </trkpt>
      <trkpt lat="45.30023" lon="5.89393">
        <ele>375.4460144043</ele>
        <time>2017-10-04T19:24:12Z</time>
      </trkpt>
      <trkpt lat="45.30019" lon="5.89399">
        <ele>375.4460144043</ele>
        <time>2017-10-04T19:24:15Z</time>
      </trkpt>
      <trkpt lat="45.30015" lon="5.89403">
        <ele>376.4460144043</ele>
        <time>2017-10-04T19:24:18Z</time>
      </trkpt>
      <trkpt lat="45.30013" lon="5.89409">
        <ele>376.4460144043</ele>
        <time>2017-10-04T19:24:23Z</time>
      </trkpt>
      <trkpt lat="45.3001" lon="5.89414">
        <ele>375.4460144043</ele>
        <time>2017-10-04T19:24:26Z</time>
      </trkpt>
      <trkpt lat="45.30008" lon="5.8942">
        <ele>368.4460144043</ele>
        <time>2017-10-04T19:24:31Z</time>
      </trkpt>
      <trkpt lat="45.30004" lon="5.89426">
        <ele>370.4460144043</ele>
        <time>2017-10-04T19:24:33Z</time>
      </trkpt>
      <trkpt lat="45.29999" lon="5.8943">
        <ele>365.4460144043</ele>
        <time>2017-10-04T19:24:37Z</time>
      </trkpt>
      <trkpt lat="45.3" lon="5.89436">
        <ele>364.4460144043</ele>
        <time>2017-10-04T19:24:41Z</time>
      </trkpt>
      <trkpt lat="45.30007" lon="5.89435">
        <ele>363.4460144043</ele>
        <time>2017-10-04T19:24:45Z</time>
      </trkpt>
      <trkpt lat="45.30014" lon="5.89437">
        <ele>361.4460144043</ele>
        <time>2017-10-04T19:24:51Z</time>
      </trkpt>
      <trkpt lat="45.3002" lon="5.89438">
        <ele>361.4460144043</ele>
        <time>2017-10-04T19:24:53Z</time>
      </trkpt>
      <trkpt lat="45.30026" lon="5.89437">
        <ele>360.4460144043</ele>
        <time>2017-10-04T19:24:55Z</time>
      </trkpt>
      <trkpt lat="45.30031" lon="5.89439">
        <ele>360.4460144043</ele>
        <time>2017-10-04T19:24:57Z</time>
      </trkpt>
      <trkpt lat="45.30041" lon="5.8944">
        <ele>360.4460144043</ele>
        <time>2017-10-04T19:25:00Z</time>
      </trkpt>
      <trkpt lat="45.30047" lon="5.89442">
        <ele>361.4460144043</ele>
        <time>2017-10-04T19:25:02Z</time>
      </trkpt>
      <trkpt lat="45.30055" lon="5.89441">
        <ele>359.4460144043</ele>
        <time>2017-10-04T19:25:04Z</time>
      </trkpt>
      <trkpt lat="45.30056" lon="5.89449">
        <ele>360.4460144043</ele>
        <time>2017-10-04T19:25:08Z</time>
      </trkpt>
      <trkpt lat="45.30064" lon="5.89455">
        <ele>362.4460144043</ele>
        <time>2017-10-04T19:25:12Z</time>
      </trkpt>
      <trkpt lat="45.30068" lon="5.89459">
        <ele>361.4460144043</ele>
        <time>2017-10-04T19:25:15Z</time>
      </trkpt>
      <trkpt lat="45.30075" lon="5.89462">
        <ele>361.4460144043</ele>
        <time>2017-10-04T19:25:18Z</time>
      </trkpt>
      <trkpt lat="45.30079" lon="5.89466">
        <ele>361.4460144043</ele>
        <time>2017-10-04T19:25:20Z</time>
      </trkpt>
      <trkpt lat="45.30083" lon="5.89469">
        <ele>361.4460144043</ele>
        <time>2017-10-04T19:25:22Z</time>
      </trkpt>
      <trkpt lat="45.30086" lon="5.89475">
        <ele>360.4460144043</ele>
        <time>2017-10-04T19:25:26Z</time>
      </trkpt>
      <trkpt lat="45.30089" lon="5.89479">
        <ele>363.4460144043</ele>
        <time>2017-10-04T19:25:28Z</time>
      </trkpt>
      <trkpt lat="45.30096" lon="5.89482">
        <ele>362.4460144043</ele>
        <time>2017-10-04T19:25:33Z</time>
      </trkpt>
      <trkpt lat="45.30099" lon="5.89487">
        <ele>362.4460144043</ele>
        <time>2017-10-04T19:25:35Z</time>
      </trkpt>
      <trkpt lat="45.30103" lon="5.89493">
        <ele>365.4460144043</ele>
        <time>2017-10-04T19:25:38Z</time>
      </trkpt>
      <trkpt lat="45.30107" lon="5.89496">
        <ele>363.4460144043</ele>
        <time>2017-10-04T19:25:40Z</time>
      </trkpt>
      <trkpt lat="45.30111" lon="5.895">
        <ele>361.4460144043</ele>
        <time>2017-10-04T19:25:42Z</time>
      </trkpt>
      <trkpt lat="45.30115" lon="5.89507">
        <ele>361.4460144043</ele>
        <time>2017-10-04T19:25:45Z</time>
      </trkpt>
      <trkpt lat="45.30119" lon="5.89514">
        <ele>361.4460144043</ele>
        <time>2017-10-04T19:25:48Z</time>
      </trkpt>
      <trkpt lat="45.30125" lon="5.8952">
        <ele>362.4460144043</ele>
        <time>2017-10-04T19:25:51Z</time>
      </trkpt>
      <trkpt lat="45.30131" lon="5.89525">
        <ele>363.4460144043</ele>
        <time>2017-10-04T19:25:54Z</time>
      </trkpt>
      <trkpt lat="45.30132" lon="5.89532">
        <ele>363.4460144043</ele>
        <time>2017-10-04T19:25:57Z</time>
      </trkpt>
      <trkpt lat="45.30135" lon="5.8954">
        <ele>360.4460144043</ele>
        <time>2017-10-04T19:26:00Z</time>
      </trkpt>
      <trkpt lat="45.30135" lon="5.89548">
        <ele>360.4460144043</ele>
        <time>2017-10-04T19:26:03Z</time>
      </trkpt>
      <trkpt lat="45.30137" lon="5.89559">
        <ele>361.4460144043</ele>
        <time>2017-10-04T19:26:06Z</time>
      </trkpt>
      <trkpt lat="45.30141" lon="5.89566">
        <ele>360.4460144043</ele>
        <time>2017-10-04T19:26:09Z</time>
      </trkpt>
      <trkpt lat="45.30144" lon="5.89572">
        <ele>359.4460144043</ele>
        <time>2017-10-04T19:26:12Z</time>
      </trkpt>
      <trkpt lat="45.30146" lon="5.89579">
        <ele>357.4460144043</ele>
        <time>2017-10-04T19:26:16Z</time>
      </trkpt>
      <trkpt lat="45.30146" lon="5.89586">
        <ele>355.4460144043</ele>
        <time>2017-10-04T19:26:19Z</time>
      </trkpt>
      <trkpt lat="45.30147" lon="5.89592">
        <ele>355.4460144043</ele>
        <time>2017-10-04T19:26:21Z</time>
      </trkpt>
      <trkpt lat="45.30145" lon="5.89599">
        <ele>355.4460144043</ele>
        <time>2017-10-04T19:26:24Z</time>
      </trkpt>
      <trkpt lat="45.30146" lon="5.89608">
        <ele>350.4460144043</ele>
        <time>2017-10-04T19:26:31Z</time>
      </trkpt>
      <trkpt lat="45.30145" lon="5.89615">
        <ele>350.4460144043</ele>
        <time>2017-10-04T19:26:34Z</time>
      </trkpt>
      <trkpt lat="45.30144" lon="5.89624">
        <ele>351.4460144043</ele>
        <time>2017-10-04T19:26:37Z</time>
      </trkpt>
      <trkpt lat="45.30145" lon="5.8963">
        <ele>346.4460144043</ele>
        <time>2017-10-04T19:26:42Z</time>
      </trkpt>
      <trkpt lat="45.30141" lon="5.89626">
        <ele>341.4460144043</ele>
        <time>2017-10-04T19:26:47Z</time>
      </trkpt>
      <trkpt lat="45.30137" lon="5.89623">
        <ele>335.4460144043</ele>
        <time>2017-10-04T19:26:51Z</time>
      </trkpt>
      <trkpt lat="45.30132" lon="5.89622">
        <ele>336.4460144043</ele>
        <time>2017-10-04T19:26:54Z</time>
      </trkpt>
      <trkpt lat="45.30127" lon="5.89617">
        <ele>334.4460144043</ele>
        <time>2017-10-04T19:26:56Z</time>
      </trkpt>
      <trkpt lat="45.3012" lon="5.8961">
        <ele>333.4460144043</ele>
        <time>2017-10-04T19:26:59Z</time>
      </trkpt>
      <trkpt lat="45.30115" lon="5.89609">
        <ele>330.4460144043</ele>
        <time>2017-10-04T19:27:04Z</time>
      </trkpt>
      <trkpt lat="45.3011" lon="5.89605">
        <ele>326.4460144043</ele>
        <time>2017-10-04T19:27:08Z</time>
      </trkpt>
      <trkpt lat="45.30106" lon="5.89608">
        <ele>327.4460144043</ele>
        <time>2017-10-04T19:27:13Z</time>
      </trkpt>
      <trkpt lat="45.30101" lon="5.8961">
        <ele>328.4460144043</ele>
        <time>2017-10-04T19:27:16Z</time>
      </trkpt>
      <trkpt lat="45.30095" lon="5.89609">
        <ele>329.4460144043</ele>
        <time>2017-10-04T19:27:20Z</time>
      </trkpt>
      <trkpt lat="45.30092" lon="5.89617">
        <ele>324.4460144043</ele>
        <time>2017-10-04T19:27:29Z</time>
      </trkpt>
      <trkpt lat="45.30088" lon="5.89619">
        <ele>324.4460144043</ele>
        <time>2017-10-04T19:27:33Z</time>
      </trkpt>
      <trkpt lat="45.30082" lon="5.89624">
        <ele>317.4460144043</ele>
        <time>2017-10-04T19:27:38Z</time>
      </trkpt>
      <trkpt lat="45.30081" lon="5.89631">
        <ele>313.4460144043</ele>
        <time>2017-10-04T19:27:44Z</time>
      </trkpt>
      <trkpt lat="45.3008" lon="5.89638">
        <ele>312.4460144043</ele>
        <time>2017-10-04T19:27:47Z</time>
      </trkpt>
      <trkpt lat="45.30076" lon="5.89643">
        <ele>312.4460144043</ele>
        <time>2017-10-04T19:27:49Z</time>
      </trkpt>
      <trkpt lat="45.30074" lon="5.89649">
        <ele>308.4460144043</ele>
        <time>2017-10-04T19:27:54Z</time>
      </trkpt>
      <trkpt lat="45.30071" lon="5.89656">
        <ele>305.4460144043</ele>
        <time>2017-10-04T19:27:59Z</time>
      </trkpt>
      <trkpt lat="45.30069" lon="5.89664">
        <ele>303.4460144043</ele>
        <time>2017-10-04T19:28:04Z</time>
      </trkpt>
      <trkpt lat="45.30065" lon="5.89668">
        <ele>301.4460144043</ele>
        <time>2017-10-04T19:28:08Z</time>
      </trkpt>
      <trkpt lat="45.30065" lon="5.89676">
        <ele>300.4460144043</ele>
        <time>2017-10-04T19:28:13Z</time>
      </trkpt>
      <trkpt lat="45.30064" lon="5.89683">
        <ele>300.4460144043</ele>
        <time>2017-10-04T19:28:17Z</time>
      </trkpt>
      <trkpt lat="45.30065" lon="5.8969">
        <ele>300.4460144043</ele>
        <time>2017-10-04T19:28:20Z</time>
      </trkpt>
      <trkpt lat="45.30064" lon="5.89697">
        <ele>301.4460144043</ele>
        <time>2017-10-04T19:28:27Z</time>
      </trkpt>
      <trkpt lat="45.30064" lon="5.89704">
        <ele>298.4460144043</ele>
        <time>2017-10-04T19:28:34Z</time>
      </trkpt>
      <trkpt lat="45.30062" lon="5.89711">
        <ele>295.4460144043</ele>
        <time>2017-10-04T19:28:36Z</time>
      </trkpt>
      <trkpt lat="45.3006" lon="5.89721">
        <ele>293.4460144043</ele>
        <time>2017-10-04T19:28:39Z</time>
      </trkpt>
      <trkpt lat="45.30063" lon="5.89728">
        <ele>290.4460144043</ele>
        <time>2017-10-04T19:28:42Z</time>
      </trkpt>
      <trkpt lat="45.30063" lon="5.89736">
        <ele>286.4460144043</ele>
        <time>2017-10-04T19:28:45Z</time>
      </trkpt>
      <trkpt lat="45.30059" lon="5.89743">
        <ele>285.4460144043</ele>
        <time>2017-10-04T19:28:47Z</time>
      </trkpt>
      <trkpt lat="45.30056" lon="5.89749">
        <ele>286.4460144043</ele>
        <time>2017-10-04T19:28:49Z</time>
      </trkpt>
      <trkpt lat="45.30054" lon="5.89756">
        <ele>286.4460144043</ele>
        <time>2017-10-04T19:28:51Z</time>
      </trkpt>
      <trkpt lat="45.30052" lon="5.89762">
        <ele>284.4460144043</ele>
        <time>2017-10-04T19:28:55Z</time>
      </trkpt>
      <trkpt lat="45.30051" lon="5.89769">
        <ele>283.4460144043</ele>
        <time>2017-10-04T19:28:58Z</time>
      </trkpt>
      <trkpt lat="45.30047" lon="5.89775">
        <ele>283.4460144043</ele>
        <time>2017-10-04T19:29:01Z</time>
      </trkpt>
      <trkpt lat="45.30044" lon="5.89781">
        <ele>283.4460144043</ele>
        <time>2017-10-04T19:29:04Z</time>
      </trkpt>
      <trkpt lat="45.30039" lon="5.89784">
        <ele>281.4460144043</ele>
        <time>2017-10-04T19:29:07Z</time>
      </trkpt>
      <trkpt lat="45.30038" lon="5.89792">
        <ele>279.4460144043</ele>
        <time>2017-10-04T19:29:11Z</time>
      </trkpt>
      <trkpt lat="45.30034" lon="5.89795">
        <ele>279.4460144043</ele>
        <time>2017-10-04T19:29:14Z</time>
      </trkpt>
      <trkpt lat="45.30029" lon="5.89799">
        <ele>278.4460144043</ele>
        <time>2017-10-04T19:29:17Z</time>
      </trkpt>
      <trkpt lat="45.30024" lon="5.89802">
        <ele>278.4460144043</ele>
        <time>2017-10-04T19:29:20Z</time>
      </trkpt>
      <trkpt lat="45.30018" lon="5.89803">
        <ele>275.4460144043</ele>
        <time>2017-10-04T19:29:24Z</time>
      </trkpt>
      <trkpt lat="45.30014" lon="5.89805">
        <ele>275.4460144043</ele>
        <time>2017-10-04T19:29:28Z</time>
      </trkpt>
      <trkpt lat="45.30009" lon="5.89807">
        <ele>272.4460144043</ele>
        <time>2017-10-04T19:29:33Z</time>
      </trkpt>
      <trkpt lat="45.30003" lon="5.89811">
        <ele>271.4460144043</ele>
        <time>2017-10-04T19:29:36Z</time>
      </trkpt>
      <trkpt lat="45.29995" lon="5.89813">
        <ele>272.4460144043</ele>
        <time>2017-10-04T19:29:39Z</time>
      </trkpt>
      <trkpt lat="45.2999" lon="5.89813">
        <ele>269.4460144043</ele>
        <time>2017-10-04T19:29:41Z</time>
      </trkpt>
      <trkpt lat="45.29984" lon="5.89815">
        <ele>268.4460144043</ele>
        <time>2017-10-04T19:29:45Z</time>
      </trkpt>
      <trkpt lat="45.29975" lon="5.89816">
        <ele>269.4460144043</ele>
        <time>2017-10-04T19:29:48Z</time>
      </trkpt>
      <trkpt lat="45.29972" lon="5.89821">
        <ele>268.4460144043</ele>
        <time>2017-10-04T19:29:50Z</time>
      </trkpt>
      <trkpt lat="45.2997" lon="5.89829">
        <ele>265.4460144043</ele>
        <time>2017-10-04T19:29:53Z</time>
      </trkpt>
      <trkpt lat="45.29966" lon="5.89832">
        <ele>266.4460144043</ele>
        <time>2017-10-04T19:29:55Z</time>
      </trkpt>
      <trkpt lat="45.29961" lon="5.89838">
        <ele>264.4460144043</ele>
        <time>2017-10-04T19:29:58Z</time>
      </trkpt>
      <trkpt lat="45.29957" lon="5.8984">
        <ele>263.4460144043</ele>
        <time>2017-10-04T19:30:01Z</time>
      </trkpt>
      <trkpt lat="45.29952" lon="5.89843">
        <ele>262.4460144043</ele>
        <time>2017-10-04T19:30:03Z</time>
      </trkpt>
      <trkpt lat="45.29948" lon="5.89846">
        <ele>262.4460144043</ele>
        <time>2017-10-04T19:30:06Z</time>
      </trkpt>
      <trkpt lat="45.29944" lon="5.89853">
        <ele>263.4460144043</ele>
        <time>2017-10-04T19:30:11Z</time>
      </trkpt>
      <trkpt lat="45.29938" lon="5.89856">
        <ele>262.4460144043</ele>
        <time>2017-10-04T19:30:15Z</time>
      </trkpt>
      <trkpt lat="45.29933" lon="5.89859">
        <ele>259.4460144043</ele>
        <time>2017-10-04T19:30:20Z</time>
      </trkpt>
      <trkpt lat="45.29928" lon="5.89864">
        <ele>260.4460144043</ele>
        <time>2017-10-04T19:30:24Z</time>
      </trkpt>
      <trkpt lat="45.29923" lon="5.89867">
        <ele>260.4460144043</ele>
        <time>2017-10-04T19:30:27Z</time>
      </trkpt>
      <trkpt lat="45.29919" lon="5.89869">
        <ele>259.4460144043</ele>
        <time>2017-10-04T19:30:30Z</time>
      </trkpt>
      <trkpt lat="45.29915" lon="5.89874">
        <ele>260.4460144043</ele>
        <time>2017-10-04T19:30:33Z</time>
      </trkpt>
      <trkpt lat="45.29911" lon="5.89877">
        <ele>258.4460144043</ele>
        <time>2017-10-04T19:30:37Z</time>
      </trkpt>
      <trkpt lat="45.29905" lon="5.8988">
        <ele>259.4460144043</ele>
        <time>2017-10-04T19:30:41Z</time>
      </trkpt>
      <trkpt lat="45.29899" lon="5.89883">
        <ele>259.4460144043</ele>
        <time>2017-10-04T19:30:44Z</time>
      </trkpt>
      <trkpt lat="45.29895" lon="5.89885">
        <ele>258.4460144043</ele>
        <time>2017-10-04T19:30:47Z</time>
      </trkpt>
      <trkpt lat="45.29891" lon="5.8989">
        <ele>256.4460144043</ele>
        <time>2017-10-04T19:30:51Z</time>
      </trkpt>
      <trkpt lat="45.29886" lon="5.89894">
        <ele>255.44599914551</ele>
        <time>2017-10-04T19:30:56Z</time>
      </trkpt>
      <trkpt lat="45.29886" lon="5.899">
        <ele>254.44599914551</ele>
        <time>2017-10-04T19:33:10Z</time>
      </trkpt>
      <trkpt lat="45.29884" lon="5.89907">
        <ele>253.44599914551</ele>
        <time>2017-10-04T19:33:15Z</time>
      </trkpt>
      <trkpt lat="45.29883" lon="5.89915">
        <ele>252.44599914551</ele>
        <time>2017-10-04T19:33:17Z</time>
      </trkpt>
      <trkpt lat="45.29881" lon="5.89923">
        <ele>252.44599914551</ele>
        <time>2017-10-04T19:33:19Z</time>
      </trkpt>
      <trkpt lat="45.2988" lon="5.89932">
        <ele>253.44599914551</ele>
        <time>2017-10-04T19:33:21Z</time>
      </trkpt>
      <trkpt lat="45.2988" lon="5.8994">
        <ele>253.44599914551</ele>
        <time>2017-10-04T19:33:23Z</time>
      </trkpt>
      <trkpt lat="45.29877" lon="5.89947">
        <ele>252.44599914551</ele>
        <time>2017-10-04T19:33:25Z</time>
      </trkpt>
      <trkpt lat="45.29873" lon="5.89953">
        <ele>250.44599914551</ele>
        <time>2017-10-04T19:33:28Z</time>
      </trkpt>
      <trkpt lat="45.29871" lon="5.89959">
        <ele>251.44599914551</ele>
        <time>2017-10-04T19:33:30Z</time>
      </trkpt>
      <trkpt lat="45.29867" lon="5.89967">
        <ele>251.44599914551</ele>
        <time>2017-10-04T19:33:32Z</time>
      </trkpt>
      <trkpt lat="45.29863" lon="5.89981">
        <ele>252.44599914551</ele>
        <time>2017-10-04T19:33:34Z</time>
      </trkpt>
      <trkpt lat="45.2986" lon="5.89996">
        <ele>249.44599914551</ele>
        <time>2017-10-04T19:33:36Z</time>
      </trkpt>
      <trkpt lat="45.29855" lon="5.90014">
        <ele>249.44599914551</ele>
        <time>2017-10-04T19:33:39Z</time>
      </trkpt>
      <trkpt lat="45.29852" lon="5.90027">
        <ele>247.44599914551</ele>
        <time>2017-10-04T19:33:41Z</time>
      </trkpt>
      <trkpt lat="45.29846" lon="5.90039">
        <ele>246.44599914551</ele>
        <time>2017-10-04T19:33:43Z</time>
      </trkpt>
      <trkpt lat="45.29835" lon="5.90042">
        <ele>244.44599914551</ele>
        <time>2017-10-04T19:33:46Z</time>
      </trkpt>
      <trkpt lat="45.29832" lon="5.90032">
        <ele>243.44599914551</ele>
        <time>2017-10-04T19:33:48Z</time>
      </trkpt>
      <trkpt lat="45.29827" lon="5.90024">
        <ele>243.44599914551</ele>
        <time>2017-10-04T19:33:50Z</time>
      </trkpt>
      <trkpt lat="45.29822" lon="5.90011">
        <ele>254.44599914551</ele>
        <time>2017-10-04T19:33:52Z</time>
      </trkpt>
      <trkpt lat="45.29811" lon="5.90001">
        <ele>252.44599914551</ele>
        <time>2017-10-04T19:33:54Z</time>
      </trkpt>
      <trkpt lat="45.29808" lon="5.8999">
        <ele>247.44599914551</ele>
        <time>2017-10-04T19:33:57Z</time>
      </trkpt>
      <trkpt lat="45.29804" lon="5.89984">
        <ele>246.44599914551</ele>
        <time>2017-10-04T19:33:59Z</time>
      </trkpt>
      <trkpt lat="45.298" lon="5.8998">
        <ele>246.44599914551</ele>
        <time>2017-10-04T19:34:02Z</time>
      </trkpt>
      <trkpt lat="45.29795" lon="5.89978">
        <ele>245.44599914551</ele>
        <time>2017-10-04T19:34:04Z</time>
      </trkpt>
      <trkpt lat="45.2979" lon="5.89979">
        <ele>246.44599914551</ele>
        <time>2017-10-04T19:34:06Z</time>
      </trkpt>
      <trkpt lat="45.29786" lon="5.89983">
        <ele>247.44599914551</ele>
        <time>2017-10-04T19:34:08Z</time>
      </trkpt>
      <trkpt lat="45.29786" lon="5.8999">
        <ele>245.44599914551</ele>
        <time>2017-10-04T19:34:10Z</time>
      </trkpt>
      <trkpt lat="45.2978" lon="5.89997">
        <ele>245.44599914551</ele>
        <time>2017-10-04T19:34:12Z</time>
      </trkpt>
      <trkpt lat="45.29774" lon="5.90001">
        <ele>245.44599914551</ele>
        <time>2017-10-04T19:34:14Z</time>
      </trkpt>
      <trkpt lat="45.29767" lon="5.90006">
        <ele>245.44599914551</ele>
        <time>2017-10-04T19:34:16Z</time>
      </trkpt>
      <trkpt lat="45.29763" lon="5.90008">
        <ele>246.44599914551</ele>
        <time>2017-10-04T19:34:17Z</time>
      </trkpt>
      <trkpt lat="45.2975" lon="5.90012">
        <ele>245.44599914551</ele>
        <time>2017-10-04T19:34:20Z</time>
      </trkpt>
      <trkpt lat="45.29743" lon="5.90013">
        <ele>246.44599914551</ele>
        <time>2017-10-04T19:34:22Z</time>
      </trkpt>
      <trkpt lat="45.29736" lon="5.90014">
        <ele>245.44599914551</ele>
        <time>2017-10-04T19:34:24Z</time>
      </trkpt>
      <trkpt lat="45.29726" lon="5.90008">
        <ele>245.44599914551</ele>
        <time>2017-10-04T19:34:26Z</time>
      </trkpt>
      <trkpt lat="45.29723" lon="5.90003">
        <ele>244.44599914551</ele>
        <time>2017-10-04T19:34:27Z</time>
      </trkpt>
      <trkpt lat="45.29711" lon="5.89998">
        <ele>245.44599914551</ele>
        <time>2017-10-04T19:34:30Z</time>
      </trkpt>
      <trkpt lat="45.29707" lon="5.89993">
        <ele>246.44599914551</ele>
        <time>2017-10-04T19:34:34Z</time>
      </trkpt>
      <trkpt lat="45.29704" lon="5.89987">
        <ele>247.44599914551</ele>
        <time>2017-10-04T19:34:40Z</time>
      </trkpt>
      <trkpt lat="45.297" lon="5.89983">
        <ele>248.44599914551</ele>
        <time>2017-10-04T19:34:42Z</time>
      </trkpt>
      <trkpt lat="45.29695" lon="5.89986">
        <ele>250.44599914551</ele>
        <time>2017-10-04T19:34:44Z</time>
      </trkpt>
      <trkpt lat="45.2969" lon="5.89987">
        <ele>248.44599914551</ele>
        <time>2017-10-04T19:34:46Z</time>
      </trkpt>
      <trkpt lat="45.29684" lon="5.8999">
        <ele>243.44599914551</ele>
        <time>2017-10-04T19:34:49Z</time>
      </trkpt>
      <trkpt lat="45.29672" lon="5.89997">
        <ele>242.44599914551</ele>
        <time>2017-10-04T19:34:53Z</time>
      </trkpt>
      <trkpt lat="45.29667" lon="5.89999">
        <ele>239.44599914551</ele>
        <time>2017-10-04T19:34:55Z</time>
      </trkpt>
      <trkpt lat="45.2966" lon="5.90003">
        <ele>239.44599914551</ele>
        <time>2017-10-04T19:34:57Z</time>
      </trkpt>
      <trkpt lat="45.29652" lon="5.90007">
        <ele>238.44599914551</ele>
        <time>2017-10-04T19:34:59Z</time>
      </trkpt>
      <trkpt lat="45.29643" lon="5.90018">
        <ele>233.44599914551</ele>
        <time>2017-10-04T19:35:02Z</time>
      </trkpt>
      <trkpt lat="45.29635" lon="5.90024">
        <ele>235.44599914551</ele>
        <time>2017-10-04T19:35:04Z</time>
      </trkpt>
      <trkpt lat="45.29627" lon="5.90031">
        <ele>238.44599914551</ele>
        <time>2017-10-04T19:35:06Z</time>
      </trkpt>
      <trkpt lat="45.2962" lon="5.90036">
        <ele>238.44599914551</ele>
        <time>2017-10-04T19:35:08Z</time>
      </trkpt>
      <trkpt lat="45.29616" lon="5.90031">
        <ele>237.44599914551</ele>
        <time>2017-10-04T19:35:10Z</time>
      </trkpt>
      <trkpt lat="45.29611" lon="5.90027">
        <ele>237.44599914551</ele>
        <time>2017-10-04T19:35:12Z</time>
      </trkpt>
      <trkpt lat="45.296" lon="5.90019">
        <ele>235.44599914551</ele>
        <time>2017-10-04T19:35:14Z</time>
      </trkpt>
      <trkpt lat="45.29594" lon="5.90012">
        <ele>235.44599914551</ele>
        <time>2017-10-04T19:35:16Z</time>
      </trkpt>
      <trkpt lat="45.29585" lon="5.9">
        <ele>235.44599914551</ele>
        <time>2017-10-04T19:35:19Z</time>
      </trkpt>
      <trkpt lat="45.2959" lon="5.89995">
        <ele>235.44599914551</ele>
        <time>2017-10-04T19:35:20Z</time>
      </trkpt>
      <trkpt lat="45.29589" lon="5.89985">
        <ele>235.44599914551</ele>
        <time>2017-10-04T19:35:22Z</time>
      </trkpt>
      <trkpt lat="45.29583" lon="5.89976">
        <ele>235.44599914551</ele>
        <time>2017-10-04T19:35:24Z</time>
      </trkpt>
      <trkpt lat="45.2958" lon="5.89963">
        <ele>235.44599914551</ele>
        <time>2017-10-04T19:35:26Z</time>
      </trkpt>
      <trkpt lat="45.29578" lon="5.8995">
        <ele>234.44599914551</ele>
        <time>2017-10-04T19:35:29Z</time>
      </trkpt>
      <trkpt lat="45.29574" lon="5.89943">
        <ele>235.44599914551</ele>
        <time>2017-10-04T19:35:31Z</time>
      </trkpt>
      <trkpt lat="45.29567" lon="5.89944">
        <ele>233.44599914551</ele>
        <time>2017-10-04T19:35:34Z</time>
      </trkpt>
      <trkpt lat="45.2956" lon="5.89951">
        <ele>234.44599914551</ele>
        <time>2017-10-04T19:35:36Z</time>
      </trkpt>
      <trkpt lat="45.29548" lon="5.89955">
        <ele>234.44599914551</ele>
        <time>2017-10-04T19:35:39Z</time>
      </trkpt>
      <trkpt lat="45.2954" lon="5.89951">
        <ele>232.44500732422</ele>
        <time>2017-10-04T19:35:41Z</time>
      </trkpt>
      <trkpt lat="45.29532" lon="5.89945">
        <ele>230.44500732422</ele>
        <time>2017-10-04T19:35:43Z</time>
      </trkpt>
      <trkpt lat="45.29526" lon="5.89937">
        <ele>230.44500732422</ele>
        <time>2017-10-04T19:35:45Z</time>
      </trkpt>
      <trkpt lat="45.29518" lon="5.89925">
        <ele>229.44500732422</ele>
        <time>2017-10-04T19:35:48Z</time>
      </trkpt>
      <trkpt lat="45.29512" lon="5.8992">
        <ele>228.44500732422</ele>
        <time>2017-10-04T19:35:50Z</time>
      </trkpt>
      <trkpt lat="45.29505" lon="5.89911">
        <ele>229.44500732422</ele>
        <time>2017-10-04T19:35:52Z</time>
      </trkpt>
      <trkpt lat="45.29496" lon="5.89904">
        <ele>229.44500732422</ele>
        <time>2017-10-04T19:35:54Z</time>
      </trkpt>
      <trkpt lat="45.29489" lon="5.89897">
        <ele>229.44500732422</ele>
        <time>2017-10-04T19:35:56Z</time>
      </trkpt>
      <trkpt lat="45.29482" lon="5.89893">
        <ele>228.44500732422</ele>
        <time>2017-10-04T19:35:58Z</time>
      </trkpt>
      <trkpt lat="45.29472" lon="5.89885">
        <ele>230.44500732422</ele>
        <time>2017-10-04T19:36:00Z</time>
      </trkpt>
      <trkpt lat="45.29465" lon="5.89877">
        <ele>230.44500732422</ele>
        <time>2017-10-04T19:36:02Z</time>
      </trkpt>
      <trkpt lat="45.29458" lon="5.89868">
        <ele>229.44500732422</ele>
        <time>2017-10-04T19:36:04Z</time>
      </trkpt>
      <trkpt lat="45.29451" lon="5.89859">
        <ele>228.44500732422</ele>
        <time>2017-10-04T19:36:06Z</time>
      </trkpt>
      <trkpt lat="45.29444" lon="5.89853">
        <ele>227.44500732422</ele>
        <time>2017-10-04T19:36:08Z</time>
      </trkpt>
      <trkpt lat="45.29435" lon="5.89842">
        <ele>229.44500732422</ele>
        <time>2017-10-04T19:36:10Z</time>
      </trkpt>
      <trkpt lat="45.29427" lon="5.89833">
        <ele>230.44500732422</ele>
        <time>2017-10-04T19:36:12Z</time>
      </trkpt>
      <trkpt lat="45.29415" lon="5.89823">
        <ele>228.44500732422</ele>
        <time>2017-10-04T19:36:15Z</time>
      </trkpt>
      <trkpt lat="45.29407" lon="5.89817">
        <ele>228.44500732422</ele>
        <time>2017-10-04T19:36:17Z</time>
      </trkpt>
      <trkpt lat="45.29402" lon="5.89812">
        <ele>228.44500732422</ele>
        <time>2017-10-04T19:36:18Z</time>
      </trkpt>
      <trkpt lat="45.29392" lon="5.89802">
        <ele>229.44500732422</ele>
        <time>2017-10-04T19:36:20Z</time>
      </trkpt>
      <trkpt lat="45.29388" lon="5.89794">
        <ele>228.44500732422</ele>
        <time>2017-10-04T19:36:22Z</time>
      </trkpt>
      <trkpt lat="45.2938" lon="5.89785">
        <ele>229.44500732422</ele>
        <time>2017-10-04T19:36:24Z</time>
      </trkpt>
      <trkpt lat="45.29369" lon="5.89775">
        <ele>228.44500732422</ele>
        <time>2017-10-04T19:36:27Z</time>
      </trkpt>
      <trkpt lat="45.29361" lon="5.8977">
        <ele>227.44500732422</ele>
        <time>2017-10-04T19:36:29Z</time>
      </trkpt>
      <trkpt lat="45.29352" lon="5.89764">
        <ele>227.44500732422</ele>
        <time>2017-10-04T19:36:31Z</time>
      </trkpt>
      <trkpt lat="45.29342" lon="5.89761">
        <ele>226.44500732422</ele>
        <time>2017-10-04T19:36:33Z</time>
      </trkpt>
      <trkpt lat="45.29331" lon="5.89758">
        <ele>226.44500732422</ele>
        <time>2017-10-04T19:36:35Z</time>
      </trkpt>
      <trkpt lat="45.29321" lon="5.89755">
        <ele>226.44500732422</ele>
        <time>2017-10-04T19:36:37Z</time>
      </trkpt>
      <trkpt lat="45.2931" lon="5.89754">
        <ele>227.44500732422</ele>
        <time>2017-10-04T19:36:39Z</time>
      </trkpt>
      <trkpt lat="45.29299" lon="5.89753">
        <ele>227.44500732422</ele>
        <time>2017-10-04T19:36:41Z</time>
      </trkpt>
      <trkpt lat="45.29289" lon="5.8975">
        <ele>227.44500732422</ele>
        <time>2017-10-04T19:36:43Z</time>
      </trkpt>
      <trkpt lat="45.29279" lon="5.89748">
        <ele>227.44500732422</ele>
        <time>2017-10-04T19:36:45Z</time>
      </trkpt>
      <trkpt lat="45.29265" lon="5.89743">
        <ele>227.44500732422</ele>
        <time>2017-10-04T19:36:48Z</time>
      </trkpt>
      <trkpt lat="45.29252" lon="5.89741">
        <ele>228.44500732422</ele>
        <time>2017-10-04T19:36:51Z</time>
      </trkpt>
      <trkpt lat="45.29242" lon="5.89738">
        <ele>228.44500732422</ele>
        <time>2017-10-04T19:36:53Z</time>
      </trkpt>
      <trkpt lat="45.29233" lon="5.89737">
        <ele>227.44500732422</ele>
        <time>2017-10-04T19:36:55Z</time>
      </trkpt>
      <trkpt lat="45.29222" lon="5.89735">
        <ele>227.44500732422</ele>
        <time>2017-10-04T19:36:57Z</time>
      </trkpt>
      <trkpt lat="45.29213" lon="5.89734">
        <ele>226.44500732422</ele>
        <time>2017-10-04T19:36:59Z</time>
      </trkpt>
      <trkpt lat="45.29203" lon="5.89732">
        <ele>228.44500732422</ele>
        <time>2017-10-04T19:37:01Z</time>
      </trkpt>
      <trkpt lat="45.29193" lon="5.89729">
        <ele>227.44400024414</ele>
        <time>2017-10-04T19:37:03Z</time>
      </trkpt>
      <trkpt lat="45.29183" lon="5.89724">
        <ele>226.44400024414</ele>
        <time>2017-10-04T19:37:05Z</time>
      </trkpt>
      <trkpt lat="45.29172" lon="5.89721">
        <ele>226.44400024414</ele>
        <time>2017-10-04T19:37:07Z</time>
      </trkpt>
      <trkpt lat="45.29161" lon="5.89718">
        <ele>225.44400024414</ele>
        <time>2017-10-04T19:37:09Z</time>
      </trkpt>
      <trkpt lat="45.29151" lon="5.89714">
        <ele>225.44400024414</ele>
        <time>2017-10-04T19:37:11Z</time>
      </trkpt>
      <trkpt lat="45.29139" lon="5.89712">
        <ele>225.44400024414</ele>
        <time>2017-10-04T19:37:13Z</time>
      </trkpt>
      <trkpt lat="45.29127" lon="5.8971">
        <ele>226.44400024414</ele>
        <time>2017-10-04T19:37:15Z</time>
      </trkpt>
      <trkpt lat="45.29114" lon="5.89707">
        <ele>225.44400024414</ele>
        <time>2017-10-04T19:37:17Z</time>
      </trkpt>
      <trkpt lat="45.29101" lon="5.89703">
        <ele>226.44400024414</ele>
        <time>2017-10-04T19:37:19Z</time>
      </trkpt>
      <trkpt lat="45.29089" lon="5.89706">
        <ele>227.44400024414</ele>
        <time>2017-10-04T19:37:21Z</time>
      </trkpt>
      <trkpt lat="45.29077" lon="5.89706">
        <ele>227.44400024414</ele>
        <time>2017-10-04T19:37:23Z</time>
      </trkpt>
      <trkpt lat="45.29073" lon="5.89706">
        <ele>226.44400024414</ele>
        <time>2017-10-04T19:37:24Z</time>
      </trkpt>
      <trkpt lat="45.29057" lon="5.89703">
        <ele>226.44400024414</ele>
        <time>2017-10-04T19:37:27Z</time>
      </trkpt>
      <trkpt lat="45.29046" lon="5.89703">
        <ele>226.44400024414</ele>
        <time>2017-10-04T19:37:29Z</time>
      </trkpt>
      <trkpt lat="45.29036" lon="5.89702">
        <ele>227.44400024414</ele>
        <time>2017-10-04T19:37:31Z</time>
      </trkpt>
      <trkpt lat="45.29026" lon="5.89703">
        <ele>226.44400024414</ele>
        <time>2017-10-04T19:37:33Z</time>
      </trkpt>
      <trkpt lat="45.29016" lon="5.89703">
        <ele>226.44400024414</ele>
        <time>2017-10-04T19:37:35Z</time>
      </trkpt>
      <trkpt lat="45.29006" lon="5.89703">
        <ele>225.44400024414</ele>
        <time>2017-10-04T19:37:37Z</time>
      </trkpt>
      <trkpt lat="45.28994" lon="5.89698">
        <ele>225.44400024414</ele>
        <time>2017-10-04T19:37:40Z</time>
      </trkpt>
      <trkpt lat="45.2899" lon="5.89689">
        <ele>225.44400024414</ele>
        <time>2017-10-04T19:37:42Z</time>
      </trkpt>
      <trkpt lat="45.28993" lon="5.8968">
        <ele>226.44400024414</ele>
        <time>2017-10-04T19:37:44Z</time>
      </trkpt>
      <trkpt lat="45.28997" lon="5.89672">
        <ele>226.44400024414</ele>
        <time>2017-10-04T19:37:46Z</time>
      </trkpt>
      <trkpt lat="45.29" lon="5.89664">
        <ele>226.44400024414</ele>
        <time>2017-10-04T19:37:48Z</time>
      </trkpt>
      <trkpt lat="45.29005" lon="5.89655">
        <ele>225.44400024414</ele>
        <time>2017-10-04T19:37:50Z</time>
      </trkpt>
      <trkpt lat="45.29009" lon="5.89646">
        <ele>223.44400024414</ele>
        <time>2017-10-04T19:37:52Z</time>
      </trkpt>
      <trkpt lat="45.29012" lon="5.89637">
        <ele>223.44400024414</ele>
        <time>2017-10-04T19:37:54Z</time>
      </trkpt>
      <trkpt lat="45.2902" lon="5.89621">
        <ele>222.44400024414</ele>
        <time>2017-10-04T19:37:57Z</time>
      </trkpt>
      <trkpt lat="45.29023" lon="5.89611">
        <ele>222.44400024414</ele>
        <time>2017-10-04T19:37:59Z</time>
      </trkpt>
      <trkpt lat="45.29032" lon="5.89595">
        <ele>223.44400024414</ele>
        <time>2017-10-04T19:38:02Z</time>
      </trkpt>
      <trkpt lat="45.29039" lon="5.89579">
        <ele>222.44400024414</ele>
        <time>2017-10-04T19:38:05Z</time>
      </trkpt>
      <trkpt lat="45.29039" lon="5.89569">
        <ele>227.44400024414</ele>
        <time>2017-10-04T19:38:07Z</time>
      </trkpt>
      <trkpt lat="45.29045" lon="5.89557">
        <ele>225.44400024414</ele>
        <time>2017-10-04T19:38:09Z</time>
      </trkpt>
      <trkpt lat="45.2905" lon="5.89545">
        <ele>225.44400024414</ele>
        <time>2017-10-04T19:38:11Z</time>
      </trkpt>
      <trkpt lat="45.29056" lon="5.89529">
        <ele>224.44400024414</ele>
        <time>2017-10-04T19:38:14Z</time>
      </trkpt>
      <trkpt lat="45.29059" lon="5.89518">
        <ele>224.44400024414</ele>
        <time>2017-10-04T19:38:16Z</time>
      </trkpt>
      <trkpt lat="45.29059" lon="5.89505">
        <ele>225.44400024414</ele>
        <time>2017-10-04T19:38:18Z</time>
      </trkpt>
      <trkpt lat="45.29059" lon="5.89492">
        <ele>226.44400024414</ele>
        <time>2017-10-04T19:38:20Z</time>
      </trkpt>
      <trkpt lat="45.29058" lon="5.89479">
        <ele>225.44400024414</ele>
        <time>2017-10-04T19:38:22Z</time>
      </trkpt>
      <trkpt lat="45.2906" lon="5.89466">
        <ele>224.44400024414</ele>
        <time>2017-10-04T19:38:24Z</time>
      </trkpt>
      <trkpt lat="45.2906" lon="5.89448">
        <ele>224.44400024414</ele>
        <time>2017-10-04T19:38:27Z</time>
      </trkpt>
      <trkpt lat="45.29053" lon="5.89436">
        <ele>223.44400024414</ele>
        <time>2017-10-04T19:38:29Z</time>
      </trkpt>
      <trkpt lat="45.29045" lon="5.89434">
        <ele>223.44400024414</ele>
        <time>2017-10-04T19:38:31Z</time>
      </trkpt>
      <trkpt lat="45.2904" lon="5.89432">
        <ele>224.44400024414</ele>
        <time>2017-10-04T19:38:32Z</time>
      </trkpt>
      <trkpt lat="45.29031" lon="5.89427">
        <ele>224.44400024414</ele>
        <time>2017-10-04T19:38:34Z</time>
      </trkpt>
      <trkpt lat="45.29021" lon="5.89423">
        <ele>225.44400024414</ele>
        <time>2017-10-04T19:38:36Z</time>
      </trkpt>
      <trkpt lat="45.29009" lon="5.89415">
        <ele>226.44400024414</ele>
        <time>2017-10-04T19:38:39Z</time>
      </trkpt>
      <trkpt lat="45.29003" lon="5.89412">
        <ele>227.44400024414</ele>
        <time>2017-10-04T19:38:40Z</time>
      </trkpt>
      <trkpt lat="45.28995" lon="5.89406">
        <ele>226.44400024414</ele>
        <time>2017-10-04T19:38:42Z</time>
      </trkpt>
      <trkpt lat="45.28984" lon="5.89401">
        <ele>227.44400024414</ele>
        <time>2017-10-04T19:38:44Z</time>
      </trkpt>
      <trkpt lat="45.28975" lon="5.89397">
        <ele>228.44400024414</ele>
        <time>2017-10-04T19:38:46Z</time>
      </trkpt>
      <trkpt lat="45.28968" lon="5.89393">
        <ele>229.44400024414</ele>
        <time>2017-10-04T19:38:48Z</time>
      </trkpt>
      <trkpt lat="45.28958" lon="5.89387">
        <ele>229.44400024414</ele>
        <time>2017-10-04T19:38:50Z</time>
      </trkpt>
      <trkpt lat="45.2895" lon="5.89384">
        <ele>230.44400024414</ele>
        <time>2017-10-04T19:38:52Z</time>
      </trkpt>
      <trkpt lat="45.28941" lon="5.89379">
        <ele>230.44299316406</ele>
        <time>2017-10-04T19:38:54Z</time>
      </trkpt>
      <trkpt lat="45.28932" lon="5.89376">
        <ele>232.44299316406</ele>
        <time>2017-10-04T19:38:56Z</time>
      </trkpt>
      <trkpt lat="45.28922" lon="5.89373">
        <ele>232.44299316406</ele>
        <time>2017-10-04T19:38:58Z</time>
      </trkpt>
      <trkpt lat="45.28912" lon="5.8937">
        <ele>233.44299316406</ele>
        <time>2017-10-04T19:39:00Z</time>
      </trkpt>
      <trkpt lat="45.28899" lon="5.89371">
        <ele>234.44299316406</ele>
        <time>2017-10-04T19:39:03Z</time>
      </trkpt>
      <trkpt lat="45.28892" lon="5.89367">
        <ele>233.44299316406</ele>
        <time>2017-10-04T19:39:05Z</time>
      </trkpt>
      <trkpt lat="45.28889" lon="5.89361">
        <ele>234.44299316406</ele>
        <time>2017-10-04T19:39:07Z</time>
      </trkpt>
      <trkpt lat="45.28889" lon="5.89354">
        <ele>234.44299316406</ele>
        <time>2017-10-04T19:39:11Z</time>
      </trkpt>
      <trkpt lat="45.28889" lon="5.89345">
        <ele>234.44299316406</ele>
        <time>2017-10-04T19:39:14Z</time>
      </trkpt>
      <trkpt lat="45.28891" lon="5.89339">
        <ele>233.44299316406</ele>
        <time>2017-10-04T19:39:16Z</time>
      </trkpt>
      <trkpt lat="45.28896" lon="5.89335">
        <ele>233.44299316406</ele>
        <time>2017-10-04T19:39:18Z</time>
      </trkpt>
      <trkpt lat="45.28899" lon="5.89329">
        <ele>232.44299316406</ele>
        <time>2017-10-04T19:39:20Z</time>
      </trkpt>
      <trkpt lat="45.28906" lon="5.89323">
        <ele>233.44299316406</ele>
        <time>2017-10-04T19:39:23Z</time>
      </trkpt>
      <trkpt lat="45.28909" lon="5.89317">
        <ele>232.44299316406</ele>
        <time>2017-10-04T19:39:26Z</time>
      </trkpt>
      <trkpt lat="45.28913" lon="5.89311">
        <ele>233.44299316406</ele>
        <time>2017-10-04T19:39:29Z</time>
      </trkpt>
      <trkpt lat="45.28919" lon="5.89306">
        <ele>233.44299316406</ele>
        <time>2017-10-04T19:39:31Z</time>
      </trkpt>
      <trkpt lat="45.28923" lon="5.89303">
        <ele>235.44299316406</ele>
        <time>2017-10-04T19:39:33Z</time>
      </trkpt>
      <trkpt lat="45.2893" lon="5.89298">
        <ele>235.44299316406</ele>
        <time>2017-10-04T19:39:35Z</time>
      </trkpt>
      <trkpt lat="45.28933" lon="5.8929">
        <ele>235.44299316406</ele>
        <time>2017-10-04T19:39:37Z</time>
      </trkpt>
      <trkpt lat="45.28936" lon="5.89281">
        <ele>235.44299316406</ele>
        <time>2017-10-04T19:39:39Z</time>
      </trkpt>
      <trkpt lat="45.28934" lon="5.89274">
        <ele>234.44299316406</ele>
        <time>2017-10-04T19:39:41Z</time>
      </trkpt>
      <trkpt lat="45.28932" lon="5.89266">
        <ele>232.44299316406</ele>
        <time>2017-10-04T19:39:43Z</time>
      </trkpt>
      <trkpt lat="45.28931" lon="5.89259">
        <ele>231.44299316406</ele>
        <time>2017-10-04T19:39:45Z</time>
      </trkpt>
      <trkpt lat="45.28928" lon="5.8925">
        <ele>230.44299316406</ele>
        <time>2017-10-04T19:39:47Z</time>
      </trkpt>
      <trkpt lat="45.28926" lon="5.8924">
        <ele>228.44299316406</ele>
        <time>2017-10-04T19:39:49Z</time>
      </trkpt>
      <trkpt lat="45.28923" lon="5.8923">
        <ele>227.44299316406</ele>
        <time>2017-10-04T19:39:51Z</time>
      </trkpt>
      <trkpt lat="45.2892" lon="5.89222">
        <ele>227.44299316406</ele>
        <time>2017-10-04T19:39:53Z</time>
      </trkpt>
      <trkpt lat="45.28916" lon="5.89212">
        <ele>226.44299316406</ele>
        <time>2017-10-04T19:39:55Z</time>
      </trkpt>
      <trkpt lat="45.2891" lon="5.89201">
        <ele>227.44299316406</ele>
        <time>2017-10-04T19:39:57Z</time>
      </trkpt>
      <trkpt lat="45.28904" lon="5.89194">
        <ele>226.44299316406</ele>
        <time>2017-10-04T19:39:59Z</time>
      </trkpt>
      <trkpt lat="45.289" lon="5.8919">
        <ele>227.44299316406</ele>
        <time>2017-10-04T19:40:00Z</time>
      </trkpt>
      <trkpt lat="45.28893" lon="5.89186">
        <ele>227.44299316406</ele>
        <time>2017-10-04T19:40:02Z</time>
      </trkpt>
      <trkpt lat="45.28885" lon="5.89184">
        <ele>228.44299316406</ele>
        <time>2017-10-04T19:40:04Z</time>
      </trkpt>
      <trkpt lat="45.28873" lon="5.89181">
        <ele>230.44299316406</ele>
        <time>2017-10-04T19:40:07Z</time>
      </trkpt>
      <trkpt lat="45.28864" lon="5.89178">
        <ele>230.44299316406</ele>
        <time>2017-10-04T19:40:09Z</time>
      </trkpt>
      <trkpt lat="45.28857" lon="5.89171">
        <ele>231.44299316406</ele>
        <time>2017-10-04T19:40:11Z</time>
      </trkpt>
      <trkpt lat="45.28849" lon="5.89162">
        <ele>231.44299316406</ele>
        <time>2017-10-04T19:40:13Z</time>
      </trkpt>
      <trkpt lat="45.28842" lon="5.89153">
        <ele>232.44299316406</ele>
        <time>2017-10-04T19:40:15Z</time>
      </trkpt>
      <trkpt lat="45.28835" lon="5.89146">
        <ele>231.44299316406</ele>
        <time>2017-10-04T19:40:17Z</time>
      </trkpt>
      <trkpt lat="45.28825" lon="5.89135">
        <ele>232.44299316406</ele>
        <time>2017-10-04T19:40:20Z</time>
      </trkpt>
      <trkpt lat="45.28821" lon="5.89127">
        <ele>232.44299316406</ele>
        <time>2017-10-04T19:40:22Z</time>
      </trkpt>
      <trkpt lat="45.28819" lon="5.8912">
        <ele>233.44299316406</ele>
        <time>2017-10-04T19:40:24Z</time>
      </trkpt>
      <trkpt lat="45.28821" lon="5.89109">
        <ele>235.44299316406</ele>
        <time>2017-10-04T19:40:26Z</time>
      </trkpt>
      <trkpt lat="45.28823" lon="5.89101">
        <ele>235.44299316406</ele>
        <time>2017-10-04T19:40:28Z</time>
      </trkpt>
      <trkpt lat="45.28819" lon="5.89092">
        <ele>235.44299316406</ele>
        <time>2017-10-04T19:40:30Z</time>
      </trkpt>
      <trkpt lat="45.28816" lon="5.89084">
        <ele>234.44299316406</ele>
        <time>2017-10-04T19:40:32Z</time>
      </trkpt>
      <trkpt lat="45.2881" lon="5.89077">
        <ele>233.44299316406</ele>
        <time>2017-10-04T19:40:34Z</time>
      </trkpt>
      <trkpt lat="45.28805" lon="5.89067">
        <ele>233.44299316406</ele>
        <time>2017-10-04T19:40:36Z</time>
      </trkpt>
      <trkpt lat="45.28798" lon="5.89056">
        <ele>234.44299316406</ele>
        <time>2017-10-04T19:40:38Z</time>
      </trkpt>
      <trkpt lat="45.28793" lon="5.89048">
        <ele>232.44299316406</ele>
        <time>2017-10-04T19:40:40Z</time>
      </trkpt>
      <trkpt lat="45.28787" lon="5.89042">
        <ele>231.44299316406</ele>
        <time>2017-10-04T19:40:42Z</time>
      </trkpt>
      <trkpt lat="45.28782" lon="5.8903">
        <ele>231.44299316406</ele>
        <time>2017-10-04T19:40:44Z</time>
      </trkpt>
      <trkpt lat="45.28777" lon="5.89018">
        <ele>231.44299316406</ele>
        <time>2017-10-04T19:40:46Z</time>
      </trkpt>
      <trkpt lat="45.2877" lon="5.89007">
        <ele>232.44299316406</ele>
        <time>2017-10-04T19:40:48Z</time>
      </trkpt>
      <trkpt lat="45.28765" lon="5.88994">
        <ele>231.44299316406</ele>
        <time>2017-10-04T19:40:50Z</time>
      </trkpt>
      <trkpt lat="45.28759" lon="5.88984">
        <ele>234.44299316406</ele>
        <time>2017-10-04T19:40:52Z</time>
      </trkpt>
      <trkpt lat="45.28751" lon="5.88977">
        <ele>236.44299316406</ele>
        <time>2017-10-04T19:40:54Z</time>
      </trkpt>
      <trkpt lat="45.28745" lon="5.88966">
        <ele>237.44299316406</ele>
        <time>2017-10-04T19:40:56Z</time>
      </trkpt>
      <trkpt lat="45.28739" lon="5.88953">
        <ele>240.44200134277</ele>
        <time>2017-10-04T19:40:58Z</time>
      </trkpt>
      <trkpt lat="45.28734" lon="5.88948">
        <ele>240.44200134277</ele>
        <time>2017-10-04T19:41:00Z</time>
      </trkpt>
      <trkpt lat="45.28726" lon="5.88938">
        <ele>240.44200134277</ele>
        <time>2017-10-04T19:41:02Z</time>
      </trkpt>
      <trkpt lat="45.28718" lon="5.88925">
        <ele>237.44200134277</ele>
        <time>2017-10-04T19:41:05Z</time>
      </trkpt>
      <trkpt lat="45.28713" lon="5.88914">
        <ele>238.44200134277</ele>
        <time>2017-10-04T19:41:07Z</time>
      </trkpt>
      <trkpt lat="45.28708" lon="5.88905">
        <ele>237.44200134277</ele>
        <time>2017-10-04T19:41:09Z</time>
      </trkpt>
      <trkpt lat="45.28703" lon="5.88896">
        <ele>237.44200134277</ele>
        <time>2017-10-04T19:41:11Z</time>
      </trkpt>
      <trkpt lat="45.28697" lon="5.88886">
        <ele>237.44200134277</ele>
        <time>2017-10-04T19:41:13Z</time>
      </trkpt>
      <trkpt lat="45.28692" lon="5.88875">
        <ele>238.44200134277</ele>
        <time>2017-10-04T19:41:15Z</time>
      </trkpt>
      <trkpt lat="45.28688" lon="5.88866">
        <ele>238.44200134277</ele>
        <time>2017-10-04T19:41:17Z</time>
      </trkpt>
      <trkpt lat="45.28681" lon="5.8885">
        <ele>237.44200134277</ele>
        <time>2017-10-04T19:41:20Z</time>
      </trkpt>
      <trkpt lat="45.28676" lon="5.88841">
        <ele>236.44200134277</ele>
        <time>2017-10-04T19:41:22Z</time>
      </trkpt>
      <trkpt lat="45.28671" lon="5.8883">
        <ele>238.44200134277</ele>
        <time>2017-10-04T19:41:24Z</time>
      </trkpt>
      <trkpt lat="45.28663" lon="5.88817">
        <ele>237.44200134277</ele>
        <time>2017-10-04T19:41:27Z</time>
      </trkpt>
      <trkpt lat="45.28655" lon="5.88808">
        <ele>237.44200134277</ele>
        <time>2017-10-04T19:41:29Z</time>
      </trkpt>
      <trkpt lat="45.28643" lon="5.88798">
        <ele>236.44200134277</ele>
        <time>2017-10-04T19:41:32Z</time>
      </trkpt>
      <trkpt lat="45.28634" lon="5.8879">
        <ele>235.44200134277</ele>
        <time>2017-10-04T19:41:34Z</time>
      </trkpt>
      <trkpt lat="45.28629" lon="5.88785">
        <ele>235.44200134277</ele>
        <time>2017-10-04T19:41:35Z</time>
      </trkpt>
      <trkpt lat="45.28619" lon="5.88778">
        <ele>236.44200134277</ele>
        <time>2017-10-04T19:41:37Z</time>
      </trkpt>
      <trkpt lat="45.2861" lon="5.88769">
        <ele>238.44200134277</ele>
        <time>2017-10-04T19:41:39Z</time>
      </trkpt>
      <trkpt lat="45.28604" lon="5.8876">
        <ele>238.44200134277</ele>
        <time>2017-10-04T19:41:41Z</time>
      </trkpt>
      <trkpt lat="45.2859" lon="5.88743">
        <ele>241.44200134277</ele>
        <time>2017-10-04T19:41:45Z</time>
      </trkpt>
      <trkpt lat="45.28583" lon="5.88736">
        <ele>240.44200134277</ele>
        <time>2017-10-04T19:41:47Z</time>
      </trkpt>
      <trkpt lat="45.28577" lon="5.88731">
        <ele>240.44200134277</ele>
        <time>2017-10-04T19:41:49Z</time>
      </trkpt>
      <trkpt lat="45.28572" lon="5.88726">
        <ele>240.44200134277</ele>
        <time>2017-10-04T19:41:51Z</time>
      </trkpt>
      <trkpt lat="45.28562" lon="5.88718">
        <ele>240.44200134277</ele>
        <time>2017-10-04T19:41:54Z</time>
      </trkpt>
      <trkpt lat="45.28557" lon="5.88713">
        <ele>239.44200134277</ele>
        <time>2017-10-04T19:41:56Z</time>
      </trkpt>
      <trkpt lat="45.28552" lon="5.88705">
        <ele>241.44200134277</ele>
        <time>2017-10-04T19:41:58Z</time>
      </trkpt>
      <trkpt lat="45.28545" lon="5.88698">
        <ele>242.44200134277</ele>
        <time>2017-10-04T19:42:00Z</time>
      </trkpt>
      <trkpt lat="45.2854" lon="5.88693">
        <ele>243.44200134277</ele>
        <time>2017-10-04T19:42:02Z</time>
      </trkpt>
      <trkpt lat="45.28534" lon="5.88689">
        <ele>243.44200134277</ele>
        <time>2017-10-04T19:42:05Z</time>
      </trkpt>
      <trkpt lat="45.28529" lon="5.88683">
        <ele>243.44200134277</ele>
        <time>2017-10-04T19:42:07Z</time>
      </trkpt>
      <trkpt lat="45.28522" lon="5.88684">
        <ele>243.44200134277</ele>
        <time>2017-10-04T19:42:09Z</time>
      </trkpt>
      <trkpt lat="45.28514" lon="5.88689">
        <ele>244.44200134277</ele>
        <time>2017-10-04T19:42:11Z</time>
      </trkpt>
      <trkpt lat="45.28503" lon="5.88695">
        <ele>244.44200134277</ele>
        <time>2017-10-04T19:42:13Z</time>
      </trkpt>
      <trkpt lat="45.28498" lon="5.88701">
        <ele>243.44200134277</ele>
        <time>2017-10-04T19:42:15Z</time>
      </trkpt>
      <trkpt lat="45.28492" lon="5.88708">
        <ele>245.44200134277</ele>
        <time>2017-10-04T19:42:17Z</time>
      </trkpt>
      <trkpt lat="45.28485" lon="5.88718">
        <ele>246.44200134277</ele>
        <time>2017-10-04T19:42:19Z</time>
      </trkpt>
      <trkpt lat="45.28477" lon="5.88727">
        <ele>243.44200134277</ele>
        <time>2017-10-04T19:42:21Z</time>
      </trkpt>
      <trkpt lat="45.28467" lon="5.88739">
        <ele>245.44200134277</ele>
        <time>2017-10-04T19:42:23Z</time>
      </trkpt>
      <trkpt lat="45.28458" lon="5.8875">
        <ele>246.44200134277</ele>
        <time>2017-10-04T19:42:25Z</time>
      </trkpt>
      <trkpt lat="45.28448" lon="5.88759">
        <ele>246.44200134277</ele>
        <time>2017-10-04T19:42:27Z</time>
      </trkpt>
      <trkpt lat="45.28439" lon="5.88772">
        <ele>248.44200134277</ele>
        <time>2017-10-04T19:42:29Z</time>
      </trkpt>
      <trkpt lat="45.2843" lon="5.8878">
        <ele>247.44200134277</ele>
        <time>2017-10-04T19:42:31Z</time>
      </trkpt>
      <trkpt lat="45.28419" lon="5.88787">
        <ele>245.44200134277</ele>
        <time>2017-10-04T19:42:33Z</time>
      </trkpt>
      <trkpt lat="45.28417" lon="5.88797">
        <ele>246.44200134277</ele>
        <time>2017-10-04T19:42:34Z</time>
      </trkpt>
      <trkpt lat="45.28406" lon="5.88806">
        <ele>245.44200134277</ele>
        <time>2017-10-04T19:42:36Z</time>
      </trkpt>
      <trkpt lat="45.28397" lon="5.88815">
        <ele>244.44200134277</ele>
        <time>2017-10-04T19:42:38Z</time>
      </trkpt>
      <trkpt lat="45.28387" lon="5.8882">
        <ele>242.44200134277</ele>
        <time>2017-10-04T19:42:40Z</time>
      </trkpt>
      <trkpt lat="45.28375" lon="5.88818">
        <ele>240.44200134277</ele>
        <time>2017-10-04T19:42:43Z</time>
      </trkpt>
      <trkpt lat="45.28368" lon="5.88809">
        <ele>240.44200134277</ele>
        <time>2017-10-04T19:42:45Z</time>
      </trkpt>
      <trkpt lat="45.28356" lon="5.88801">
        <ele>240.44200134277</ele>
        <time>2017-10-04T19:42:47Z</time>
      </trkpt>
      <trkpt lat="45.28345" lon="5.88796">
        <ele>239.44099426269</ele>
        <time>2017-10-04T19:42:49Z</time>
      </trkpt>
      <trkpt lat="45.28335" lon="5.8879">
        <ele>238.44099426269</ele>
        <time>2017-10-04T19:42:51Z</time>
      </trkpt>
      <trkpt lat="45.28319" lon="5.88783">
        <ele>236.44099426269</ele>
        <time>2017-10-04T19:42:53Z</time>
      </trkpt>
      <trkpt lat="45.28306" lon="5.88778">
        <ele>236.44099426269</ele>
        <time>2017-10-04T19:42:55Z</time>
      </trkpt>
      <trkpt lat="45.28293" lon="5.88771">
        <ele>238.44099426269</ele>
        <time>2017-10-04T19:42:57Z</time>
      </trkpt>
      <trkpt lat="45.28278" lon="5.88763">
        <ele>238.44099426269</ele>
        <time>2017-10-04T19:42:59Z</time>
      </trkpt>
      <trkpt lat="45.2827" lon="5.8876">
        <ele>238.44099426269</ele>
        <time>2017-10-04T19:43:01Z</time>
      </trkpt>
      <trkpt lat="45.28258" lon="5.88759">
        <ele>236.44099426269</ele>
        <time>2017-10-04T19:43:03Z</time>
      </trkpt>
      <trkpt lat="45.28246" lon="5.88756">
        <ele>235.44099426269</ele>
        <time>2017-10-04T19:43:05Z</time>
      </trkpt>
      <trkpt lat="45.28236" lon="5.88748">
        <ele>235.44099426269</ele>
        <time>2017-10-04T19:43:07Z</time>
      </trkpt>
      <trkpt lat="45.28229" lon="5.88737">
        <ele>235.44099426269</ele>
        <time>2017-10-04T19:43:09Z</time>
      </trkpt>
      <trkpt lat="45.28224" lon="5.88731">
        <ele>235.44099426269</ele>
        <time>2017-10-04T19:43:11Z</time>
      </trkpt>
      <trkpt lat="45.2822" lon="5.88727">
        <ele>234.44099426269</ele>
        <time>2017-10-04T19:43:12Z</time>
      </trkpt>
      <trkpt lat="45.28215" lon="5.88723">
        <ele>236.44099426269</ele>
        <time>2017-10-04T19:43:14Z</time>
      </trkpt>
      <trkpt lat="45.28208" lon="5.88715">
        <ele>238.44099426269</ele>
        <time>2017-10-04T19:43:16Z</time>
      </trkpt>
      <trkpt lat="45.282" lon="5.88703">
        <ele>239.44099426269</ele>
        <time>2017-10-04T19:43:18Z</time>
      </trkpt>
      <trkpt lat="45.28192" lon="5.88695">
        <ele>240.44099426269</ele>
        <time>2017-10-04T19:43:20Z</time>
      </trkpt>
      <trkpt lat="45.28188" lon="5.88688">
        <ele>240.44099426269</ele>
        <time>2017-10-04T19:43:21Z</time>
      </trkpt>
      <trkpt lat="45.28179" lon="5.88676">
        <ele>237.44099426269</ele>
        <time>2017-10-04T19:43:24Z</time>
      </trkpt>
      <trkpt lat="45.28173" lon="5.88668">
        <ele>237.44099426269</ele>
        <time>2017-10-04T19:43:26Z</time>
      </trkpt>
      <trkpt lat="45.28164" lon="5.88658">
        <ele>237.44099426269</ele>
        <time>2017-10-04T19:43:28Z</time>
      </trkpt>
      <trkpt lat="45.28156" lon="5.88648">
        <ele>237.44099426269</ele>
        <time>2017-10-04T19:43:30Z</time>
      </trkpt>
      <trkpt lat="45.2815" lon="5.88641">
        <ele>237.44099426269</ele>
        <time>2017-10-04T19:43:32Z</time>
      </trkpt>
      <trkpt lat="45.28139" lon="5.88628">
        <ele>238.44099426269</ele>
        <time>2017-10-04T19:43:35Z</time>
      </trkpt>
      <trkpt lat="45.2813" lon="5.88632">
        <ele>239.44099426269</ele>
        <time>2017-10-04T19:43:37Z</time>
      </trkpt>
      <trkpt lat="45.28123" lon="5.88641">
        <ele>238.44099426269</ele>
        <time>2017-10-04T19:43:39Z</time>
      </trkpt>
      <trkpt lat="45.28117" lon="5.88652">
        <ele>239.44099426269</ele>
        <time>2017-10-04T19:43:41Z</time>
      </trkpt>
      <trkpt lat="45.28107" lon="5.8867">
        <ele>238.44099426269</ele>
        <time>2017-10-04T19:43:44Z</time>
      </trkpt>
      <trkpt lat="45.28098" lon="5.88682">
        <ele>238.44099426269</ele>
        <time>2017-10-04T19:43:46Z</time>
      </trkpt>
      <trkpt lat="45.28089" lon="5.88698">
        <ele>239.44099426269</ele>
        <time>2017-10-04T19:43:49Z</time>
      </trkpt>
      <trkpt lat="45.28084" lon="5.88704">
        <ele>240.44099426269</ele>
        <time>2017-10-04T19:43:51Z</time>
      </trkpt>
      <trkpt lat="45.2808" lon="5.88708">
        <ele>240.44099426269</ele>
        <time>2017-10-04T19:43:53Z</time>
      </trkpt>
    </trkseg>
  </trk>
</gpx>